<?xml version="1.0" encoding="UTF-8" standalone="no" ?>
<gpx xmlns="http://www.topografix.com/GPX/1/1" xmlns:xsi="http://www.w3.org/2001/XMLSchema-instance" xsi:schemaLocation="http://www.topografix.com/GPX/1/1 http://www.topografix.com/GPX/1/1/gpx.xsd" version="1.1" creator="VisuGPX - https://www.visugpx.com">
  <metadata>
    <name>parcours 3</name>
    <desc><![CDATA[VELO AVEC MAMAN]]></desc>
  </metadata>
  <trk>
    <name><![CDATA[B.iCycle Track from 2011-08-03_10.25.11]]></name>
    <trkseg>
      <trkpt lat="44.83034" lon="0.99754">
        <ele>1.920753</ele>
        <time>2011-08-03T08:27:07.212Z</time>
      </trkpt>
      <trkpt lat="44.83055" lon="0.99751">
        <ele>-4.079159</ele>
        <time>2011-08-03T08:27:12.205Z</time>
      </trkpt>
      <trkpt lat="44.83075" lon="0.99748">
        <ele>-8.079086</ele>
        <time>2011-08-03T08:27:18.203Z</time>
      </trkpt>
      <trkpt lat="44.83096" lon="0.99745">
        <ele>-10.07901</ele>
        <time>2011-08-03T08:27:24.198Z</time>
      </trkpt>
      <trkpt lat="44.83103" lon="0.99743">
        <ele>-10.078983</ele>
        <time>2011-08-03T08:27:26.197Z</time>
      </trkpt>
      <trkpt lat="44.83114" lon="0.9974">
        <ele>-8.078945</ele>
        <time>2011-08-03T08:27:29.215Z</time>
      </trkpt>
      <trkpt lat="44.83121" lon="0.99739">
        <ele>-7.078926</ele>
        <time>2011-08-03T08:27:31.202Z</time>
      </trkpt>
      <trkpt lat="44.83128" lon="0.99736">
        <ele>-6.078911</ele>
        <time>2011-08-03T08:27:33.198Z</time>
      </trkpt>
      <trkpt lat="44.83134" lon="0.99734">
        <ele>-5.078884</ele>
        <time>2011-08-03T08:27:35.200Z</time>
      </trkpt>
      <trkpt lat="44.83141" lon="0.99733">
        <ele>-4.078857</ele>
        <time>2011-08-03T08:27:37.200Z</time>
      </trkpt>
      <trkpt lat="44.83148" lon="0.99731">
        <ele>-3.078838</ele>
        <time>2011-08-03T08:27:39.232Z</time>
      </trkpt>
      <trkpt lat="44.83155" lon="0.9973">
        <ele>-3.078815</ele>
        <time>2011-08-03T08:27:41.195Z</time>
      </trkpt>
      <trkpt lat="44.83162" lon="0.99728">
        <ele>-2.078793</ele>
        <time>2011-08-03T08:27:43.203Z</time>
      </trkpt>
      <trkpt lat="44.83169" lon="0.99726">
        <ele>-2.07877</ele>
        <time>2011-08-03T08:27:45.197Z</time>
      </trkpt>
      <trkpt lat="44.83176" lon="0.99725">
        <ele>-2.078739</ele>
        <time>2011-08-03T08:27:47.200Z</time>
      </trkpt>
      <trkpt lat="44.83183" lon="0.99722">
        <ele>-2.078724</ele>
        <time>2011-08-03T08:27:49.203Z</time>
      </trkpt>
      <trkpt lat="44.8319" lon="0.9972">
        <ele>-1.078701</ele>
        <time>2011-08-03T08:27:51.205Z</time>
      </trkpt>
      <trkpt lat="44.83197" lon="0.99717">
        <ele>-1.078674</ele>
        <time>2011-08-03T08:27:53.196Z</time>
      </trkpt>
      <trkpt lat="44.83203" lon="0.99714">
        <ele>-0.078663</ele>
        <time>2011-08-03T08:27:55.194Z</time>
      </trkpt>
      <trkpt lat="44.8321" lon="0.9971">
        <ele>-1.078644</ele>
        <time>2011-08-03T08:27:57.198Z</time>
      </trkpt>
      <trkpt lat="44.83216" lon="0.99705">
        <ele>-1.078644</ele>
        <time>2011-08-03T08:27:59.202Z</time>
      </trkpt>
      <trkpt lat="44.83225" lon="0.99697">
        <ele>-1.078629</ele>
        <time>2011-08-03T08:28:02.198Z</time>
      </trkpt>
      <trkpt lat="44.83231" lon="0.99692">
        <ele>-1.078629</ele>
        <time>2011-08-03T08:28:04.200Z</time>
      </trkpt>
      <trkpt lat="44.83237" lon="0.99688">
        <ele>-1.078621</ele>
        <time>2011-08-03T08:28:06.201Z</time>
      </trkpt>
      <trkpt lat="44.83242" lon="0.99683">
        <ele>-1.078609</ele>
        <time>2011-08-03T08:28:08.199Z</time>
      </trkpt>
      <trkpt lat="44.8325" lon="0.99676">
        <ele>-1.078598</ele>
        <time>2011-08-03T08:28:11.197Z</time>
      </trkpt>
      <trkpt lat="44.83256" lon="0.99672">
        <ele>-1.07859</ele>
        <time>2011-08-03T08:28:13.205Z</time>
      </trkpt>
      <trkpt lat="44.83261" lon="0.99666">
        <ele>-1.078583</ele>
        <time>2011-08-03T08:28:15.203Z</time>
      </trkpt>
      <trkpt lat="44.83267" lon="0.99661">
        <ele>-0.078579</ele>
        <time>2011-08-03T08:28:17.198Z</time>
      </trkpt>
      <trkpt lat="44.83273" lon="0.99656">
        <ele>-1.078571</ele>
        <time>2011-08-03T08:28:19.203Z</time>
      </trkpt>
      <trkpt lat="44.83279" lon="0.9965">
        <ele>-1.078568</ele>
        <time>2011-08-03T08:28:21.198Z</time>
      </trkpt>
      <trkpt lat="44.83285" lon="0.99645">
        <ele>-1.07856</ele>
        <time>2011-08-03T08:28:23.205Z</time>
      </trkpt>
      <trkpt lat="44.83291" lon="0.9964">
        <ele>-1.078556</ele>
        <time>2011-08-03T08:28:25.201Z</time>
      </trkpt>
      <trkpt lat="44.83298" lon="0.99634">
        <ele>-0.078545</ele>
        <time>2011-08-03T08:28:27.202Z</time>
      </trkpt>
      <trkpt lat="44.83304" lon="0.99629">
        <ele>0.921463</ele>
        <time>2011-08-03T08:28:29.197Z</time>
      </trkpt>
      <trkpt lat="44.8331" lon="0.99624">
        <ele>2.921474</ele>
        <time>2011-08-03T08:28:31.201Z</time>
      </trkpt>
      <trkpt lat="44.83316" lon="0.99619">
        <ele>3.921478</ele>
        <time>2011-08-03T08:28:33.201Z</time>
      </trkpt>
      <trkpt lat="44.83322" lon="0.99613">
        <ele>4.92149</ele>
        <time>2011-08-03T08:28:35.195Z</time>
      </trkpt>
      <trkpt lat="44.83328" lon="0.99609">
        <ele>6.921497</ele>
        <time>2011-08-03T08:28:37.238Z</time>
      </trkpt>
      <trkpt lat="44.83334" lon="0.99604">
        <ele>7.921497</ele>
        <time>2011-08-03T08:28:39.195Z</time>
      </trkpt>
      <trkpt lat="44.83339" lon="0.996">
        <ele>7.921505</ele>
        <time>2011-08-03T08:28:41.201Z</time>
      </trkpt>
      <trkpt lat="44.83344" lon="0.99596">
        <ele>8.92152</ele>
        <time>2011-08-03T08:28:43.203Z</time>
      </trkpt>
      <trkpt lat="44.83348" lon="0.99592">
        <ele>9.92152</ele>
        <time>2011-08-03T08:28:45.202Z</time>
      </trkpt>
      <trkpt lat="44.83352" lon="0.99588">
        <ele>9.92152</ele>
        <time>2011-08-03T08:28:47.194Z</time>
      </trkpt>
      <trkpt lat="44.83355" lon="0.99577">
        <ele>10.921494</ele>
        <time>2011-08-03T08:28:51.209Z</time>
      </trkpt>
      <trkpt lat="44.8335" lon="0.99557">
        <ele>11.921406</ele>
        <time>2011-08-03T08:28:57.196Z</time>
      </trkpt>
      <trkpt lat="44.83348" lon="0.99551">
        <ele>11.921368</ele>
        <time>2011-08-03T08:28:59.213Z</time>
      </trkpt>
      <trkpt lat="44.83336" lon="0.99528">
        <ele>11.921242</ele>
        <time>2011-08-03T08:29:06.198Z</time>
      </trkpt>
      <trkpt lat="44.83332" lon="0.99521">
        <ele>11.9212</ele>
        <time>2011-08-03T08:29:08.196Z</time>
      </trkpt>
      <trkpt lat="44.83321" lon="0.99497">
        <ele>9.921066</ele>
        <time>2011-08-03T08:29:15.199Z</time>
      </trkpt>
      <trkpt lat="44.83312" lon="0.99475">
        <ele>10.920952</ele>
        <time>2011-08-03T08:29:21.197Z</time>
      </trkpt>
      <trkpt lat="44.83303" lon="0.99451">
        <ele>10.92083</ele>
        <time>2011-08-03T08:29:27.205Z</time>
      </trkpt>
      <trkpt lat="44.83299" lon="0.99437">
        <ele>11.920757</ele>
        <time>2011-08-03T08:29:30.198Z</time>
      </trkpt>
      <trkpt lat="44.83295" lon="0.99429">
        <ele>11.920719</ele>
        <time>2011-08-03T08:29:32.198Z</time>
      </trkpt>
      <trkpt lat="44.8329" lon="0.99422">
        <ele>11.920673</ele>
        <time>2011-08-03T08:29:34.199Z</time>
      </trkpt>
      <trkpt lat="44.83278" lon="0.99402">
        <ele>13.920547</ele>
        <time>2011-08-03T08:29:39.205Z</time>
      </trkpt>
      <trkpt lat="44.83267" lon="0.99383">
        <ele>13.920437</ele>
        <time>2011-08-03T08:29:44.201Z</time>
      </trkpt>
      <trkpt lat="44.83263" lon="0.99375">
        <ele>13.920387</ele>
        <time>2011-08-03T08:29:46.198Z</time>
      </trkpt>
      <trkpt lat="44.83249" lon="0.99355">
        <ele>13.92025</ele>
        <time>2011-08-03T08:29:51.199Z</time>
      </trkpt>
      <trkpt lat="44.83238" lon="0.9934">
        <ele>13.920158</ele>
        <time>2011-08-03T08:29:55.202Z</time>
      </trkpt>
      <trkpt lat="44.83231" lon="0.99333">
        <ele>12.920109</ele>
        <time>2011-08-03T08:29:57.203Z</time>
      </trkpt>
      <trkpt lat="44.83225" lon="0.99328">
        <ele>11.920063</ele>
        <time>2011-08-03T08:29:59.198Z</time>
      </trkpt>
      <trkpt lat="44.83218" lon="0.99319">
        <ele>11.920002</ele>
        <time>2011-08-03T08:30:02.191Z</time>
      </trkpt>
      <trkpt lat="44.83208" lon="0.99305">
        <ele>12.919903</ele>
        <time>2011-08-03T08:30:06.201Z</time>
      </trkpt>
      <trkpt lat="44.83196" lon="0.99284">
        <ele>12.919781</ele>
        <time>2011-08-03T08:30:11.203Z</time>
      </trkpt>
      <trkpt lat="44.83189" lon="0.9927">
        <ele>12.919701</ele>
        <time>2011-08-03T08:30:14.199Z</time>
      </trkpt>
      <trkpt lat="44.83184" lon="0.99261">
        <ele>11.91964</ele>
        <time>2011-08-03T08:30:16.198Z</time>
      </trkpt>
      <trkpt lat="44.83179" lon="0.99253">
        <ele>11.919594</ele>
        <time>2011-08-03T08:30:18.200Z</time>
      </trkpt>
      <trkpt lat="44.83174" lon="0.99245">
        <ele>11.919544</ele>
        <time>2011-08-03T08:30:20.194Z</time>
      </trkpt>
      <trkpt lat="44.83169" lon="0.99237">
        <ele>12.919502</ele>
        <time>2011-08-03T08:30:22.203Z</time>
      </trkpt>
      <trkpt lat="44.83164" lon="0.99228">
        <ele>12.919445</ele>
        <time>2011-08-03T08:30:24.206Z</time>
      </trkpt>
      <trkpt lat="44.83151" lon="0.99206">
        <ele>14.919312</ele>
        <time>2011-08-03T08:30:30.206Z</time>
      </trkpt>
      <trkpt lat="44.8314" lon="0.99183">
        <ele>13.919178</ele>
        <time>2011-08-03T08:30:36.201Z</time>
      </trkpt>
      <trkpt lat="44.83128" lon="0.99159">
        <ele>13.919044</ele>
        <time>2011-08-03T08:30:42.196Z</time>
      </trkpt>
      <trkpt lat="44.83124" lon="0.99151">
        <ele>13.918999</ele>
        <time>2011-08-03T08:30:44.196Z</time>
      </trkpt>
      <trkpt lat="44.83111" lon="0.99127">
        <ele>14.918865</ele>
        <time>2011-08-03T08:30:50.200Z</time>
      </trkpt>
      <trkpt lat="44.83106" lon="0.99119">
        <ele>14.918816</ele>
        <time>2011-08-03T08:30:52.198Z</time>
      </trkpt>
      <trkpt lat="44.83102" lon="0.99112">
        <ele>15.91877</ele>
        <time>2011-08-03T08:30:54.199Z</time>
      </trkpt>
      <trkpt lat="44.83097" lon="0.99104">
        <ele>15.918724</ele>
        <time>2011-08-03T08:30:56.196Z</time>
      </trkpt>
      <trkpt lat="44.83093" lon="0.99096">
        <ele>15.918686</ele>
        <time>2011-08-03T08:30:58.202Z</time>
      </trkpt>
      <trkpt lat="44.83083" lon="0.99078">
        <ele>14.918579</ele>
        <time>2011-08-03T08:31:03.196Z</time>
      </trkpt>
      <trkpt lat="44.8308" lon="0.99071">
        <ele>15.918533</ele>
        <time>2011-08-03T08:31:05.204Z</time>
      </trkpt>
      <trkpt lat="44.83076" lon="0.99065">
        <ele>15.918491</ele>
        <time>2011-08-03T08:31:07.200Z</time>
      </trkpt>
      <trkpt lat="44.83069" lon="0.99062">
        <ele>15.918457</ele>
        <time>2011-08-03T08:31:10.201Z</time>
      </trkpt>
      <trkpt lat="44.83063" lon="0.99064">
        <ele>15.918442</ele>
        <time>2011-08-03T08:31:12.199Z</time>
      </trkpt>
      <trkpt lat="44.83047" lon="0.99078">
        <ele>14.918419</ele>
        <time>2011-08-03T08:31:17.193Z</time>
      </trkpt>
      <trkpt lat="44.83041" lon="0.99084">
        <ele>14.918419</ele>
        <time>2011-08-03T08:31:19.204Z</time>
      </trkpt>
      <trkpt lat="44.83036" lon="0.9909">
        <ele>14.918404</ele>
        <time>2011-08-03T08:31:21.197Z</time>
      </trkpt>
      <trkpt lat="44.8303" lon="0.99095">
        <ele>14.918404</ele>
        <time>2011-08-03T08:31:23.198Z</time>
      </trkpt>
      <trkpt lat="44.83024" lon="0.99099">
        <ele>13.918407</ele>
        <time>2011-08-03T08:31:25.239Z</time>
      </trkpt>
      <trkpt lat="44.83018" lon="0.99103">
        <ele>13.918381</ele>
        <time>2011-08-03T08:31:27.198Z</time>
      </trkpt>
      <trkpt lat="44.83006" lon="0.99111">
        <ele>13.918354</ele>
        <time>2011-08-03T08:31:31.200Z</time>
      </trkpt>
      <trkpt lat="44.82988" lon="0.99119">
        <ele>12.91832</ele>
        <time>2011-08-03T08:31:36.198Z</time>
      </trkpt>
      <trkpt lat="44.8297" lon="0.99126">
        <ele>12.918259</ele>
        <time>2011-08-03T08:31:41.195Z</time>
      </trkpt>
      <trkpt lat="44.82963" lon="0.99129">
        <ele>12.918232</ele>
        <time>2011-08-03T08:31:43.199Z</time>
      </trkpt>
      <trkpt lat="44.82956" lon="0.99131">
        <ele>12.918217</ele>
        <time>2011-08-03T08:31:45.197Z</time>
      </trkpt>
      <trkpt lat="44.82949" lon="0.99133">
        <ele>11.918198</ele>
        <time>2011-08-03T08:31:47.195Z</time>
      </trkpt>
      <trkpt lat="44.82942" lon="0.99134">
        <ele>12.918175</ele>
        <time>2011-08-03T08:31:49.200Z</time>
      </trkpt>
      <trkpt lat="44.82935" lon="0.99134">
        <ele>12.918144</ele>
        <time>2011-08-03T08:31:51.202Z</time>
      </trkpt>
      <trkpt lat="44.82928" lon="0.99133">
        <ele>12.918114</ele>
        <time>2011-08-03T08:31:53.202Z</time>
      </trkpt>
      <trkpt lat="44.82921" lon="0.99132">
        <ele>12.918076</ele>
        <time>2011-08-03T08:31:55.198Z</time>
      </trkpt>
      <trkpt lat="44.82914" lon="0.99131">
        <ele>12.918037</ele>
        <time>2011-08-03T08:31:57.200Z</time>
      </trkpt>
      <trkpt lat="44.82907" lon="0.99129">
        <ele>13.918003</ele>
        <time>2011-08-03T08:31:59.195Z</time>
      </trkpt>
      <trkpt lat="44.829" lon="0.99127">
        <ele>13.917976</ele>
        <time>2011-08-03T08:32:01.202Z</time>
      </trkpt>
      <trkpt lat="44.82893" lon="0.99125">
        <ele>14.917923</ele>
        <time>2011-08-03T08:32:03.195Z</time>
      </trkpt>
      <trkpt lat="44.82886" lon="0.99123">
        <ele>14.917889</ele>
        <time>2011-08-03T08:32:05.197Z</time>
      </trkpt>
      <trkpt lat="44.82878" lon="0.9912">
        <ele>14.91785</ele>
        <time>2011-08-03T08:32:07.198Z</time>
      </trkpt>
      <trkpt lat="44.82871" lon="0.99117">
        <ele>14.917809</ele>
        <time>2011-08-03T08:32:09.198Z</time>
      </trkpt>
      <trkpt lat="44.82864" lon="0.99114">
        <ele>14.917767</ele>
        <time>2011-08-03T08:32:11.191Z</time>
      </trkpt>
      <trkpt lat="44.82857" lon="0.99111">
        <ele>14.917721</ele>
        <time>2011-08-03T08:32:13.192Z</time>
      </trkpt>
      <trkpt lat="44.8285" lon="0.99109">
        <ele>14.917686</ele>
        <time>2011-08-03T08:32:15.198Z</time>
      </trkpt>
      <trkpt lat="44.82843" lon="0.99107">
        <ele>14.917648</ele>
        <time>2011-08-03T08:32:17.194Z</time>
      </trkpt>
      <trkpt lat="44.82836" lon="0.99105">
        <ele>14.91761</ele>
        <time>2011-08-03T08:32:19.198Z</time>
      </trkpt>
      <trkpt lat="44.82829" lon="0.99103">
        <ele>14.917576</ele>
        <time>2011-08-03T08:32:21.198Z</time>
      </trkpt>
      <trkpt lat="44.82822" lon="0.99101">
        <ele>13.917542</ele>
        <time>2011-08-03T08:32:23.192Z</time>
      </trkpt>
      <trkpt lat="44.82816" lon="0.99099">
        <ele>13.917511</ele>
        <time>2011-08-03T08:32:25.202Z</time>
      </trkpt>
      <trkpt lat="44.8281" lon="0.99097">
        <ele>13.91748</ele>
        <time>2011-08-03T08:32:27.202Z</time>
      </trkpt>
      <trkpt lat="44.82804" lon="0.99095">
        <ele>14.91745</ele>
        <time>2011-08-03T08:32:29.200Z</time>
      </trkpt>
      <trkpt lat="44.82798" lon="0.99092">
        <ele>14.917412</ele>
        <time>2011-08-03T08:32:31.195Z</time>
      </trkpt>
      <trkpt lat="44.82792" lon="0.9909">
        <ele>14.917381</ele>
        <time>2011-08-03T08:32:33.199Z</time>
      </trkpt>
      <trkpt lat="44.82787" lon="0.99088">
        <ele>14.917347</ele>
        <time>2011-08-03T08:32:35.201Z</time>
      </trkpt>
      <trkpt lat="44.82783" lon="0.99086">
        <ele>14.917328</ele>
        <time>2011-08-03T08:32:37.199Z</time>
      </trkpt>
      <trkpt lat="44.82778" lon="0.99084">
        <ele>15.917294</ele>
        <time>2011-08-03T08:32:39.199Z</time>
      </trkpt>
      <trkpt lat="44.82772" lon="0.9908">
        <ele>16.917255</ele>
        <time>2011-08-03T08:32:42.205Z</time>
      </trkpt>
      <trkpt lat="44.82767" lon="0.99077">
        <ele>18.917229</ele>
        <time>2011-08-03T08:32:45.196Z</time>
      </trkpt>
      <trkpt lat="44.82759" lon="0.99074">
        <ele>21.917171</ele>
        <time>2011-08-03T08:32:49.196Z</time>
      </trkpt>
      <trkpt lat="44.82754" lon="0.99071">
        <ele>21.917152</ele>
        <time>2011-08-03T08:32:52.199Z</time>
      </trkpt>
      <trkpt lat="44.82745" lon="0.99066">
        <ele>23.917099</ele>
        <time>2011-08-03T08:32:56.226Z</time>
      </trkpt>
      <trkpt lat="44.82732" lon="0.9906">
        <ele>23.917015</ele>
        <time>2011-08-03T08:33:01.195Z</time>
      </trkpt>
      <trkpt lat="44.82727" lon="0.99057">
        <ele>24.916981</ele>
        <time>2011-08-03T08:33:03.202Z</time>
      </trkpt>
      <trkpt lat="44.82723" lon="0.99054">
        <ele>24.916962</ele>
        <time>2011-08-03T08:33:05.193Z</time>
      </trkpt>
      <trkpt lat="44.82718" lon="0.99051">
        <ele>24.916924</ele>
        <time>2011-08-03T08:33:07.193Z</time>
      </trkpt>
      <trkpt lat="44.82711" lon="0.99049">
        <ele>24.916893</ele>
        <time>2011-08-03T08:33:09.196Z</time>
      </trkpt>
      <trkpt lat="44.82703" lon="0.99047">
        <ele>25.91684</ele>
        <time>2011-08-03T08:33:11.199Z</time>
      </trkpt>
      <trkpt lat="44.82694" lon="0.99045">
        <ele>25.916805</ele>
        <time>2011-08-03T08:33:13.196Z</time>
      </trkpt>
      <trkpt lat="44.8269" lon="0.99043">
        <ele>25.916779</ele>
        <time>2011-08-03T08:33:14.193Z</time>
      </trkpt>
      <trkpt lat="44.82681" lon="0.99041">
        <ele>25.916733</ele>
        <time>2011-08-03T08:33:16.200Z</time>
      </trkpt>
      <trkpt lat="44.82672" lon="0.9904">
        <ele>25.916695</ele>
        <time>2011-08-03T08:33:18.195Z</time>
      </trkpt>
      <trkpt lat="44.82664" lon="0.99038">
        <ele>25.916653</ele>
        <time>2011-08-03T08:33:20.200Z</time>
      </trkpt>
      <trkpt lat="44.82656" lon="0.99037">
        <ele>25.916611</ele>
        <time>2011-08-03T08:33:22.200Z</time>
      </trkpt>
      <trkpt lat="44.8265" lon="0.99035">
        <ele>25.916576</ele>
        <time>2011-08-03T08:33:24.199Z</time>
      </trkpt>
      <trkpt lat="44.82643" lon="0.99034">
        <ele>25.916542</ele>
        <time>2011-08-03T08:33:26.193Z</time>
      </trkpt>
      <trkpt lat="44.82636" lon="0.99032">
        <ele>25.916512</ele>
        <time>2011-08-03T08:33:28.200Z</time>
      </trkpt>
      <trkpt lat="44.82629" lon="0.99031">
        <ele>26.916481</ele>
        <time>2011-08-03T08:33:30.197Z</time>
      </trkpt>
      <trkpt lat="44.82622" lon="0.9903">
        <ele>26.916443</ele>
        <time>2011-08-03T08:33:32.192Z</time>
      </trkpt>
      <trkpt lat="44.82615" lon="0.99028">
        <ele>25.916405</ele>
        <time>2011-08-03T08:33:34.199Z</time>
      </trkpt>
      <trkpt lat="44.82608" lon="0.99026">
        <ele>25.91637</ele>
        <time>2011-08-03T08:33:36.198Z</time>
      </trkpt>
      <trkpt lat="44.82601" lon="0.99024">
        <ele>25.91634</ele>
        <time>2011-08-03T08:33:38.193Z</time>
      </trkpt>
      <trkpt lat="44.82595" lon="0.99022">
        <ele>25.916306</ele>
        <time>2011-08-03T08:33:40.202Z</time>
      </trkpt>
      <trkpt lat="44.82589" lon="0.9902">
        <ele>25.916267</ele>
        <time>2011-08-03T08:33:42.200Z</time>
      </trkpt>
      <trkpt lat="44.82582" lon="0.99018">
        <ele>25.916229</ele>
        <time>2011-08-03T08:33:44.197Z</time>
      </trkpt>
      <trkpt lat="44.82576" lon="0.99016">
        <ele>25.916199</ele>
        <time>2011-08-03T08:33:46.201Z</time>
      </trkpt>
      <trkpt lat="44.8257" lon="0.99014">
        <ele>25.916168</ele>
        <time>2011-08-03T08:33:48.197Z</time>
      </trkpt>
      <trkpt lat="44.82563" lon="0.99012">
        <ele>26.91613</ele>
        <time>2011-08-03T08:33:50.200Z</time>
      </trkpt>
      <trkpt lat="44.82557" lon="0.99009">
        <ele>25.916092</ele>
        <time>2011-08-03T08:33:52.196Z</time>
      </trkpt>
      <trkpt lat="44.8255" lon="0.99006">
        <ele>25.916046</ele>
        <time>2011-08-03T08:33:54.202Z</time>
      </trkpt>
      <trkpt lat="44.82535" lon="0.99001">
        <ele>24.915974</ele>
        <time>2011-08-03T08:33:58.194Z</time>
      </trkpt>
      <trkpt lat="44.82528" lon="0.98998">
        <ele>23.915943</ele>
        <time>2011-08-03T08:34:00.207Z</time>
      </trkpt>
      <trkpt lat="44.82521" lon="0.98995">
        <ele>24.91589</ele>
        <time>2011-08-03T08:34:02.190Z</time>
      </trkpt>
      <trkpt lat="44.82514" lon="0.98992">
        <ele>24.915855</ele>
        <time>2011-08-03T08:34:04.196Z</time>
      </trkpt>
      <trkpt lat="44.82507" lon="0.98988">
        <ele>23.915802</ele>
        <time>2011-08-03T08:34:06.201Z</time>
      </trkpt>
      <trkpt lat="44.82499" lon="0.98985">
        <ele>23.915771</ele>
        <time>2011-08-03T08:34:08.195Z</time>
      </trkpt>
      <trkpt lat="44.82491" lon="0.98982">
        <ele>23.915714</ele>
        <time>2011-08-03T08:34:10.198Z</time>
      </trkpt>
      <trkpt lat="44.82486" lon="0.9898">
        <ele>22.915684</ele>
        <time>2011-08-03T08:34:11.194Z</time>
      </trkpt>
      <trkpt lat="44.82481" lon="0.98978">
        <ele>22.915657</ele>
        <time>2011-08-03T08:34:12.201Z</time>
      </trkpt>
      <trkpt lat="44.82477" lon="0.98976">
        <ele>22.915638</ele>
        <time>2011-08-03T08:34:13.206Z</time>
      </trkpt>
      <trkpt lat="44.82472" lon="0.98974">
        <ele>22.915604</ele>
        <time>2011-08-03T08:34:14.195Z</time>
      </trkpt>
      <trkpt lat="44.82467" lon="0.98973">
        <ele>22.915588</ele>
        <time>2011-08-03T08:34:15.209Z</time>
      </trkpt>
      <trkpt lat="44.82462" lon="0.98971">
        <ele>22.915554</ele>
        <time>2011-08-03T08:34:16.197Z</time>
      </trkpt>
      <trkpt lat="44.82458" lon="0.9897">
        <ele>22.915535</ele>
        <time>2011-08-03T08:34:17.194Z</time>
      </trkpt>
      <trkpt lat="44.82453" lon="0.98968">
        <ele>22.915508</ele>
        <time>2011-08-03T08:34:18.205Z</time>
      </trkpt>
      <trkpt lat="44.82449" lon="0.98967">
        <ele>22.915489</ele>
        <time>2011-08-03T08:34:19.226Z</time>
      </trkpt>
      <trkpt lat="44.82444" lon="0.98965">
        <ele>22.915462</ele>
        <time>2011-08-03T08:34:20.205Z</time>
      </trkpt>
      <trkpt lat="44.8244" lon="0.98963">
        <ele>22.915436</ele>
        <time>2011-08-03T08:34:21.194Z</time>
      </trkpt>
      <trkpt lat="44.82435" lon="0.98962">
        <ele>22.915409</ele>
        <time>2011-08-03T08:34:22.204Z</time>
      </trkpt>
      <trkpt lat="44.82427" lon="0.98959">
        <ele>22.915367</ele>
        <time>2011-08-03T08:34:24.194Z</time>
      </trkpt>
      <trkpt lat="44.82419" lon="0.98956">
        <ele>22.915321</ele>
        <time>2011-08-03T08:34:26.196Z</time>
      </trkpt>
      <trkpt lat="44.82411" lon="0.98952">
        <ele>22.915276</ele>
        <time>2011-08-03T08:34:28.202Z</time>
      </trkpt>
      <trkpt lat="44.824" lon="0.98949">
        <ele>22.915222</ele>
        <time>2011-08-03T08:34:31.202Z</time>
      </trkpt>
      <trkpt lat="44.82393" lon="0.98947">
        <ele>23.915176</ele>
        <time>2011-08-03T08:34:33.192Z</time>
      </trkpt>
      <trkpt lat="44.82386" lon="0.98944">
        <ele>22.915138</ele>
        <time>2011-08-03T08:34:35.193Z</time>
      </trkpt>
      <trkpt lat="44.82379" lon="0.98941">
        <ele>23.915108</ele>
        <time>2011-08-03T08:34:37.196Z</time>
      </trkpt>
      <trkpt lat="44.82373" lon="0.98938">
        <ele>22.915054</ele>
        <time>2011-08-03T08:34:39.199Z</time>
      </trkpt>
      <trkpt lat="44.82366" lon="0.98935">
        <ele>23.915024</ele>
        <time>2011-08-03T08:34:41.195Z</time>
      </trkpt>
      <trkpt lat="44.82359" lon="0.98933">
        <ele>23.914986</ele>
        <time>2011-08-03T08:34:43.203Z</time>
      </trkpt>
      <trkpt lat="44.82353" lon="0.98931">
        <ele>23.914948</ele>
        <time>2011-08-03T08:34:45.213Z</time>
      </trkpt>
      <trkpt lat="44.82346" lon="0.98929">
        <ele>23.914913</ele>
        <time>2011-08-03T08:34:47.194Z</time>
      </trkpt>
      <trkpt lat="44.8234" lon="0.98927">
        <ele>23.914875</ele>
        <time>2011-08-03T08:34:49.197Z</time>
      </trkpt>
      <trkpt lat="44.82333" lon="0.98925">
        <ele>22.914845</ele>
        <time>2011-08-03T08:34:51.205Z</time>
      </trkpt>
      <trkpt lat="44.82327" lon="0.98923">
        <ele>22.91481</ele>
        <time>2011-08-03T08:34:53.223Z</time>
      </trkpt>
      <trkpt lat="44.82321" lon="0.98919">
        <ele>22.914772</ele>
        <time>2011-08-03T08:34:55.197Z</time>
      </trkpt>
      <trkpt lat="44.82315" lon="0.98915">
        <ele>22.914734</ele>
        <time>2011-08-03T08:34:57.204Z</time>
      </trkpt>
      <trkpt lat="44.82309" lon="0.98911">
        <ele>22.914696</ele>
        <time>2011-08-03T08:34:59.196Z</time>
      </trkpt>
      <trkpt lat="44.82302" lon="0.98909">
        <ele>22.91465</ele>
        <time>2011-08-03T08:35:01.206Z</time>
      </trkpt>
      <trkpt lat="44.82294" lon="0.98906">
        <ele>22.914619</ele>
        <time>2011-08-03T08:35:03.195Z</time>
      </trkpt>
      <trkpt lat="44.82287" lon="0.98901">
        <ele>22.914558</ele>
        <time>2011-08-03T08:35:05.194Z</time>
      </trkpt>
      <trkpt lat="44.8228" lon="0.98896">
        <ele>22.914513</ele>
        <time>2011-08-03T08:35:07.195Z</time>
      </trkpt>
      <trkpt lat="44.82273" lon="0.98889">
        <ele>21.914467</ele>
        <time>2011-08-03T08:35:09.199Z</time>
      </trkpt>
      <trkpt lat="44.82267" lon="0.98881">
        <ele>21.914406</ele>
        <time>2011-08-03T08:35:11.194Z</time>
      </trkpt>
      <trkpt lat="44.82261" lon="0.98873">
        <ele>21.91436</ele>
        <time>2011-08-03T08:35:13.200Z</time>
      </trkpt>
      <trkpt lat="44.82256" lon="0.98864">
        <ele>20.914299</ele>
        <time>2011-08-03T08:35:15.195Z</time>
      </trkpt>
      <trkpt lat="44.82252" lon="0.98855">
        <ele>20.914249</ele>
        <time>2011-08-03T08:35:17.198Z</time>
      </trkpt>
      <trkpt lat="44.82248" lon="0.98845">
        <ele>20.914207</ele>
        <time>2011-08-03T08:35:19.194Z</time>
      </trkpt>
      <trkpt lat="44.82245" lon="0.98835">
        <ele>20.914154</ele>
        <time>2011-08-03T08:35:21.195Z</time>
      </trkpt>
      <trkpt lat="44.82242" lon="0.98826">
        <ele>21.914108</ele>
        <time>2011-08-03T08:35:23.194Z</time>
      </trkpt>
      <trkpt lat="44.82239" lon="0.98817">
        <ele>21.914062</ele>
        <time>2011-08-03T08:35:25.241Z</time>
      </trkpt>
      <trkpt lat="44.82236" lon="0.98809">
        <ele>21.914028</ele>
        <time>2011-08-03T08:35:27.204Z</time>
      </trkpt>
      <trkpt lat="44.82234" lon="0.988">
        <ele>22.913979</ele>
        <time>2011-08-03T08:35:29.190Z</time>
      </trkpt>
      <trkpt lat="44.82232" lon="0.9879">
        <ele>22.913948</ele>
        <time>2011-08-03T08:35:31.201Z</time>
      </trkpt>
      <trkpt lat="44.82231" lon="0.98781">
        <ele>23.913902</ele>
        <time>2011-08-03T08:35:33.195Z</time>
      </trkpt>
      <trkpt lat="44.82229" lon="0.98772">
        <ele>24.913868</ele>
        <time>2011-08-03T08:35:35.194Z</time>
      </trkpt>
      <trkpt lat="44.82224" lon="0.98754">
        <ele>24.913776</ele>
        <time>2011-08-03T08:35:39.194Z</time>
      </trkpt>
      <trkpt lat="44.82221" lon="0.98745">
        <ele>24.913734</ele>
        <time>2011-08-03T08:35:41.196Z</time>
      </trkpt>
      <trkpt lat="44.82219" lon="0.98736">
        <ele>24.913696</ele>
        <time>2011-08-03T08:35:43.195Z</time>
      </trkpt>
      <trkpt lat="44.82216" lon="0.98726">
        <ele>23.913643</ele>
        <time>2011-08-03T08:35:45.192Z</time>
      </trkpt>
      <trkpt lat="44.82214" lon="0.98716">
        <ele>24.913605</ele>
        <time>2011-08-03T08:35:47.227Z</time>
      </trkpt>
      <trkpt lat="44.82212" lon="0.98705">
        <ele>24.913551</ele>
        <time>2011-08-03T08:35:49.205Z</time>
      </trkpt>
      <trkpt lat="44.82211" lon="0.98694">
        <ele>25.913509</ele>
        <time>2011-08-03T08:35:51.195Z</time>
      </trkpt>
      <trkpt lat="44.82211" lon="0.98683">
        <ele>26.913475</ele>
        <time>2011-08-03T08:35:53.194Z</time>
      </trkpt>
      <trkpt lat="44.8221" lon="0.98672">
        <ele>26.913429</ele>
        <time>2011-08-03T08:35:55.195Z</time>
      </trkpt>
      <trkpt lat="44.82209" lon="0.98646">
        <ele>25.913334</ele>
        <time>2011-08-03T08:36:00.197Z</time>
      </trkpt>
      <trkpt lat="44.82208" lon="0.98636">
        <ele>25.913288</ele>
        <time>2011-08-03T08:36:02.234Z</time>
      </trkpt>
      <trkpt lat="44.82207" lon="0.98625">
        <ele>25.913254</ele>
        <time>2011-08-03T08:36:04.193Z</time>
      </trkpt>
      <trkpt lat="44.82206" lon="0.98615">
        <ele>25.913208</ele>
        <time>2011-08-03T08:36:06.197Z</time>
      </trkpt>
      <trkpt lat="44.82206" lon="0.98605">
        <ele>25.913185</ele>
        <time>2011-08-03T08:36:08.187Z</time>
      </trkpt>
      <trkpt lat="44.82206" lon="0.98595">
        <ele>25.913132</ele>
        <time>2011-08-03T08:36:10.200Z</time>
      </trkpt>
      <trkpt lat="44.82206" lon="0.98585">
        <ele>25.913097</ele>
        <time>2011-08-03T08:36:12.190Z</time>
      </trkpt>
      <trkpt lat="44.82205" lon="0.98576">
        <ele>25.913071</ele>
        <time>2011-08-03T08:36:14.197Z</time>
      </trkpt>
      <trkpt lat="44.82203" lon="0.98566">
        <ele>25.913021</ele>
        <time>2011-08-03T08:36:16.192Z</time>
      </trkpt>
      <trkpt lat="44.82201" lon="0.98552">
        <ele>26.912964</ele>
        <time>2011-08-03T08:36:19.189Z</time>
      </trkpt>
      <trkpt lat="44.822" lon="0.98543">
        <ele>25.912926</ele>
        <time>2011-08-03T08:36:21.197Z</time>
      </trkpt>
      <trkpt lat="44.82199" lon="0.98534">
        <ele>24.912895</ele>
        <time>2011-08-03T08:36:23.193Z</time>
      </trkpt>
      <trkpt lat="44.82198" lon="0.98525">
        <ele>24.912853</ele>
        <time>2011-08-03T08:36:25.202Z</time>
      </trkpt>
      <trkpt lat="44.82197" lon="0.98516">
        <ele>24.912819</ele>
        <time>2011-08-03T08:36:27.196Z</time>
      </trkpt>
      <trkpt lat="44.82195" lon="0.98507">
        <ele>24.912781</ele>
        <time>2011-08-03T08:36:29.207Z</time>
      </trkpt>
      <trkpt lat="44.82194" lon="0.98498">
        <ele>25.912746</ele>
        <time>2011-08-03T08:36:31.200Z</time>
      </trkpt>
      <trkpt lat="44.82192" lon="0.98488">
        <ele>25.912697</ele>
        <time>2011-08-03T08:36:33.241Z</time>
      </trkpt>
      <trkpt lat="44.8219" lon="0.98479">
        <ele>26.912659</ele>
        <time>2011-08-03T08:36:35.189Z</time>
      </trkpt>
      <trkpt lat="44.82189" lon="0.98468">
        <ele>26.912621</ele>
        <time>2011-08-03T08:36:37.198Z</time>
      </trkpt>
      <trkpt lat="44.82187" lon="0.98458">
        <ele>25.912575</ele>
        <time>2011-08-03T08:36:39.198Z</time>
      </trkpt>
      <trkpt lat="44.82186" lon="0.98447">
        <ele>24.912529</ele>
        <time>2011-08-03T08:36:41.198Z</time>
      </trkpt>
      <trkpt lat="44.82185" lon="0.98437">
        <ele>24.912495</ele>
        <time>2011-08-03T08:36:43.195Z</time>
      </trkpt>
      <trkpt lat="44.82184" lon="0.98427">
        <ele>24.912445</ele>
        <time>2011-08-03T08:36:45.198Z</time>
      </trkpt>
      <trkpt lat="44.82183" lon="0.98416">
        <ele>23.912407</ele>
        <time>2011-08-03T08:36:47.193Z</time>
      </trkpt>
      <trkpt lat="44.82182" lon="0.98406">
        <ele>23.912376</ele>
        <time>2011-08-03T08:36:49.197Z</time>
      </trkpt>
      <trkpt lat="44.82181" lon="0.98396">
        <ele>23.912331</ele>
        <time>2011-08-03T08:36:51.196Z</time>
      </trkpt>
      <trkpt lat="44.8218" lon="0.98387">
        <ele>23.912292</ele>
        <time>2011-08-03T08:36:53.195Z</time>
      </trkpt>
      <trkpt lat="44.8218" lon="0.98377">
        <ele>23.912254</ele>
        <time>2011-08-03T08:36:55.218Z</time>
      </trkpt>
      <trkpt lat="44.82179" lon="0.98368">
        <ele>22.912224</ele>
        <time>2011-08-03T08:36:57.194Z</time>
      </trkpt>
      <trkpt lat="44.82178" lon="0.98358">
        <ele>22.912193</ele>
        <time>2011-08-03T08:36:59.193Z</time>
      </trkpt>
      <trkpt lat="44.82177" lon="0.98348">
        <ele>22.91214</ele>
        <time>2011-08-03T08:37:01.201Z</time>
      </trkpt>
      <trkpt lat="44.82177" lon="0.98338">
        <ele>22.912102</ele>
        <time>2011-08-03T08:37:03.207Z</time>
      </trkpt>
      <trkpt lat="44.82176" lon="0.98329">
        <ele>21.912075</ele>
        <time>2011-08-03T08:37:05.193Z</time>
      </trkpt>
      <trkpt lat="44.82176" lon="0.98319">
        <ele>21.912037</ele>
        <time>2011-08-03T08:37:07.199Z</time>
      </trkpt>
      <trkpt lat="44.82176" lon="0.98309">
        <ele>21.912003</ele>
        <time>2011-08-03T08:37:09.195Z</time>
      </trkpt>
      <trkpt lat="44.82176" lon="0.98298">
        <ele>21.911964</ele>
        <time>2011-08-03T08:37:11.196Z</time>
      </trkpt>
      <trkpt lat="44.82176" lon="0.98288">
        <ele>21.911934</ele>
        <time>2011-08-03T08:37:13.198Z</time>
      </trkpt>
      <trkpt lat="44.82176" lon="0.98277">
        <ele>21.91188</ele>
        <time>2011-08-03T08:37:15.201Z</time>
      </trkpt>
      <trkpt lat="44.82175" lon="0.98266">
        <ele>21.911846</ele>
        <time>2011-08-03T08:37:17.194Z</time>
      </trkpt>
      <trkpt lat="44.82174" lon="0.98256">
        <ele>21.911797</ele>
        <time>2011-08-03T08:37:19.204Z</time>
      </trkpt>
      <trkpt lat="44.82174" lon="0.98246">
        <ele>20.911766</ele>
        <time>2011-08-03T08:37:21.190Z</time>
      </trkpt>
      <trkpt lat="44.82173" lon="0.98236">
        <ele>20.911728</ele>
        <time>2011-08-03T08:37:23.191Z</time>
      </trkpt>
      <trkpt lat="44.82172" lon="0.98228">
        <ele>19.911694</ele>
        <time>2011-08-03T08:37:25.193Z</time>
      </trkpt>
      <trkpt lat="44.82172" lon="0.9822">
        <ele>19.911659</ele>
        <time>2011-08-03T08:37:27.195Z</time>
      </trkpt>
      <trkpt lat="44.82174" lon="0.98197">
        <ele>22.911594</ele>
        <time>2011-08-03T08:37:33.194Z</time>
      </trkpt>
      <trkpt lat="44.82174" lon="0.98168">
        <ele>24.911491</ele>
        <time>2011-08-03T08:37:39.192Z</time>
      </trkpt>
      <trkpt lat="44.82173" lon="0.98138">
        <ele>24.911385</ele>
        <time>2011-08-03T08:37:44.197Z</time>
      </trkpt>
      <trkpt lat="44.82173" lon="0.98127">
        <ele>25.911346</ele>
        <time>2011-08-03T08:37:46.197Z</time>
      </trkpt>
      <trkpt lat="44.82171" lon="0.981">
        <ele>26.911247</ele>
        <time>2011-08-03T08:37:51.200Z</time>
      </trkpt>
      <trkpt lat="44.8217" lon="0.98074">
        <ele>27.911133</ele>
        <time>2011-08-03T08:37:56.194Z</time>
      </trkpt>
      <trkpt lat="44.82169" lon="0.98052">
        <ele>27.911049</ele>
        <time>2011-08-03T08:38:00.195Z</time>
      </trkpt>
      <trkpt lat="44.82168" lon="0.98042">
        <ele>28.911022</ele>
        <time>2011-08-03T08:38:02.192Z</time>
      </trkpt>
      <trkpt lat="44.82168" lon="0.98032">
        <ele>28.910984</ele>
        <time>2011-08-03T08:38:04.209Z</time>
      </trkpt>
      <trkpt lat="44.82168" lon="0.98006">
        <ele>28.910896</ele>
        <time>2011-08-03T08:38:09.194Z</time>
      </trkpt>
      <trkpt lat="44.82168" lon="0.97995">
        <ele>28.910858</ele>
        <time>2011-08-03T08:38:11.189Z</time>
      </trkpt>
      <trkpt lat="44.82168" lon="0.97983">
        <ele>28.910805</ele>
        <time>2011-08-03T08:38:13.211Z</time>
      </trkpt>
      <trkpt lat="44.82168" lon="0.97971">
        <ele>28.910774</ele>
        <time>2011-08-03T08:38:15.193Z</time>
      </trkpt>
      <trkpt lat="44.82168" lon="0.97959">
        <ele>28.910728</ele>
        <time>2011-08-03T08:38:17.184Z</time>
      </trkpt>
      <trkpt lat="44.82168" lon="0.97946">
        <ele>28.910683</ele>
        <time>2011-08-03T08:38:19.187Z</time>
      </trkpt>
      <trkpt lat="44.82169" lon="0.97935">
        <ele>28.910645</ele>
        <time>2011-08-03T08:38:21.193Z</time>
      </trkpt>
      <trkpt lat="44.8217" lon="0.97923">
        <ele>28.91061</ele>
        <time>2011-08-03T08:38:23.193Z</time>
      </trkpt>
      <trkpt lat="44.82172" lon="0.97912">
        <ele>28.910576</ele>
        <time>2011-08-03T08:38:25.198Z</time>
      </trkpt>
      <trkpt lat="44.82173" lon="0.97901">
        <ele>28.910538</ele>
        <time>2011-08-03T08:38:27.202Z</time>
      </trkpt>
      <trkpt lat="44.82179" lon="0.97876">
        <ele>27.910488</ele>
        <time>2011-08-03T08:38:32.191Z</time>
      </trkpt>
      <trkpt lat="44.82184" lon="0.9787">
        <ele>27.910484</ele>
        <time>2011-08-03T08:38:34.193Z</time>
      </trkpt>
      <trkpt lat="44.82205" lon="0.97867">
        <ele>27.910553</ele>
        <time>2011-08-03T08:38:40.192Z</time>
      </trkpt>
      <trkpt lat="44.82216" lon="0.97867">
        <ele>26.910614</ele>
        <time>2011-08-03T08:38:43.194Z</time>
      </trkpt>
      <trkpt lat="44.82223" lon="0.97864">
        <ele>27.910622</ele>
        <time>2011-08-03T08:38:45.205Z</time>
      </trkpt>
      <trkpt lat="44.82232" lon="0.97843">
        <ele>28.910583</ele>
        <time>2011-08-03T08:38:50.189Z</time>
      </trkpt>
      <trkpt lat="44.82233" lon="0.97832">
        <ele>28.910553</ele>
        <time>2011-08-03T08:38:52.195Z</time>
      </trkpt>
      <trkpt lat="44.82233" lon="0.97821">
        <ele>28.910515</ele>
        <time>2011-08-03T08:38:54.203Z</time>
      </trkpt>
      <trkpt lat="44.82234" lon="0.9781">
        <ele>28.910477</ele>
        <time>2011-08-03T08:38:56.191Z</time>
      </trkpt>
      <trkpt lat="44.82235" lon="0.97798">
        <ele>28.910442</ele>
        <time>2011-08-03T08:38:58.197Z</time>
      </trkpt>
      <trkpt lat="44.82235" lon="0.97787">
        <ele>27.910408</ele>
        <time>2011-08-03T08:39:00.192Z</time>
      </trkpt>
      <trkpt lat="44.82236" lon="0.97776">
        <ele>27.910362</ele>
        <time>2011-08-03T08:39:02.215Z</time>
      </trkpt>
      <trkpt lat="44.82237" lon="0.97765">
        <ele>27.910332</ele>
        <time>2011-08-03T08:39:04.196Z</time>
      </trkpt>
      <trkpt lat="44.82238" lon="0.97755">
        <ele>28.910301</ele>
        <time>2011-08-03T08:39:06.194Z</time>
      </trkpt>
      <trkpt lat="44.82241" lon="0.97734">
        <ele>27.91024</ele>
        <time>2011-08-03T08:39:10.195Z</time>
      </trkpt>
      <trkpt lat="44.82242" lon="0.97724">
        <ele>27.91021</ele>
        <time>2011-08-03T08:39:12.193Z</time>
      </trkpt>
      <trkpt lat="44.82243" lon="0.97714">
        <ele>26.910175</ele>
        <time>2011-08-03T08:39:14.194Z</time>
      </trkpt>
      <trkpt lat="44.82244" lon="0.97704">
        <ele>25.910149</ele>
        <time>2011-08-03T08:39:16.198Z</time>
      </trkpt>
      <trkpt lat="44.82245" lon="0.97694">
        <ele>25.91011</ele>
        <time>2011-08-03T08:39:18.202Z</time>
      </trkpt>
      <trkpt lat="44.82246" lon="0.97685">
        <ele>25.910084</ele>
        <time>2011-08-03T08:39:20.189Z</time>
      </trkpt>
      <trkpt lat="44.82247" lon="0.97676">
        <ele>25.910065</ele>
        <time>2011-08-03T08:39:22.195Z</time>
      </trkpt>
      <trkpt lat="44.82248" lon="0.97667">
        <ele>25.910034</ele>
        <time>2011-08-03T08:39:24.194Z</time>
      </trkpt>
      <trkpt lat="44.8225" lon="0.97658">
        <ele>25.910011</ele>
        <time>2011-08-03T08:39:26.201Z</time>
      </trkpt>
      <trkpt lat="44.82251" lon="0.97649">
        <ele>24.909977</ele>
        <time>2011-08-03T08:39:28.195Z</time>
      </trkpt>
      <trkpt lat="44.82253" lon="0.97639">
        <ele>24.90995</ele>
        <time>2011-08-03T08:39:30.194Z</time>
      </trkpt>
      <trkpt lat="44.82254" lon="0.9763">
        <ele>23.909927</ele>
        <time>2011-08-03T08:39:32.212Z</time>
      </trkpt>
      <trkpt lat="44.82256" lon="0.97621">
        <ele>23.909908</ele>
        <time>2011-08-03T08:39:34.196Z</time>
      </trkpt>
      <trkpt lat="44.82257" lon="0.97612">
        <ele>23.909882</ele>
        <time>2011-08-03T08:39:36.196Z</time>
      </trkpt>
      <trkpt lat="44.82258" lon="0.97603">
        <ele>23.909859</ele>
        <time>2011-08-03T08:39:38.191Z</time>
      </trkpt>
      <trkpt lat="44.82259" lon="0.97593">
        <ele>23.909813</ele>
        <time>2011-08-03T08:39:40.195Z</time>
      </trkpt>
      <trkpt lat="44.8226" lon="0.97584">
        <ele>22.90979</ele>
        <time>2011-08-03T08:39:42.195Z</time>
      </trkpt>
      <trkpt lat="44.82261" lon="0.97574">
        <ele>22.909756</ele>
        <time>2011-08-03T08:39:44.190Z</time>
      </trkpt>
      <trkpt lat="44.82261" lon="0.97565">
        <ele>21.909729</ele>
        <time>2011-08-03T08:39:46.195Z</time>
      </trkpt>
      <trkpt lat="44.82262" lon="0.97555">
        <ele>21.909691</ele>
        <time>2011-08-03T08:39:48.193Z</time>
      </trkpt>
      <trkpt lat="44.82263" lon="0.97545">
        <ele>21.909664</ele>
        <time>2011-08-03T08:39:50.191Z</time>
      </trkpt>
      <trkpt lat="44.82264" lon="0.9753">
        <ele>22.909611</ele>
        <time>2011-08-03T08:39:53.190Z</time>
      </trkpt>
      <trkpt lat="44.82265" lon="0.97521">
        <ele>21.909588</ele>
        <time>2011-08-03T08:39:55.197Z</time>
      </trkpt>
      <trkpt lat="44.82266" lon="0.97511">
        <ele>21.909554</ele>
        <time>2011-08-03T08:39:57.191Z</time>
      </trkpt>
      <trkpt lat="44.82267" lon="0.97502">
        <ele>21.909534</ele>
        <time>2011-08-03T08:39:59.195Z</time>
      </trkpt>
      <trkpt lat="44.82268" lon="0.97492">
        <ele>21.9095</ele>
        <time>2011-08-03T08:40:01.202Z</time>
      </trkpt>
      <trkpt lat="44.82269" lon="0.97482">
        <ele>20.909466</ele>
        <time>2011-08-03T08:40:03.193Z</time>
      </trkpt>
      <trkpt lat="44.8227" lon="0.97472">
        <ele>20.909431</ele>
        <time>2011-08-03T08:40:05.190Z</time>
      </trkpt>
      <trkpt lat="44.82271" lon="0.97462">
        <ele>20.909401</ele>
        <time>2011-08-03T08:40:07.195Z</time>
      </trkpt>
      <trkpt lat="44.82271" lon="0.97452">
        <ele>19.909374</ele>
        <time>2011-08-03T08:40:09.206Z</time>
      </trkpt>
      <trkpt lat="44.82273" lon="0.97443">
        <ele>19.90934</ele>
        <time>2011-08-03T08:40:11.193Z</time>
      </trkpt>
      <trkpt lat="44.82273" lon="0.97433">
        <ele>18.909313</ele>
        <time>2011-08-03T08:40:13.193Z</time>
      </trkpt>
      <trkpt lat="44.82274" lon="0.97424">
        <ele>18.909294</ele>
        <time>2011-08-03T08:40:15.203Z</time>
      </trkpt>
      <trkpt lat="44.82276" lon="0.97414">
        <ele>17.909252</ele>
        <time>2011-08-03T08:40:17.195Z</time>
      </trkpt>
      <trkpt lat="44.82277" lon="0.97404">
        <ele>17.909218</ele>
        <time>2011-08-03T08:40:19.193Z</time>
      </trkpt>
      <trkpt lat="44.82278" lon="0.97394">
        <ele>17.909191</ele>
        <time>2011-08-03T08:40:21.206Z</time>
      </trkpt>
      <trkpt lat="44.82279" lon="0.97384">
        <ele>16.909164</ele>
        <time>2011-08-03T08:40:23.192Z</time>
      </trkpt>
      <trkpt lat="44.8228" lon="0.97374">
        <ele>16.90913</ele>
        <time>2011-08-03T08:40:25.198Z</time>
      </trkpt>
      <trkpt lat="44.82281" lon="0.97364">
        <ele>15.909103</ele>
        <time>2011-08-03T08:40:27.195Z</time>
      </trkpt>
      <trkpt lat="44.82282" lon="0.97355">
        <ele>15.909073</ele>
        <time>2011-08-03T08:40:29.188Z</time>
      </trkpt>
      <trkpt lat="44.82283" lon="0.97345">
        <ele>15.909042</ele>
        <time>2011-08-03T08:40:31.193Z</time>
      </trkpt>
      <trkpt lat="44.82284" lon="0.97336">
        <ele>15.909012</ele>
        <time>2011-08-03T08:40:33.192Z</time>
      </trkpt>
      <trkpt lat="44.82286" lon="0.97326">
        <ele>15.908989</ele>
        <time>2011-08-03T08:40:35.195Z</time>
      </trkpt>
      <trkpt lat="44.82288" lon="0.97316">
        <ele>15.908958</ele>
        <time>2011-08-03T08:40:37.194Z</time>
      </trkpt>
      <trkpt lat="44.8229" lon="0.97307">
        <ele>16.908943</ele>
        <time>2011-08-03T08:40:39.195Z</time>
      </trkpt>
      <trkpt lat="44.82293" lon="0.97298">
        <ele>16.908913</ele>
        <time>2011-08-03T08:40:41.189Z</time>
      </trkpt>
      <trkpt lat="44.82296" lon="0.97289">
        <ele>16.908897</ele>
        <time>2011-08-03T08:40:43.196Z</time>
      </trkpt>
      <trkpt lat="44.82299" lon="0.9728">
        <ele>16.908878</ele>
        <time>2011-08-03T08:40:45.192Z</time>
      </trkpt>
      <trkpt lat="44.82301" lon="0.97271">
        <ele>16.908859</ele>
        <time>2011-08-03T08:40:47.192Z</time>
      </trkpt>
      <trkpt lat="44.82304" lon="0.97262">
        <ele>16.908844</ele>
        <time>2011-08-03T08:40:49.192Z</time>
      </trkpt>
      <trkpt lat="44.82306" lon="0.97253">
        <ele>16.908806</ele>
        <time>2011-08-03T08:40:51.208Z</time>
      </trkpt>
      <trkpt lat="44.82308" lon="0.97243">
        <ele>16.908791</ele>
        <time>2011-08-03T08:40:53.197Z</time>
      </trkpt>
      <trkpt lat="44.8231" lon="0.97234">
        <ele>17.908768</ele>
        <time>2011-08-03T08:40:55.198Z</time>
      </trkpt>
      <trkpt lat="44.82313" lon="0.97225">
        <ele>17.908745</ele>
        <time>2011-08-03T08:40:57.197Z</time>
      </trkpt>
      <trkpt lat="44.82317" lon="0.97207">
        <ele>17.908691</ele>
        <time>2011-08-03T08:41:01.197Z</time>
      </trkpt>
      <trkpt lat="44.82319" lon="0.97197">
        <ele>17.908669</ele>
        <time>2011-08-03T08:41:03.202Z</time>
      </trkpt>
      <trkpt lat="44.82321" lon="0.97188">
        <ele>16.908646</ele>
        <time>2011-08-03T08:41:05.186Z</time>
      </trkpt>
      <trkpt lat="44.82323" lon="0.97179">
        <ele>17.90863</ele>
        <time>2011-08-03T08:41:07.202Z</time>
      </trkpt>
      <trkpt lat="44.82325" lon="0.9717">
        <ele>16.908596</ele>
        <time>2011-08-03T08:41:09.195Z</time>
      </trkpt>
      <trkpt lat="44.82327" lon="0.97161">
        <ele>16.908577</ele>
        <time>2011-08-03T08:41:11.191Z</time>
      </trkpt>
      <trkpt lat="44.82329" lon="0.97151">
        <ele>16.908554</ele>
        <time>2011-08-03T08:41:13.194Z</time>
      </trkpt>
      <trkpt lat="44.82331" lon="0.97143">
        <ele>16.908527</ele>
        <time>2011-08-03T08:41:15.195Z</time>
      </trkpt>
      <trkpt lat="44.82334" lon="0.97134">
        <ele>17.908504</ele>
        <time>2011-08-03T08:41:17.191Z</time>
      </trkpt>
      <trkpt lat="44.82335" lon="0.97124">
        <ele>17.908478</ele>
        <time>2011-08-03T08:41:19.192Z</time>
      </trkpt>
      <trkpt lat="44.82337" lon="0.97115">
        <ele>16.908455</ele>
        <time>2011-08-03T08:41:21.206Z</time>
      </trkpt>
      <trkpt lat="44.8234" lon="0.97105">
        <ele>16.908432</ele>
        <time>2011-08-03T08:41:23.191Z</time>
      </trkpt>
      <trkpt lat="44.82342" lon="0.97096">
        <ele>15.908409</ele>
        <time>2011-08-03T08:41:25.199Z</time>
      </trkpt>
      <trkpt lat="44.82344" lon="0.97086">
        <ele>15.908379</ele>
        <time>2011-08-03T08:41:27.210Z</time>
      </trkpt>
      <trkpt lat="44.82346" lon="0.97077">
        <ele>15.908363</ele>
        <time>2011-08-03T08:41:29.195Z</time>
      </trkpt>
      <trkpt lat="44.82348" lon="0.97067">
        <ele>15.908337</ele>
        <time>2011-08-03T08:41:31.195Z</time>
      </trkpt>
      <trkpt lat="44.8235" lon="0.97058">
        <ele>15.90831</ele>
        <time>2011-08-03T08:41:33.193Z</time>
      </trkpt>
      <trkpt lat="44.82352" lon="0.97049">
        <ele>16.908287</ele>
        <time>2011-08-03T08:41:35.187Z</time>
      </trkpt>
      <trkpt lat="44.82354" lon="0.97039">
        <ele>15.908268</ele>
        <time>2011-08-03T08:41:37.194Z</time>
      </trkpt>
      <trkpt lat="44.82356" lon="0.9703">
        <ele>15.908234</ele>
        <time>2011-08-03T08:41:39.197Z</time>
      </trkpt>
      <trkpt lat="44.82357" lon="0.9702">
        <ele>15.908199</ele>
        <time>2011-08-03T08:41:41.191Z</time>
      </trkpt>
      <trkpt lat="44.82359" lon="0.97011">
        <ele>15.908184</ele>
        <time>2011-08-03T08:41:43.192Z</time>
      </trkpt>
      <trkpt lat="44.82361" lon="0.97002">
        <ele>15.908157</ele>
        <time>2011-08-03T08:41:45.193Z</time>
      </trkpt>
      <trkpt lat="44.82362" lon="0.96992">
        <ele>15.908131</ele>
        <time>2011-08-03T08:41:47.192Z</time>
      </trkpt>
      <trkpt lat="44.82364" lon="0.96983">
        <ele>15.908096</ele>
        <time>2011-08-03T08:41:49.195Z</time>
      </trkpt>
      <trkpt lat="44.82366" lon="0.96973">
        <ele>15.908073</ele>
        <time>2011-08-03T08:41:51.192Z</time>
      </trkpt>
      <trkpt lat="44.82368" lon="0.96963">
        <ele>15.908047</ele>
        <time>2011-08-03T08:41:53.192Z</time>
      </trkpt>
      <trkpt lat="44.8237" lon="0.96953">
        <ele>16.908012</ele>
        <time>2011-08-03T08:41:55.194Z</time>
      </trkpt>
      <trkpt lat="44.82372" lon="0.96943">
        <ele>15.90799</ele>
        <time>2011-08-03T08:41:57.197Z</time>
      </trkpt>
      <trkpt lat="44.82374" lon="0.96933">
        <ele>15.907967</ele>
        <time>2011-08-03T08:41:59.197Z</time>
      </trkpt>
      <trkpt lat="44.82376" lon="0.96923">
        <ele>15.907944</ele>
        <time>2011-08-03T08:42:01.197Z</time>
      </trkpt>
      <trkpt lat="44.82377" lon="0.96914">
        <ele>16.907913</ele>
        <time>2011-08-03T08:42:03.197Z</time>
      </trkpt>
      <trkpt lat="44.82379" lon="0.96905">
        <ele>16.907887</ele>
        <time>2011-08-03T08:42:05.191Z</time>
      </trkpt>
      <trkpt lat="44.82381" lon="0.96896">
        <ele>17.90786</ele>
        <time>2011-08-03T08:42:07.196Z</time>
      </trkpt>
      <trkpt lat="44.82383" lon="0.96888">
        <ele>17.907845</ele>
        <time>2011-08-03T08:42:09.194Z</time>
      </trkpt>
      <trkpt lat="44.82386" lon="0.96879">
        <ele>16.907829</ele>
        <time>2011-08-03T08:42:11.194Z</time>
      </trkpt>
      <trkpt lat="44.82387" lon="0.96872">
        <ele>17.907814</ele>
        <time>2011-08-03T08:42:13.194Z</time>
      </trkpt>
      <trkpt lat="44.82389" lon="0.96864">
        <ele>18.907784</ele>
        <time>2011-08-03T08:42:15.190Z</time>
      </trkpt>
      <trkpt lat="44.8239" lon="0.96856">
        <ele>19.907768</ele>
        <time>2011-08-03T08:42:17.199Z</time>
      </trkpt>
      <trkpt lat="44.82391" lon="0.96848">
        <ele>19.907734</ele>
        <time>2011-08-03T08:42:19.189Z</time>
      </trkpt>
      <trkpt lat="44.82392" lon="0.96839">
        <ele>19.907707</ele>
        <time>2011-08-03T08:42:21.193Z</time>
      </trkpt>
      <trkpt lat="44.82394" lon="0.9683">
        <ele>19.907681</ele>
        <time>2011-08-03T08:42:23.194Z</time>
      </trkpt>
      <trkpt lat="44.82396" lon="0.96821">
        <ele>19.907665</ele>
        <time>2011-08-03T08:42:25.194Z</time>
      </trkpt>
      <trkpt lat="44.82398" lon="0.96812">
        <ele>18.907635</ele>
        <time>2011-08-03T08:42:27.190Z</time>
      </trkpt>
      <trkpt lat="44.824" lon="0.96803">
        <ele>19.907616</ele>
        <time>2011-08-03T08:42:29.189Z</time>
      </trkpt>
      <trkpt lat="44.82402" lon="0.96795">
        <ele>19.907593</ele>
        <time>2011-08-03T08:42:31.196Z</time>
      </trkpt>
      <trkpt lat="44.82405" lon="0.96787">
        <ele>18.907578</ele>
        <time>2011-08-03T08:42:33.194Z</time>
      </trkpt>
      <trkpt lat="44.82408" lon="0.96779">
        <ele>19.907562</ele>
        <time>2011-08-03T08:42:35.199Z</time>
      </trkpt>
      <trkpt lat="44.82411" lon="0.96772">
        <ele>18.907547</ele>
        <time>2011-08-03T08:42:37.195Z</time>
      </trkpt>
      <trkpt lat="44.82414" lon="0.96764">
        <ele>19.907532</ele>
        <time>2011-08-03T08:42:39.197Z</time>
      </trkpt>
      <trkpt lat="44.82417" lon="0.96756">
        <ele>18.907524</ele>
        <time>2011-08-03T08:42:41.190Z</time>
      </trkpt>
      <trkpt lat="44.82421" lon="0.96748">
        <ele>18.907516</ele>
        <time>2011-08-03T08:42:43.195Z</time>
      </trkpt>
      <trkpt lat="44.82424" lon="0.9674">
        <ele>18.907494</ele>
        <time>2011-08-03T08:42:45.193Z</time>
      </trkpt>
      <trkpt lat="44.82426" lon="0.96732">
        <ele>19.907471</ele>
        <time>2011-08-03T08:42:47.183Z</time>
      </trkpt>
      <trkpt lat="44.82428" lon="0.96723">
        <ele>19.907448</ele>
        <time>2011-08-03T08:42:49.189Z</time>
      </trkpt>
      <trkpt lat="44.82431" lon="0.96715">
        <ele>20.907433</ele>
        <time>2011-08-03T08:42:51.190Z</time>
      </trkpt>
      <trkpt lat="44.82436" lon="0.96697">
        <ele>23.907398</ele>
        <time>2011-08-03T08:42:56.190Z</time>
      </trkpt>
      <trkpt lat="44.82438" lon="0.96688">
        <ele>23.907372</ele>
        <time>2011-08-03T08:42:58.190Z</time>
      </trkpt>
      <trkpt lat="44.82441" lon="0.96662">
        <ele>22.907288</ele>
        <time>2011-08-03T08:43:03.195Z</time>
      </trkpt>
      <trkpt lat="44.82442" lon="0.96644">
        <ele>20.90723</ele>
        <time>2011-08-03T08:43:06.189Z</time>
      </trkpt>
      <trkpt lat="44.82442" lon="0.96632">
        <ele>19.907192</ele>
        <time>2011-08-03T08:43:08.255Z</time>
      </trkpt>
      <trkpt lat="44.82442" lon="0.96621">
        <ele>19.907143</ele>
        <time>2011-08-03T08:43:10.189Z</time>
      </trkpt>
      <trkpt lat="44.82441" lon="0.96611">
        <ele>19.907104</ele>
        <time>2011-08-03T08:43:12.193Z</time>
      </trkpt>
      <trkpt lat="44.8244" lon="0.96601">
        <ele>18.90707</ele>
        <time>2011-08-03T08:43:14.191Z</time>
      </trkpt>
      <trkpt lat="44.8244" lon="0.96591">
        <ele>18.907036</ele>
        <time>2011-08-03T08:43:16.191Z</time>
      </trkpt>
      <trkpt lat="44.82439" lon="0.96581">
        <ele>17.907001</ele>
        <time>2011-08-03T08:43:18.189Z</time>
      </trkpt>
      <trkpt lat="44.82439" lon="0.96573">
        <ele>17.906971</ele>
        <time>2011-08-03T08:43:20.190Z</time>
      </trkpt>
      <trkpt lat="44.82438" lon="0.96565">
        <ele>18.906937</ele>
        <time>2011-08-03T08:43:22.192Z</time>
      </trkpt>
      <trkpt lat="44.82438" lon="0.96557">
        <ele>18.90691</ele>
        <time>2011-08-03T08:43:24.194Z</time>
      </trkpt>
      <trkpt lat="44.82438" lon="0.9655">
        <ele>18.906879</ele>
        <time>2011-08-03T08:43:26.191Z</time>
      </trkpt>
      <trkpt lat="44.82438" lon="0.96544">
        <ele>18.906868</ele>
        <time>2011-08-03T08:43:28.199Z</time>
      </trkpt>
      <trkpt lat="44.82438" lon="0.96537">
        <ele>17.906837</ele>
        <time>2011-08-03T08:43:30.189Z</time>
      </trkpt>
      <trkpt lat="44.82438" lon="0.9653">
        <ele>17.906811</ele>
        <time>2011-08-03T08:43:32.191Z</time>
      </trkpt>
      <trkpt lat="44.8244" lon="0.96519">
        <ele>17.90678</ele>
        <time>2011-08-03T08:43:35.191Z</time>
      </trkpt>
      <trkpt lat="44.82441" lon="0.96511">
        <ele>18.906757</ele>
        <time>2011-08-03T08:43:37.191Z</time>
      </trkpt>
      <trkpt lat="44.82442" lon="0.96503">
        <ele>18.906731</ele>
        <time>2011-08-03T08:43:39.195Z</time>
      </trkpt>
      <trkpt lat="44.82443" lon="0.96495">
        <ele>18.906708</ele>
        <time>2011-08-03T08:43:41.192Z</time>
      </trkpt>
      <trkpt lat="44.82444" lon="0.96482">
        <ele>19.90667</ele>
        <time>2011-08-03T08:43:44.190Z</time>
      </trkpt>
      <trkpt lat="44.82445" lon="0.96473">
        <ele>19.906639</ele>
        <time>2011-08-03T08:43:46.192Z</time>
      </trkpt>
      <trkpt lat="44.82447" lon="0.96463">
        <ele>19.906609</ele>
        <time>2011-08-03T08:43:48.193Z</time>
      </trkpt>
      <trkpt lat="44.82447" lon="0.96454">
        <ele>19.906586</ele>
        <time>2011-08-03T08:43:50.196Z</time>
      </trkpt>
      <trkpt lat="44.82448" lon="0.96444">
        <ele>19.906548</ele>
        <time>2011-08-03T08:43:52.198Z</time>
      </trkpt>
      <trkpt lat="44.82448" lon="0.9643">
        <ele>20.906506</ele>
        <time>2011-08-03T08:43:55.188Z</time>
      </trkpt>
      <trkpt lat="44.82448" lon="0.96421">
        <ele>20.906475</ele>
        <time>2011-08-03T08:43:57.189Z</time>
      </trkpt>
      <trkpt lat="44.82448" lon="0.96412">
        <ele>20.906441</ele>
        <time>2011-08-03T08:43:59.197Z</time>
      </trkpt>
      <trkpt lat="44.82449" lon="0.96403">
        <ele>20.906406</ele>
        <time>2011-08-03T08:44:01.220Z</time>
      </trkpt>
      <trkpt lat="44.82449" lon="0.96394">
        <ele>20.906376</ele>
        <time>2011-08-03T08:44:03.193Z</time>
      </trkpt>
      <trkpt lat="44.82449" lon="0.96386">
        <ele>20.906349</ele>
        <time>2011-08-03T08:44:05.189Z</time>
      </trkpt>
      <trkpt lat="44.82449" lon="0.96367">
        <ele>21.906284</ele>
        <time>2011-08-03T08:44:10.197Z</time>
      </trkpt>
      <trkpt lat="44.82449" lon="0.9636">
        <ele>21.90625</ele>
        <time>2011-08-03T08:44:12.189Z</time>
      </trkpt>
      <trkpt lat="44.8245" lon="0.96345">
        <ele>21.906204</ele>
        <time>2011-08-03T08:44:16.196Z</time>
      </trkpt>
      <trkpt lat="44.8245" lon="0.96337">
        <ele>22.906178</ele>
        <time>2011-08-03T08:44:18.189Z</time>
      </trkpt>
      <trkpt lat="44.82451" lon="0.96328">
        <ele>22.906151</ele>
        <time>2011-08-03T08:44:20.193Z</time>
      </trkpt>
      <trkpt lat="44.82452" lon="0.96319">
        <ele>21.90612</ele>
        <time>2011-08-03T08:44:22.191Z</time>
      </trkpt>
      <trkpt lat="44.82454" lon="0.96304">
        <ele>21.906075</ele>
        <time>2011-08-03T08:44:25.194Z</time>
      </trkpt>
      <trkpt lat="44.82455" lon="0.96295">
        <ele>22.906055</ele>
        <time>2011-08-03T08:44:27.198Z</time>
      </trkpt>
      <trkpt lat="44.82456" lon="0.96285">
        <ele>23.906021</ele>
        <time>2011-08-03T08:44:29.188Z</time>
      </trkpt>
      <trkpt lat="44.82457" lon="0.96276">
        <ele>23.905987</ele>
        <time>2011-08-03T08:44:31.195Z</time>
      </trkpt>
      <trkpt lat="44.8246" lon="0.96254">
        <ele>23.90593</ele>
        <time>2011-08-03T08:44:36.193Z</time>
      </trkpt>
      <trkpt lat="44.82461" lon="0.96246">
        <ele>23.905895</ele>
        <time>2011-08-03T08:44:38.187Z</time>
      </trkpt>
      <trkpt lat="44.82461" lon="0.96237">
        <ele>23.905872</ele>
        <time>2011-08-03T08:44:40.213Z</time>
      </trkpt>
      <trkpt lat="44.82462" lon="0.96228">
        <ele>23.905838</ele>
        <time>2011-08-03T08:44:42.188Z</time>
      </trkpt>
      <trkpt lat="44.82462" lon="0.9622">
        <ele>22.905811</ele>
        <time>2011-08-03T08:44:44.186Z</time>
      </trkpt>
      <trkpt lat="44.82464" lon="0.96192">
        <ele>23.905724</ele>
        <time>2011-08-03T08:44:51.192Z</time>
      </trkpt>
      <trkpt lat="44.82465" lon="0.9618">
        <ele>23.905693</ele>
        <time>2011-08-03T08:44:54.191Z</time>
      </trkpt>
      <trkpt lat="44.82466" lon="0.96172">
        <ele>22.905659</ele>
        <time>2011-08-03T08:44:56.190Z</time>
      </trkpt>
      <trkpt lat="44.82467" lon="0.96162">
        <ele>22.90564</ele>
        <time>2011-08-03T08:44:58.195Z</time>
      </trkpt>
      <trkpt lat="44.82469" lon="0.96152">
        <ele>20.905594</ele>
        <time>2011-08-03T08:45:00.189Z</time>
      </trkpt>
      <trkpt lat="44.8247" lon="0.96143">
        <ele>20.905571</ele>
        <time>2011-08-03T08:45:02.192Z</time>
      </trkpt>
      <trkpt lat="44.82471" lon="0.96134">
        <ele>20.905548</ele>
        <time>2011-08-03T08:45:04.202Z</time>
      </trkpt>
      <trkpt lat="44.82472" lon="0.96126">
        <ele>20.905525</ele>
        <time>2011-08-03T08:45:06.192Z</time>
      </trkpt>
      <trkpt lat="44.82473" lon="0.96117">
        <ele>20.905495</ele>
        <time>2011-08-03T08:45:08.190Z</time>
      </trkpt>
      <trkpt lat="44.82474" lon="0.96109">
        <ele>20.905472</ele>
        <time>2011-08-03T08:45:10.217Z</time>
      </trkpt>
      <trkpt lat="44.82475" lon="0.961">
        <ele>21.905437</ele>
        <time>2011-08-03T08:45:12.197Z</time>
      </trkpt>
      <trkpt lat="44.82475" lon="0.9609">
        <ele>21.905411</ele>
        <time>2011-08-03T08:45:14.187Z</time>
      </trkpt>
      <trkpt lat="44.82476" lon="0.96081">
        <ele>21.905388</ele>
        <time>2011-08-03T08:45:16.244Z</time>
      </trkpt>
      <trkpt lat="44.82477" lon="0.96072">
        <ele>22.90535</ele>
        <time>2011-08-03T08:45:18.189Z</time>
      </trkpt>
      <trkpt lat="44.82478" lon="0.96063">
        <ele>21.905327</ele>
        <time>2011-08-03T08:45:20.191Z</time>
      </trkpt>
      <trkpt lat="44.82479" lon="0.96054">
        <ele>21.905304</ele>
        <time>2011-08-03T08:45:22.188Z</time>
      </trkpt>
      <trkpt lat="44.8248" lon="0.96046">
        <ele>21.90527</ele>
        <time>2011-08-03T08:45:24.201Z</time>
      </trkpt>
      <trkpt lat="44.82481" lon="0.96037">
        <ele>21.905251</ele>
        <time>2011-08-03T08:45:26.205Z</time>
      </trkpt>
      <trkpt lat="44.82482" lon="0.96029">
        <ele>22.905228</ele>
        <time>2011-08-03T08:45:28.190Z</time>
      </trkpt>
      <trkpt lat="44.82484" lon="0.96022">
        <ele>21.905201</ele>
        <time>2011-08-03T08:45:30.204Z</time>
      </trkpt>
      <trkpt lat="44.82485" lon="0.96015">
        <ele>20.90519</ele>
        <time>2011-08-03T08:45:32.192Z</time>
      </trkpt>
      <trkpt lat="44.82487" lon="0.96009">
        <ele>20.905167</ele>
        <time>2011-08-03T08:45:34.192Z</time>
      </trkpt>
      <trkpt lat="44.82492" lon="0.95993">
        <ele>23.905136</ele>
        <time>2011-08-03T08:45:42.191Z</time>
      </trkpt>
      <trkpt lat="44.82494" lon="0.95986">
        <ele>25.905121</ele>
        <time>2011-08-03T08:45:46.194Z</time>
      </trkpt>
      <trkpt lat="44.82497" lon="0.95975">
        <ele>25.90509</ele>
        <time>2011-08-03T08:45:51.192Z</time>
      </trkpt>
      <trkpt lat="44.82501" lon="0.95961">
        <ele>26.90506</ele>
        <time>2011-08-03T08:45:55.190Z</time>
      </trkpt>
      <trkpt lat="44.82505" lon="0.95946">
        <ele>26.905022</ele>
        <time>2011-08-03T08:45:59.185Z</time>
      </trkpt>
      <trkpt lat="44.8251" lon="0.95922">
        <ele>28.904961</ele>
        <time>2011-08-03T08:46:04.190Z</time>
      </trkpt>
      <trkpt lat="44.82515" lon="0.95907">
        <ele>28.90493</ele>
        <time>2011-08-03T08:46:07.196Z</time>
      </trkpt>
      <trkpt lat="44.82519" lon="0.95897">
        <ele>28.904907</ele>
        <time>2011-08-03T08:46:09.187Z</time>
      </trkpt>
      <trkpt lat="44.82524" lon="0.95888">
        <ele>29.9049</ele>
        <time>2011-08-03T08:46:11.160Z</time>
      </trkpt>
      <trkpt lat="44.82535" lon="0.95869">
        <ele>30.904881</ele>
        <time>2011-08-03T08:46:16.156Z</time>
      </trkpt>
      <trkpt lat="44.8254" lon="0.95864">
        <ele>30.904884</ele>
        <time>2011-08-03T08:46:18.153Z</time>
      </trkpt>
      <trkpt lat="44.82548" lon="0.95852">
        <ele>33.904869</ele>
        <time>2011-08-03T08:46:22.152Z</time>
      </trkpt>
      <trkpt lat="44.82554" lon="0.95835">
        <ele>34.904835</ele>
        <time>2011-08-03T08:46:28.159Z</time>
      </trkpt>
      <trkpt lat="44.82555" lon="0.95826">
        <ele>35.904819</ele>
        <time>2011-08-03T08:46:30.159Z</time>
      </trkpt>
      <trkpt lat="44.82558" lon="0.95816">
        <ele>35.904785</ele>
        <time>2011-08-03T08:46:34.160Z</time>
      </trkpt>
      <trkpt lat="44.82562" lon="0.95806">
        <ele>34.904778</ele>
        <time>2011-08-03T08:46:38.157Z</time>
      </trkpt>
      <trkpt lat="44.82569" lon="0.95794">
        <ele>32.904755</ele>
        <time>2011-08-03T08:46:43.162Z</time>
      </trkpt>
      <trkpt lat="44.82573" lon="0.95785">
        <ele>32.904747</ele>
        <time>2011-08-03T08:46:46.194Z</time>
      </trkpt>
      <trkpt lat="44.82577" lon="0.95779">
        <ele>32.904739</ele>
        <time>2011-08-03T08:46:48.191Z</time>
      </trkpt>
      <trkpt lat="44.82581" lon="0.9577">
        <ele>32.904716</ele>
        <time>2011-08-03T08:46:51.188Z</time>
      </trkpt>
      <trkpt lat="44.82584" lon="0.95764">
        <ele>32.904716</ele>
        <time>2011-08-03T08:46:53.186Z</time>
      </trkpt>
      <trkpt lat="44.82588" lon="0.95758">
        <ele>32.904709</ele>
        <time>2011-08-03T08:46:55.193Z</time>
      </trkpt>
      <trkpt lat="44.82591" lon="0.95751">
        <ele>31.90469</ele>
        <time>2011-08-03T08:46:57.188Z</time>
      </trkpt>
      <trkpt lat="44.82595" lon="0.95743">
        <ele>32.904686</ele>
        <time>2011-08-03T08:46:59.188Z</time>
      </trkpt>
      <trkpt lat="44.82598" lon="0.95733">
        <ele>32.904663</ele>
        <time>2011-08-03T08:47:01.190Z</time>
      </trkpt>
      <trkpt lat="44.82601" lon="0.95724">
        <ele>31.904636</ele>
        <time>2011-08-03T08:47:03.189Z</time>
      </trkpt>
      <trkpt lat="44.82604" lon="0.95716">
        <ele>29.904633</ele>
        <time>2011-08-03T08:47:05.188Z</time>
      </trkpt>
      <trkpt lat="44.82608" lon="0.95707">
        <ele>28.904617</ele>
        <time>2011-08-03T08:47:07.195Z</time>
      </trkpt>
      <trkpt lat="44.8261" lon="0.95699">
        <ele>26.904598</ele>
        <time>2011-08-03T08:47:09.192Z</time>
      </trkpt>
      <trkpt lat="44.82612" lon="0.95691">
        <ele>25.904583</ele>
        <time>2011-08-03T08:47:11.186Z</time>
      </trkpt>
      <trkpt lat="44.82615" lon="0.95677">
        <ele>25.904533</ele>
        <time>2011-08-03T08:47:14.192Z</time>
      </trkpt>
      <trkpt lat="44.82616" lon="0.95668">
        <ele>25.904507</ele>
        <time>2011-08-03T08:47:16.193Z</time>
      </trkpt>
      <trkpt lat="44.82618" lon="0.9566">
        <ele>24.904488</ele>
        <time>2011-08-03T08:47:18.192Z</time>
      </trkpt>
      <trkpt lat="44.8262" lon="0.95652">
        <ele>22.904472</ele>
        <time>2011-08-03T08:47:20.187Z</time>
      </trkpt>
      <trkpt lat="44.82623" lon="0.95645">
        <ele>21.904461</ele>
        <time>2011-08-03T08:47:22.194Z</time>
      </trkpt>
      <trkpt lat="44.82626" lon="0.95639">
        <ele>21.904449</ele>
        <time>2011-08-03T08:47:24.189Z</time>
      </trkpt>
      <trkpt lat="44.82628" lon="0.95633">
        <ele>20.904434</ele>
        <time>2011-08-03T08:47:26.190Z</time>
      </trkpt>
      <trkpt lat="44.82631" lon="0.95628">
        <ele>20.904434</ele>
        <time>2011-08-03T08:47:28.201Z</time>
      </trkpt>
      <trkpt lat="44.82635" lon="0.9562">
        <ele>20.904415</ele>
        <time>2011-08-03T08:47:31.192Z</time>
      </trkpt>
      <trkpt lat="44.82638" lon="0.95613">
        <ele>20.904404</ele>
        <time>2011-08-03T08:47:34.189Z</time>
      </trkpt>
      <trkpt lat="44.82641" lon="0.95605">
        <ele>20.904388</ele>
        <time>2011-08-03T08:47:37.191Z</time>
      </trkpt>
      <trkpt lat="44.82646" lon="0.95595">
        <ele>21.904369</ele>
        <time>2011-08-03T08:47:43.191Z</time>
      </trkpt>
      <trkpt lat="44.8265" lon="0.95586">
        <ele>20.90435</ele>
        <time>2011-08-03T08:47:46.195Z</time>
      </trkpt>
      <trkpt lat="44.82653" lon="0.9558">
        <ele>20.90435</ele>
        <time>2011-08-03T08:47:48.205Z</time>
      </trkpt>
      <trkpt lat="44.82656" lon="0.95571">
        <ele>19.904335</ele>
        <time>2011-08-03T08:47:50.189Z</time>
      </trkpt>
      <trkpt lat="44.8266" lon="0.95562">
        <ele>19.904312</ele>
        <time>2011-08-03T08:47:52.192Z</time>
      </trkpt>
      <trkpt lat="44.82664" lon="0.95553">
        <ele>19.904312</ele>
        <time>2011-08-03T08:47:54.195Z</time>
      </trkpt>
      <trkpt lat="44.82669" lon="0.95544">
        <ele>18.904293</ele>
        <time>2011-08-03T08:47:56.195Z</time>
      </trkpt>
      <trkpt lat="44.82673" lon="0.95537">
        <ele>17.904285</ele>
        <time>2011-08-03T08:47:58.195Z</time>
      </trkpt>
      <trkpt lat="44.82677" lon="0.95529">
        <ele>17.904274</ele>
        <time>2011-08-03T08:48:00.185Z</time>
      </trkpt>
      <trkpt lat="44.8268" lon="0.95522">
        <ele>17.904263</ele>
        <time>2011-08-03T08:48:02.192Z</time>
      </trkpt>
      <trkpt lat="44.82685" lon="0.95512">
        <ele>17.904251</ele>
        <time>2011-08-03T08:48:05.223Z</time>
      </trkpt>
      <trkpt lat="44.82688" lon="0.95506">
        <ele>17.904243</ele>
        <time>2011-08-03T08:48:07.187Z</time>
      </trkpt>
      <trkpt lat="44.8269" lon="0.955">
        <ele>18.904232</ele>
        <time>2011-08-03T08:48:09.191Z</time>
      </trkpt>
      <trkpt lat="44.82694" lon="0.95491">
        <ele>18.904213</ele>
        <time>2011-08-03T08:48:12.202Z</time>
      </trkpt>
      <trkpt lat="44.82699" lon="0.9548">
        <ele>18.90419</ele>
        <time>2011-08-03T08:48:16.189Z</time>
      </trkpt>
      <trkpt lat="44.82702" lon="0.95472">
        <ele>18.904182</ele>
        <time>2011-08-03T08:48:19.192Z</time>
      </trkpt>
      <trkpt lat="44.82705" lon="0.95465">
        <ele>18.90416</ele>
        <time>2011-08-03T08:48:22.191Z</time>
      </trkpt>
      <trkpt lat="44.82708" lon="0.95457">
        <ele>17.904152</ele>
        <time>2011-08-03T08:48:25.197Z</time>
      </trkpt>
      <trkpt lat="44.82711" lon="0.95449">
        <ele>18.904137</ele>
        <time>2011-08-03T08:48:28.193Z</time>
      </trkpt>
      <trkpt lat="44.82714" lon="0.95444">
        <ele>17.904129</ele>
        <time>2011-08-03T08:48:30.195Z</time>
      </trkpt>
      <trkpt lat="44.82717" lon="0.95438">
        <ele>17.904118</ele>
        <time>2011-08-03T08:48:32.189Z</time>
      </trkpt>
      <trkpt lat="44.82719" lon="0.95432">
        <ele>17.904106</ele>
        <time>2011-08-03T08:48:34.193Z</time>
      </trkpt>
      <trkpt lat="44.82722" lon="0.95427">
        <ele>16.904099</ele>
        <time>2011-08-03T08:48:36.186Z</time>
      </trkpt>
      <trkpt lat="44.82725" lon="0.95422">
        <ele>16.904099</ele>
        <time>2011-08-03T08:48:38.184Z</time>
      </trkpt>
      <trkpt lat="44.82728" lon="0.95416">
        <ele>16.904083</ele>
        <time>2011-08-03T08:48:40.198Z</time>
      </trkpt>
      <trkpt lat="44.82731" lon="0.95412">
        <ele>15.904083</ele>
        <time>2011-08-03T08:48:42.195Z</time>
      </trkpt>
      <trkpt lat="44.82736" lon="0.95405">
        <ele>15.904076</ele>
        <time>2011-08-03T08:48:45.190Z</time>
      </trkpt>
      <trkpt lat="44.8274" lon="0.95399">
        <ele>15.904079</ele>
        <time>2011-08-03T08:48:48.189Z</time>
      </trkpt>
      <trkpt lat="44.82745" lon="0.95392">
        <ele>14.904079</ele>
        <time>2011-08-03T08:48:51.189Z</time>
      </trkpt>
      <trkpt lat="44.82751" lon="0.95385">
        <ele>13.904079</ele>
        <time>2011-08-03T08:48:54.190Z</time>
      </trkpt>
      <trkpt lat="44.82755" lon="0.9538">
        <ele>13.904064</ele>
        <time>2011-08-03T08:48:56.212Z</time>
      </trkpt>
      <trkpt lat="44.8276" lon="0.95375">
        <ele>14.904083</ele>
        <time>2011-08-03T08:48:59.192Z</time>
      </trkpt>
      <trkpt lat="44.82765" lon="0.95369">
        <ele>13.904076</ele>
        <time>2011-08-03T08:49:04.191Z</time>
      </trkpt>
      <trkpt lat="44.82769" lon="0.95364">
        <ele>13.904083</ele>
        <time>2011-08-03T08:49:07.192Z</time>
      </trkpt>
      <trkpt lat="44.82773" lon="0.95357">
        <ele>14.904064</ele>
        <time>2011-08-03T08:49:10.191Z</time>
      </trkpt>
      <trkpt lat="44.82779" lon="0.95342">
        <ele>14.904037</ele>
        <time>2011-08-03T08:49:14.191Z</time>
      </trkpt>
      <trkpt lat="44.82783" lon="0.95334">
        <ele>13.90403</ele>
        <time>2011-08-03T08:49:16.200Z</time>
      </trkpt>
      <trkpt lat="44.82787" lon="0.95328">
        <ele>12.904018</ele>
        <time>2011-08-03T08:49:18.195Z</time>
      </trkpt>
      <trkpt lat="44.8279" lon="0.95323">
        <ele>11.904015</ele>
        <time>2011-08-03T08:49:20.183Z</time>
      </trkpt>
      <trkpt lat="44.82796" lon="0.95315">
        <ele>10.904015</ele>
        <time>2011-08-03T08:49:24.215Z</time>
      </trkpt>
      <trkpt lat="44.828" lon="0.9531">
        <ele>10.904011</ele>
        <time>2011-08-03T08:49:27.191Z</time>
      </trkpt>
      <trkpt lat="44.82805" lon="0.95304">
        <ele>10.904007</ele>
        <time>2011-08-03T08:49:30.191Z</time>
      </trkpt>
      <trkpt lat="44.82808" lon="0.95298">
        <ele>10.904011</ele>
        <time>2011-08-03T08:49:32.193Z</time>
      </trkpt>
      <trkpt lat="44.82812" lon="0.95292">
        <ele>9.903999</ele>
        <time>2011-08-03T08:49:34.194Z</time>
      </trkpt>
      <trkpt lat="44.82821" lon="0.95281">
        <ele>9.904003</ele>
        <time>2011-08-03T08:49:38.191Z</time>
      </trkpt>
      <trkpt lat="44.82826" lon="0.95276">
        <ele>9.904003</ele>
        <time>2011-08-03T08:49:40.190Z</time>
      </trkpt>
      <trkpt lat="44.82831" lon="0.9527">
        <ele>9.903999</ele>
        <time>2011-08-03T08:49:42.194Z</time>
      </trkpt>
      <trkpt lat="44.82836" lon="0.95265">
        <ele>10.904007</ele>
        <time>2011-08-03T08:49:44.187Z</time>
      </trkpt>
      <trkpt lat="44.8284" lon="0.95259">
        <ele>10.904007</ele>
        <time>2011-08-03T08:49:46.191Z</time>
      </trkpt>
      <trkpt lat="44.82845" lon="0.95254">
        <ele>10.904003</ele>
        <time>2011-08-03T08:49:48.193Z</time>
      </trkpt>
      <trkpt lat="44.82849" lon="0.95249">
        <ele>11.903999</ele>
        <time>2011-08-03T08:49:50.189Z</time>
      </trkpt>
      <trkpt lat="44.82853" lon="0.95243">
        <ele>11.903999</ele>
        <time>2011-08-03T08:49:52.188Z</time>
      </trkpt>
      <trkpt lat="44.82857" lon="0.95238">
        <ele>11.904003</ele>
        <time>2011-08-03T08:49:54.213Z</time>
      </trkpt>
      <trkpt lat="44.82861" lon="0.95233">
        <ele>11.903999</ele>
        <time>2011-08-03T08:49:56.196Z</time>
      </trkpt>
      <trkpt lat="44.82868" lon="0.95224">
        <ele>12.903996</ele>
        <time>2011-08-03T08:49:59.184Z</time>
      </trkpt>
      <trkpt lat="44.82872" lon="0.95218">
        <ele>12.903992</ele>
        <time>2011-08-03T08:50:01.194Z</time>
      </trkpt>
      <trkpt lat="44.82879" lon="0.95207">
        <ele>12.90398</ele>
        <time>2011-08-03T08:50:04.192Z</time>
      </trkpt>
      <trkpt lat="44.82883" lon="0.952">
        <ele>13.903976</ele>
        <time>2011-08-03T08:50:06.187Z</time>
      </trkpt>
      <trkpt lat="44.82888" lon="0.95194">
        <ele>13.903969</ele>
        <time>2011-08-03T08:50:08.189Z</time>
      </trkpt>
      <trkpt lat="44.82893" lon="0.95188">
        <ele>13.903976</ele>
        <time>2011-08-03T08:50:10.188Z</time>
      </trkpt>
      <trkpt lat="44.82898" lon="0.95182">
        <ele>14.903969</ele>
        <time>2011-08-03T08:50:12.188Z</time>
      </trkpt>
      <trkpt lat="44.82902" lon="0.95176">
        <ele>14.903976</ele>
        <time>2011-08-03T08:50:14.187Z</time>
      </trkpt>
      <trkpt lat="44.82906" lon="0.95171">
        <ele>14.903969</ele>
        <time>2011-08-03T08:50:16.197Z</time>
      </trkpt>
      <trkpt lat="44.82919" lon="0.95157">
        <ele>14.903976</ele>
        <time>2011-08-03T08:50:22.194Z</time>
      </trkpt>
      <trkpt lat="44.82923" lon="0.95152">
        <ele>14.903969</ele>
        <time>2011-08-03T08:50:24.192Z</time>
      </trkpt>
      <trkpt lat="44.82928" lon="0.95146">
        <ele>13.903965</ele>
        <time>2011-08-03T08:50:26.190Z</time>
      </trkpt>
      <trkpt lat="44.82934" lon="0.95141">
        <ele>13.903973</ele>
        <time>2011-08-03T08:50:28.197Z</time>
      </trkpt>
      <trkpt lat="44.82939" lon="0.95136">
        <ele>12.903984</ele>
        <time>2011-08-03T08:50:30.184Z</time>
      </trkpt>
      <trkpt lat="44.82945" lon="0.9513">
        <ele>12.903988</ele>
        <time>2011-08-03T08:50:32.189Z</time>
      </trkpt>
      <trkpt lat="44.8295" lon="0.95125">
        <ele>12.903992</ele>
        <time>2011-08-03T08:50:34.188Z</time>
      </trkpt>
      <trkpt lat="44.82956" lon="0.95118">
        <ele>12.903992</ele>
        <time>2011-08-03T08:50:36.190Z</time>
      </trkpt>
      <trkpt lat="44.82969" lon="0.95103">
        <ele>11.903988</ele>
        <time>2011-08-03T08:50:41.189Z</time>
      </trkpt>
      <trkpt lat="44.82974" lon="0.95096">
        <ele>12.903992</ele>
        <time>2011-08-03T08:50:43.192Z</time>
      </trkpt>
      <trkpt lat="44.82979" lon="0.95089">
        <ele>12.903992</ele>
        <time>2011-08-03T08:50:45.190Z</time>
      </trkpt>
      <trkpt lat="44.82985" lon="0.95082">
        <ele>12.903984</ele>
        <time>2011-08-03T08:50:47.197Z</time>
      </trkpt>
      <trkpt lat="44.82993" lon="0.95072">
        <ele>13.903984</ele>
        <time>2011-08-03T08:50:50.189Z</time>
      </trkpt>
      <trkpt lat="44.82998" lon="0.95065">
        <ele>13.903984</ele>
        <time>2011-08-03T08:50:52.197Z</time>
      </trkpt>
      <trkpt lat="44.83004" lon="0.95059">
        <ele>14.90398</ele>
        <time>2011-08-03T08:50:54.185Z</time>
      </trkpt>
      <trkpt lat="44.83009" lon="0.95053">
        <ele>14.903984</ele>
        <time>2011-08-03T08:50:56.188Z</time>
      </trkpt>
      <trkpt lat="44.83015" lon="0.95047">
        <ele>14.903992</ele>
        <time>2011-08-03T08:50:58.196Z</time>
      </trkpt>
      <trkpt lat="44.8302" lon="0.9504">
        <ele>14.903984</ele>
        <time>2011-08-03T08:51:00.191Z</time>
      </trkpt>
      <trkpt lat="44.83024" lon="0.95033">
        <ele>14.903976</ele>
        <time>2011-08-03T08:51:02.186Z</time>
      </trkpt>
      <trkpt lat="44.83027" lon="0.95016">
        <ele>16.903927</ele>
        <time>2011-08-03T08:51:08.188Z</time>
      </trkpt>
      <trkpt lat="44.83029" lon="0.9501">
        <ele>17.903915</ele>
        <time>2011-08-03T08:51:10.193Z</time>
      </trkpt>
      <trkpt lat="44.83031" lon="0.95001">
        <ele>17.903893</ele>
        <time>2011-08-03T08:51:13.185Z</time>
      </trkpt>
      <trkpt lat="44.83033" lon="0.94995">
        <ele>18.903881</ele>
        <time>2011-08-03T08:51:15.189Z</time>
      </trkpt>
      <trkpt lat="44.83035" lon="0.94987">
        <ele>19.903862</ele>
        <time>2011-08-03T08:51:17.182Z</time>
      </trkpt>
      <trkpt lat="44.83039" lon="0.94978">
        <ele>19.903847</ele>
        <time>2011-08-03T08:51:19.192Z</time>
      </trkpt>
      <trkpt lat="44.83041" lon="0.94972">
        <ele>19.903835</ele>
        <time>2011-08-03T08:51:21.184Z</time>
      </trkpt>
      <trkpt lat="44.83045" lon="0.94963">
        <ele>19.903816</ele>
        <time>2011-08-03T08:51:22.195Z</time>
      </trkpt>
      <trkpt lat="44.83051" lon="0.94952">
        <ele>18.903809</ele>
        <time>2011-08-03T08:51:25.184Z</time>
      </trkpt>
      <trkpt lat="44.83059" lon="0.94941">
        <ele>19.903801</ele>
        <time>2011-08-03T08:51:29.188Z</time>
      </trkpt>
      <trkpt lat="44.83067" lon="0.94934">
        <ele>19.903805</ele>
        <time>2011-08-03T08:51:32.186Z</time>
      </trkpt>
      <trkpt lat="44.83075" lon="0.94926">
        <ele>19.903809</ele>
        <time>2011-08-03T08:51:35.188Z</time>
      </trkpt>
      <trkpt lat="44.83084" lon="0.9492">
        <ele>19.903824</ele>
        <time>2011-08-03T08:51:38.186Z</time>
      </trkpt>
      <trkpt lat="44.83091" lon="0.94915">
        <ele>21.903835</ele>
        <time>2011-08-03T08:51:40.194Z</time>
      </trkpt>
      <trkpt lat="44.83099" lon="0.9491">
        <ele>22.903854</ele>
        <time>2011-08-03T08:51:42.191Z</time>
      </trkpt>
      <trkpt lat="44.83107" lon="0.94904">
        <ele>22.903862</ele>
        <time>2011-08-03T08:51:44.183Z</time>
      </trkpt>
      <trkpt lat="44.83115" lon="0.94899">
        <ele>22.903881</ele>
        <time>2011-08-03T08:51:46.191Z</time>
      </trkpt>
      <trkpt lat="44.83119" lon="0.94896">
        <ele>22.903893</ele>
        <time>2011-08-03T08:51:47.189Z</time>
      </trkpt>
      <trkpt lat="44.83123" lon="0.94893">
        <ele>22.903896</ele>
        <time>2011-08-03T08:51:48.186Z</time>
      </trkpt>
      <trkpt lat="44.83131" lon="0.94888">
        <ele>22.903915</ele>
        <time>2011-08-03T08:51:50.187Z</time>
      </trkpt>
      <trkpt lat="44.83138" lon="0.94883">
        <ele>22.903915</ele>
        <time>2011-08-03T08:51:52.196Z</time>
      </trkpt>
      <trkpt lat="44.83144" lon="0.94879">
        <ele>21.903938</ele>
        <time>2011-08-03T08:51:54.189Z</time>
      </trkpt>
      <trkpt lat="44.83151" lon="0.94875">
        <ele>20.903946</ele>
        <time>2011-08-03T08:51:56.189Z</time>
      </trkpt>
      <trkpt lat="44.83157" lon="0.94871">
        <ele>19.903965</ele>
        <time>2011-08-03T08:51:58.198Z</time>
      </trkpt>
      <trkpt lat="44.83162" lon="0.94868">
        <ele>20.903973</ele>
        <time>2011-08-03T08:52:00.186Z</time>
      </trkpt>
      <trkpt lat="44.83167" lon="0.94864">
        <ele>20.903976</ele>
        <time>2011-08-03T08:52:02.189Z</time>
      </trkpt>
      <trkpt lat="44.83172" lon="0.94862">
        <ele>20.903988</ele>
        <time>2011-08-03T08:52:04.193Z</time>
      </trkpt>
      <trkpt lat="44.83177" lon="0.94859">
        <ele>19.903999</ele>
        <time>2011-08-03T08:52:06.187Z</time>
      </trkpt>
      <trkpt lat="44.83182" lon="0.94856">
        <ele>18.904022</ele>
        <time>2011-08-03T08:52:08.185Z</time>
      </trkpt>
      <trkpt lat="44.83191" lon="0.94849">
        <ele>18.90403</ele>
        <time>2011-08-03T08:52:12.184Z</time>
      </trkpt>
      <trkpt lat="44.83197" lon="0.94846">
        <ele>17.904037</ele>
        <time>2011-08-03T08:52:15.191Z</time>
      </trkpt>
      <trkpt lat="44.83215" lon="0.94835">
        <ele>17.904076</ele>
        <time>2011-08-03T08:52:25.190Z</time>
      </trkpt>
      <trkpt lat="44.83232" lon="0.94826">
        <ele>18.904114</ele>
        <time>2011-08-03T08:52:32.187Z</time>
      </trkpt>
      <trkpt lat="44.83243" lon="0.94821">
        <ele>17.904148</ele>
        <time>2011-08-03T08:52:36.185Z</time>
      </trkpt>
      <trkpt lat="44.83248" lon="0.94817">
        <ele>16.90416</ele>
        <time>2011-08-03T08:52:38.189Z</time>
      </trkpt>
      <trkpt lat="44.83253" lon="0.94814">
        <ele>16.904171</ele>
        <time>2011-08-03T08:52:40.187Z</time>
      </trkpt>
      <trkpt lat="44.83258" lon="0.94812">
        <ele>16.904186</ele>
        <time>2011-08-03T08:52:42.216Z</time>
      </trkpt>
      <trkpt lat="44.83268" lon="0.94808">
        <ele>16.904205</ele>
        <time>2011-08-03T08:52:46.189Z</time>
      </trkpt>
      <trkpt lat="44.83273" lon="0.94806">
        <ele>15.904213</ele>
        <time>2011-08-03T08:52:48.189Z</time>
      </trkpt>
      <trkpt lat="44.83277" lon="0.94804">
        <ele>15.90424</ele>
        <time>2011-08-03T08:52:50.198Z</time>
      </trkpt>
      <trkpt lat="44.83281" lon="0.94802">
        <ele>15.904243</ele>
        <time>2011-08-03T08:52:52.191Z</time>
      </trkpt>
      <trkpt lat="44.83286" lon="0.948">
        <ele>15.904251</ele>
        <time>2011-08-03T08:52:54.196Z</time>
      </trkpt>
      <trkpt lat="44.83291" lon="0.94798">
        <ele>14.90427</ele>
        <time>2011-08-03T08:52:56.188Z</time>
      </trkpt>
      <trkpt lat="44.83296" lon="0.94797">
        <ele>14.904278</ele>
        <time>2011-08-03T08:52:58.188Z</time>
      </trkpt>
      <trkpt lat="44.83301" lon="0.94794">
        <ele>13.904289</ele>
        <time>2011-08-03T08:53:00.191Z</time>
      </trkpt>
      <trkpt lat="44.8332" lon="0.94785">
        <ele>13.904339</ele>
        <time>2011-08-03T08:53:08.194Z</time>
      </trkpt>
      <trkpt lat="44.83325" lon="0.94783">
        <ele>13.90435</ele>
        <time>2011-08-03T08:53:10.191Z</time>
      </trkpt>
      <trkpt lat="44.83329" lon="0.94781">
        <ele>12.904358</ele>
        <time>2011-08-03T08:53:12.189Z</time>
      </trkpt>
      <trkpt lat="44.83334" lon="0.94779">
        <ele>13.904377</ele>
        <time>2011-08-03T08:53:14.187Z</time>
      </trkpt>
      <trkpt lat="44.8334" lon="0.94777">
        <ele>13.904396</ele>
        <time>2011-08-03T08:53:17.187Z</time>
      </trkpt>
      <trkpt lat="44.83346" lon="0.94776">
        <ele>13.904419</ele>
        <time>2011-08-03T08:53:20.191Z</time>
      </trkpt>
      <trkpt lat="44.83352" lon="0.94774">
        <ele>13.904434</ele>
        <time>2011-08-03T08:53:23.189Z</time>
      </trkpt>
      <trkpt lat="44.83357" lon="0.94771">
        <ele>13.904449</ele>
        <time>2011-08-03T08:53:26.240Z</time>
      </trkpt>
      <trkpt lat="44.83363" lon="0.94766">
        <ele>12.904457</ele>
        <time>2011-08-03T08:53:29.185Z</time>
      </trkpt>
      <trkpt lat="44.83368" lon="0.94762">
        <ele>12.904457</ele>
        <time>2011-08-03T08:53:32.187Z</time>
      </trkpt>
      <trkpt lat="44.83373" lon="0.94757">
        <ele>12.904465</ele>
        <time>2011-08-03T08:53:35.187Z</time>
      </trkpt>
      <trkpt lat="44.83379" lon="0.94753">
        <ele>12.904472</ele>
        <time>2011-08-03T08:53:38.184Z</time>
      </trkpt>
      <trkpt lat="44.83384" lon="0.94748">
        <ele>12.904476</ele>
        <time>2011-08-03T08:53:41.189Z</time>
      </trkpt>
      <trkpt lat="44.83389" lon="0.94742">
        <ele>12.904476</ele>
        <time>2011-08-03T08:53:44.185Z</time>
      </trkpt>
      <trkpt lat="44.83392" lon="0.94736">
        <ele>12.90448</ele>
        <time>2011-08-03T08:53:47.181Z</time>
      </trkpt>
      <trkpt lat="44.83396" lon="0.9473">
        <ele>12.904465</ele>
        <time>2011-08-03T08:53:50.184Z</time>
      </trkpt>
      <trkpt lat="44.83398" lon="0.94724">
        <ele>13.904457</ele>
        <time>2011-08-03T08:53:52.189Z</time>
      </trkpt>
      <trkpt lat="44.834" lon="0.94718">
        <ele>13.904442</ele>
        <time>2011-08-03T08:53:54.188Z</time>
      </trkpt>
      <trkpt lat="44.83403" lon="0.94712">
        <ele>13.90443</ele>
        <time>2011-08-03T08:53:56.188Z</time>
      </trkpt>
      <trkpt lat="44.83405" lon="0.94706">
        <ele>13.904419</ele>
        <time>2011-08-03T08:53:58.186Z</time>
      </trkpt>
      <trkpt lat="44.83407" lon="0.947">
        <ele>14.904404</ele>
        <time>2011-08-03T08:54:00.184Z</time>
      </trkpt>
      <trkpt lat="44.8341" lon="0.94693">
        <ele>13.904388</ele>
        <time>2011-08-03T08:54:02.184Z</time>
      </trkpt>
      <trkpt lat="44.83412" lon="0.94687">
        <ele>13.904377</ele>
        <time>2011-08-03T08:54:04.188Z</time>
      </trkpt>
      <trkpt lat="44.83415" lon="0.94681">
        <ele>13.904366</ele>
        <time>2011-08-03T08:54:06.189Z</time>
      </trkpt>
      <trkpt lat="44.83418" lon="0.94676">
        <ele>13.904369</ele>
        <time>2011-08-03T08:54:08.183Z</time>
      </trkpt>
      <trkpt lat="44.83421" lon="0.9467">
        <ele>13.904358</ele>
        <time>2011-08-03T08:54:10.190Z</time>
      </trkpt>
      <trkpt lat="44.83424" lon="0.94664">
        <ele>13.904343</ele>
        <time>2011-08-03T08:54:12.191Z</time>
      </trkpt>
      <trkpt lat="44.83427" lon="0.94658">
        <ele>13.904335</ele>
        <time>2011-08-03T08:54:14.188Z</time>
      </trkpt>
      <trkpt lat="44.8343" lon="0.94653">
        <ele>13.904327</ele>
        <time>2011-08-03T08:54:16.191Z</time>
      </trkpt>
      <trkpt lat="44.83433" lon="0.94647">
        <ele>13.904324</ele>
        <time>2011-08-03T08:54:18.189Z</time>
      </trkpt>
      <trkpt lat="44.83435" lon="0.94641">
        <ele>13.90432</ele>
        <time>2011-08-03T08:54:20.186Z</time>
      </trkpt>
      <trkpt lat="44.83439" lon="0.94634">
        <ele>13.904305</ele>
        <time>2011-08-03T08:54:23.186Z</time>
      </trkpt>
      <trkpt lat="44.83444" lon="0.94628">
        <ele>14.904316</ele>
        <time>2011-08-03T08:54:26.188Z</time>
      </trkpt>
      <trkpt lat="44.83451" lon="0.94627">
        <ele>14.904339</ele>
        <time>2011-08-03T08:54:29.187Z</time>
      </trkpt>
      <trkpt lat="44.83456" lon="0.94629">
        <ele>14.904358</ele>
        <time>2011-08-03T08:54:32.187Z</time>
      </trkpt>
      <trkpt lat="44.83461" lon="0.94632">
        <ele>14.904388</ele>
        <time>2011-08-03T08:54:35.186Z</time>
      </trkpt>
      <trkpt lat="44.83466" lon="0.94636">
        <ele>15.904434</ele>
        <time>2011-08-03T08:54:38.183Z</time>
      </trkpt>
      <trkpt lat="44.83472" lon="0.94641">
        <ele>17.904469</ele>
        <time>2011-08-03T08:54:41.184Z</time>
      </trkpt>
      <trkpt lat="44.83478" lon="0.94645">
        <ele>18.904503</ele>
        <time>2011-08-03T08:54:44.183Z</time>
      </trkpt>
      <trkpt lat="44.83482" lon="0.94649">
        <ele>18.904541</ele>
        <time>2011-08-03T08:54:46.188Z</time>
      </trkpt>
      <trkpt lat="44.83486" lon="0.94652">
        <ele>18.904572</ele>
        <time>2011-08-03T08:54:48.183Z</time>
      </trkpt>
      <trkpt lat="44.83491" lon="0.94656">
        <ele>18.904598</ele>
        <time>2011-08-03T08:54:50.186Z</time>
      </trkpt>
      <trkpt lat="44.83496" lon="0.94659">
        <ele>18.904625</ele>
        <time>2011-08-03T08:54:52.188Z</time>
      </trkpt>
      <trkpt lat="44.83501" lon="0.94661">
        <ele>19.904663</ele>
        <time>2011-08-03T08:54:54.189Z</time>
      </trkpt>
      <trkpt lat="44.83506" lon="0.94664">
        <ele>19.904701</ele>
        <time>2011-08-03T08:54:56.187Z</time>
      </trkpt>
      <trkpt lat="44.83511" lon="0.94667">
        <ele>19.904724</ele>
        <time>2011-08-03T08:54:58.188Z</time>
      </trkpt>
      <trkpt lat="44.83516" lon="0.94669">
        <ele>19.904755</ele>
        <time>2011-08-03T08:55:00.182Z</time>
      </trkpt>
      <trkpt lat="44.83521" lon="0.94672">
        <ele>19.904785</ele>
        <time>2011-08-03T08:55:02.196Z</time>
      </trkpt>
      <trkpt lat="44.83531" lon="0.94676">
        <ele>20.904846</ele>
        <time>2011-08-03T08:55:06.184Z</time>
      </trkpt>
      <trkpt lat="44.83536" lon="0.94679">
        <ele>20.904869</ele>
        <time>2011-08-03T08:55:08.186Z</time>
      </trkpt>
      <trkpt lat="44.83542" lon="0.94681">
        <ele>20.904907</ele>
        <time>2011-08-03T08:55:10.193Z</time>
      </trkpt>
      <trkpt lat="44.83547" lon="0.94684">
        <ele>19.904938</ele>
        <time>2011-08-03T08:55:12.196Z</time>
      </trkpt>
      <trkpt lat="44.8356" lon="0.94692">
        <ele>19.905029</ele>
        <time>2011-08-03T08:55:17.188Z</time>
      </trkpt>
      <trkpt lat="44.83573" lon="0.947">
        <ele>21.905106</ele>
        <time>2011-08-03T08:55:22.189Z</time>
      </trkpt>
      <trkpt lat="44.83578" lon="0.94703">
        <ele>20.905136</ele>
        <time>2011-08-03T08:55:24.186Z</time>
      </trkpt>
      <trkpt lat="44.83584" lon="0.94707">
        <ele>21.90517</ele>
        <time>2011-08-03T08:55:26.183Z</time>
      </trkpt>
      <trkpt lat="44.83601" lon="0.94716">
        <ele>22.905273</ele>
        <time>2011-08-03T08:55:32.183Z</time>
      </trkpt>
      <trkpt lat="44.8362" lon="0.94725">
        <ele>23.905396</ele>
        <time>2011-08-03T08:55:38.178Z</time>
      </trkpt>
      <trkpt lat="44.83637" lon="0.94734">
        <ele>22.905495</ele>
        <time>2011-08-03T08:55:44.187Z</time>
      </trkpt>
      <trkpt lat="44.83642" lon="0.94737">
        <ele>21.905533</ele>
        <time>2011-08-03T08:55:46.184Z</time>
      </trkpt>
      <trkpt lat="44.83662" lon="0.94746">
        <ele>21.905647</ele>
        <time>2011-08-03T08:55:53.185Z</time>
      </trkpt>
      <trkpt lat="44.83682" lon="0.94757">
        <ele>22.905758</ele>
        <time>2011-08-03T08:56:00.190Z</time>
      </trkpt>
      <trkpt lat="44.83699" lon="0.94767">
        <ele>23.905869</ele>
        <time>2011-08-03T08:56:06.192Z</time>
      </trkpt>
      <trkpt lat="44.83716" lon="0.94776">
        <ele>24.905979</ele>
        <time>2011-08-03T08:56:12.185Z</time>
      </trkpt>
      <trkpt lat="44.83735" lon="0.94783">
        <ele>23.906082</ele>
        <time>2011-08-03T08:56:18.226Z</time>
      </trkpt>
      <trkpt lat="44.8374" lon="0.94787">
        <ele>22.90612</ele>
        <time>2011-08-03T08:56:20.183Z</time>
      </trkpt>
      <trkpt lat="44.83759" lon="0.94797">
        <ele>21.906227</ele>
        <time>2011-08-03T08:56:27.184Z</time>
      </trkpt>
      <trkpt lat="44.83767" lon="0.94801">
        <ele>21.906277</ele>
        <time>2011-08-03T08:56:30.200Z</time>
      </trkpt>
      <trkpt lat="44.83773" lon="0.94804">
        <ele>22.906303</ele>
        <time>2011-08-03T08:56:32.181Z</time>
      </trkpt>
      <trkpt lat="44.83792" lon="0.94813">
        <ele>21.906429</ele>
        <time>2011-08-03T08:56:39.184Z</time>
      </trkpt>
      <trkpt lat="44.83809" lon="0.94824">
        <ele>19.906536</ele>
        <time>2011-08-03T08:56:45.192Z</time>
      </trkpt>
      <trkpt lat="44.83821" lon="0.94829">
        <ele>19.906605</ele>
        <time>2011-08-03T08:56:49.195Z</time>
      </trkpt>
      <trkpt lat="44.83842" lon="0.94825">
        <ele>19.906681</ele>
        <time>2011-08-03T08:56:55.185Z</time>
      </trkpt>
      <trkpt lat="44.83859" lon="0.94813">
        <ele>20.906715</ele>
        <time>2011-08-03T08:57:00.185Z</time>
      </trkpt>
      <trkpt lat="44.83865" lon="0.94809">
        <ele>20.906715</ele>
        <time>2011-08-03T08:57:02.238Z</time>
      </trkpt>
      <trkpt lat="44.83872" lon="0.94804">
        <ele>21.906731</ele>
        <time>2011-08-03T08:57:04.181Z</time>
      </trkpt>
      <trkpt lat="44.83878" lon="0.94799">
        <ele>21.906738</ele>
        <time>2011-08-03T08:57:06.186Z</time>
      </trkpt>
      <trkpt lat="44.83883" lon="0.94794">
        <ele>21.906742</ele>
        <time>2011-08-03T08:57:08.187Z</time>
      </trkpt>
      <trkpt lat="44.83893" lon="0.94782">
        <ele>22.906746</ele>
        <time>2011-08-03T08:57:12.189Z</time>
      </trkpt>
      <trkpt lat="44.83906" lon="0.94762">
        <ele>21.906723</ele>
        <time>2011-08-03T08:57:18.187Z</time>
      </trkpt>
      <trkpt lat="44.83912" lon="0.94752">
        <ele>21.906723</ele>
        <time>2011-08-03T08:57:21.194Z</time>
      </trkpt>
      <trkpt lat="44.83921" lon="0.94739">
        <ele>20.906708</ele>
        <time>2011-08-03T08:57:25.197Z</time>
      </trkpt>
      <trkpt lat="44.8393" lon="0.94727">
        <ele>20.9067</ele>
        <time>2011-08-03T08:57:29.184Z</time>
      </trkpt>
      <trkpt lat="44.83935" lon="0.94721">
        <ele>21.9067</ele>
        <time>2011-08-03T08:57:31.182Z</time>
      </trkpt>
      <trkpt lat="44.8394" lon="0.94715">
        <ele>21.906696</ele>
        <time>2011-08-03T08:57:33.184Z</time>
      </trkpt>
      <trkpt lat="44.83944" lon="0.94709">
        <ele>21.9067</ele>
        <time>2011-08-03T08:57:35.203Z</time>
      </trkpt>
      <trkpt lat="44.83952" lon="0.94699">
        <ele>21.906693</ele>
        <time>2011-08-03T08:57:38.230Z</time>
      </trkpt>
      <trkpt lat="44.83956" lon="0.94692">
        <ele>21.906685</ele>
        <time>2011-08-03T08:57:40.186Z</time>
      </trkpt>
      <trkpt lat="44.83961" lon="0.94686">
        <ele>21.906685</ele>
        <time>2011-08-03T08:57:42.193Z</time>
      </trkpt>
      <trkpt lat="44.83966" lon="0.94681">
        <ele>21.906693</ele>
        <time>2011-08-03T08:57:44.185Z</time>
      </trkpt>
      <trkpt lat="44.83971" lon="0.94675">
        <ele>21.906685</ele>
        <time>2011-08-03T08:57:46.192Z</time>
      </trkpt>
      <trkpt lat="44.83975" lon="0.94669">
        <ele>21.906677</ele>
        <time>2011-08-03T08:57:48.193Z</time>
      </trkpt>
      <trkpt lat="44.83989" lon="0.94651">
        <ele>21.906685</ele>
        <time>2011-08-03T08:57:54.189Z</time>
      </trkpt>
      <trkpt lat="44.83997" lon="0.94642">
        <ele>21.906681</ele>
        <time>2011-08-03T08:57:57.183Z</time>
      </trkpt>
      <trkpt lat="44.84002" lon="0.94637">
        <ele>21.906685</ele>
        <time>2011-08-03T08:57:59.186Z</time>
      </trkpt>
      <trkpt lat="44.84006" lon="0.94631">
        <ele>21.906685</ele>
        <time>2011-08-03T08:58:01.186Z</time>
      </trkpt>
      <trkpt lat="44.84011" lon="0.94625">
        <ele>21.906685</ele>
        <time>2011-08-03T08:58:03.184Z</time>
      </trkpt>
      <trkpt lat="44.84016" lon="0.94619">
        <ele>21.906673</ele>
        <time>2011-08-03T08:58:05.187Z</time>
      </trkpt>
      <trkpt lat="44.8402" lon="0.94612">
        <ele>22.906677</ele>
        <time>2011-08-03T08:58:07.189Z</time>
      </trkpt>
      <trkpt lat="44.84033" lon="0.94593">
        <ele>21.906662</ele>
        <time>2011-08-03T08:58:13.184Z</time>
      </trkpt>
      <trkpt lat="44.8404" lon="0.94583">
        <ele>20.906654</ele>
        <time>2011-08-03T08:58:16.189Z</time>
      </trkpt>
      <trkpt lat="44.84044" lon="0.94577">
        <ele>20.906647</ele>
        <time>2011-08-03T08:58:18.193Z</time>
      </trkpt>
      <trkpt lat="44.84048" lon="0.9457">
        <ele>20.906643</ele>
        <time>2011-08-03T08:58:20.184Z</time>
      </trkpt>
      <trkpt lat="44.84052" lon="0.94563">
        <ele>21.906628</ele>
        <time>2011-08-03T08:58:22.190Z</time>
      </trkpt>
      <trkpt lat="44.84065" lon="0.9454">
        <ele>20.906605</ele>
        <time>2011-08-03T08:58:29.179Z</time>
      </trkpt>
      <trkpt lat="44.84069" lon="0.94533">
        <ele>21.906593</ele>
        <time>2011-08-03T08:58:31.191Z</time>
      </trkpt>
      <trkpt lat="44.84078" lon="0.94514">
        <ele>22.90657</ele>
        <time>2011-08-03T08:58:36.182Z</time>
      </trkpt>
      <trkpt lat="44.84085" lon="0.94502">
        <ele>22.906551</ele>
        <time>2011-08-03T08:58:39.199Z</time>
      </trkpt>
      <trkpt lat="44.84097" lon="0.9448">
        <ele>21.906525</ele>
        <time>2011-08-03T08:58:45.182Z</time>
      </trkpt>
      <trkpt lat="44.84101" lon="0.94473">
        <ele>21.906517</ele>
        <time>2011-08-03T08:58:47.184Z</time>
      </trkpt>
      <trkpt lat="44.84112" lon="0.94453">
        <ele>22.906494</ele>
        <time>2011-08-03T08:58:53.185Z</time>
      </trkpt>
      <trkpt lat="44.84115" lon="0.94446">
        <ele>22.906483</ele>
        <time>2011-08-03T08:58:55.191Z</time>
      </trkpt>
      <trkpt lat="44.8412" lon="0.94436">
        <ele>21.906471</ele>
        <time>2011-08-03T08:58:59.184Z</time>
      </trkpt>
      <trkpt lat="44.84123" lon="0.94431">
        <ele>22.906467</ele>
        <time>2011-08-03T08:59:01.188Z</time>
      </trkpt>
      <trkpt lat="44.84126" lon="0.94425">
        <ele>22.906452</ele>
        <time>2011-08-03T08:59:03.190Z</time>
      </trkpt>
      <trkpt lat="44.84129" lon="0.94419">
        <ele>22.906445</ele>
        <time>2011-08-03T08:59:05.189Z</time>
      </trkpt>
      <trkpt lat="44.84133" lon="0.94411">
        <ele>23.906429</ele>
        <time>2011-08-03T08:59:08.187Z</time>
      </trkpt>
      <trkpt lat="44.84137" lon="0.94405">
        <ele>23.906425</ele>
        <time>2011-08-03T08:59:10.184Z</time>
      </trkpt>
      <trkpt lat="44.84141" lon="0.944">
        <ele>23.906433</ele>
        <time>2011-08-03T08:59:12.186Z</time>
      </trkpt>
      <trkpt lat="44.84145" lon="0.94394">
        <ele>24.906425</ele>
        <time>2011-08-03T08:59:14.178Z</time>
      </trkpt>
      <trkpt lat="44.84149" lon="0.94389">
        <ele>25.906422</ele>
        <time>2011-08-03T08:59:16.185Z</time>
      </trkpt>
      <trkpt lat="44.84159" lon="0.94369">
        <ele>25.906395</ele>
        <time>2011-08-03T08:59:22.184Z</time>
      </trkpt>
      <trkpt lat="44.84163" lon="0.94361">
        <ele>24.90638</ele>
        <time>2011-08-03T08:59:24.193Z</time>
      </trkpt>
      <trkpt lat="44.84169" lon="0.9435">
        <ele>25.906364</ele>
        <time>2011-08-03T08:59:27.183Z</time>
      </trkpt>
      <trkpt lat="44.84172" lon="0.94343">
        <ele>26.906349</ele>
        <time>2011-08-03T08:59:29.182Z</time>
      </trkpt>
      <trkpt lat="44.84186" lon="0.9432">
        <ele>26.906338</ele>
        <time>2011-08-03T08:59:36.186Z</time>
      </trkpt>
      <trkpt lat="44.84195" lon="0.94295">
        <ele>27.906281</ele>
        <time>2011-08-03T08:59:44.184Z</time>
      </trkpt>
      <trkpt lat="44.84201" lon="0.94279">
        <ele>27.90625</ele>
        <time>2011-08-03T08:59:49.186Z</time>
      </trkpt>
      <trkpt lat="44.84209" lon="0.94253">
        <ele>27.906197</ele>
        <time>2011-08-03T08:59:56.181Z</time>
      </trkpt>
      <trkpt lat="44.84215" lon="0.94237">
        <ele>27.906158</ele>
        <time>2011-08-03T09:00:01.181Z</time>
      </trkpt>
      <trkpt lat="44.84218" lon="0.94231">
        <ele>27.906151</ele>
        <time>2011-08-03T09:00:03.188Z</time>
      </trkpt>
      <trkpt lat="44.84225" lon="0.94215">
        <ele>27.906124</ele>
        <time>2011-08-03T09:00:08.180Z</time>
      </trkpt>
      <trkpt lat="44.84233" lon="0.94196">
        <ele>27.90609</ele>
        <time>2011-08-03T09:00:14.180Z</time>
      </trkpt>
      <trkpt lat="44.84238" lon="0.94184">
        <ele>28.906067</ele>
        <time>2011-08-03T09:00:17.189Z</time>
      </trkpt>
      <trkpt lat="44.84241" lon="0.94176">
        <ele>28.906052</ele>
        <time>2011-08-03T09:00:19.189Z</time>
      </trkpt>
      <trkpt lat="44.84244" lon="0.94168">
        <ele>27.906033</ele>
        <time>2011-08-03T09:00:21.185Z</time>
      </trkpt>
      <trkpt lat="44.84247" lon="0.94159">
        <ele>26.906013</ele>
        <time>2011-08-03T09:00:23.186Z</time>
      </trkpt>
      <trkpt lat="44.8425" lon="0.94151">
        <ele>26.905998</ele>
        <time>2011-08-03T09:00:25.188Z</time>
      </trkpt>
      <trkpt lat="44.84253" lon="0.94144">
        <ele>26.905987</ele>
        <time>2011-08-03T09:00:27.188Z</time>
      </trkpt>
      <trkpt lat="44.84258" lon="0.94134">
        <ele>27.905972</ele>
        <time>2011-08-03T09:00:30.184Z</time>
      </trkpt>
      <trkpt lat="44.84262" lon="0.94127">
        <ele>28.905968</ele>
        <time>2011-08-03T09:00:32.181Z</time>
      </trkpt>
      <trkpt lat="44.84266" lon="0.94122">
        <ele>29.90596</ele>
        <time>2011-08-03T09:00:34.177Z</time>
      </trkpt>
      <trkpt lat="44.84279" lon="0.94104">
        <ele>31.905952</ele>
        <time>2011-08-03T09:00:41.180Z</time>
      </trkpt>
      <trkpt lat="44.84285" lon="0.94079">
        <ele>34.905884</ele>
        <time>2011-08-03T09:00:48.183Z</time>
      </trkpt>
      <trkpt lat="44.84287" lon="0.9407">
        <ele>33.905869</ele>
        <time>2011-08-03T09:00:50.184Z</time>
      </trkpt>
      <trkpt lat="44.8429" lon="0.94053">
        <ele>33.905819</ele>
        <time>2011-08-03T09:00:54.186Z</time>
      </trkpt>
      <trkpt lat="44.84292" lon="0.94044">
        <ele>32.905792</ele>
        <time>2011-08-03T09:00:56.181Z</time>
      </trkpt>
      <trkpt lat="44.84293" lon="0.94036">
        <ele>33.905769</ele>
        <time>2011-08-03T09:00:58.186Z</time>
      </trkpt>
      <trkpt lat="44.84298" lon="0.9401">
        <ele>32.905704</ele>
        <time>2011-08-03T09:01:04.189Z</time>
      </trkpt>
      <trkpt lat="44.84302" lon="0.93985">
        <ele>30.905624</ele>
        <time>2011-08-03T09:01:09.187Z</time>
      </trkpt>
      <trkpt lat="44.84306" lon="0.93958">
        <ele>29.905548</ele>
        <time>2011-08-03T09:01:15.184Z</time>
      </trkpt>
      <trkpt lat="44.84311" lon="0.93932">
        <ele>29.905479</ele>
        <time>2011-08-03T09:01:21.198Z</time>
      </trkpt>
      <trkpt lat="44.84318" lon="0.93905">
        <ele>31.905407</ele>
        <time>2011-08-03T09:01:28.186Z</time>
      </trkpt>
      <trkpt lat="44.84322" lon="0.93889">
        <ele>33.905373</ele>
        <time>2011-08-03T09:01:32.188Z</time>
      </trkpt>
      <trkpt lat="44.84327" lon="0.93863">
        <ele>32.905293</ele>
        <time>2011-08-03T09:01:38.183Z</time>
      </trkpt>
      <trkpt lat="44.8433" lon="0.93836">
        <ele>30.905212</ele>
        <time>2011-08-03T09:01:42.183Z</time>
      </trkpt>
      <trkpt lat="44.84334" lon="0.93809">
        <ele>28.905136</ele>
        <time>2011-08-03T09:01:46.184Z</time>
      </trkpt>
      <trkpt lat="44.84335" lon="0.9378">
        <ele>26.905033</ele>
        <time>2011-08-03T09:01:51.187Z</time>
      </trkpt>
      <trkpt lat="44.84335" lon="0.93769">
        <ele>26.904999</ele>
        <time>2011-08-03T09:01:53.181Z</time>
      </trkpt>
      <trkpt lat="44.84333" lon="0.93759">
        <ele>25.904961</ele>
        <time>2011-08-03T09:01:55.181Z</time>
      </trkpt>
      <trkpt lat="44.84331" lon="0.93745">
        <ele>23.904892</ele>
        <time>2011-08-03T09:01:58.185Z</time>
      </trkpt>
      <trkpt lat="44.84329" lon="0.93735">
        <ele>22.904846</ele>
        <time>2011-08-03T09:02:00.182Z</time>
      </trkpt>
      <trkpt lat="44.84325" lon="0.93713">
        <ele>21.90477</ele>
        <time>2011-08-03T09:02:05.182Z</time>
      </trkpt>
      <trkpt lat="44.84325" lon="0.93705">
        <ele>20.904724</ele>
        <time>2011-08-03T09:02:07.180Z</time>
      </trkpt>
      <trkpt lat="44.84325" lon="0.93697">
        <ele>19.904701</ele>
        <time>2011-08-03T09:02:09.181Z</time>
      </trkpt>
      <trkpt lat="44.84326" lon="0.93689">
        <ele>19.904678</ele>
        <time>2011-08-03T09:02:11.188Z</time>
      </trkpt>
      <trkpt lat="44.84327" lon="0.93682">
        <ele>19.904663</ele>
        <time>2011-08-03T09:02:13.182Z</time>
      </trkpt>
      <trkpt lat="44.84328" lon="0.93675">
        <ele>18.904633</ele>
        <time>2011-08-03T09:02:15.186Z</time>
      </trkpt>
      <trkpt lat="44.8433" lon="0.93665">
        <ele>16.90461</ele>
        <time>2011-08-03T09:02:21.181Z</time>
      </trkpt>
      <trkpt lat="44.84335" lon="0.93664">
        <ele>15.904633</ele>
        <time>2011-08-03T09:02:27.186Z</time>
      </trkpt>
      <trkpt lat="44.84336" lon="0.93658">
        <ele>15.90461</ele>
        <time>2011-08-03T09:02:37.204Z</time>
      </trkpt>
      <trkpt lat="44.84346" lon="0.93657">
        <ele>14.90464</ele>
        <time>2011-08-03T09:03:48.141Z</time>
      </trkpt>
      <trkpt lat="44.84346" lon="0.93657">
        <ele>14.90464</ele>
        <time>2011-08-03T09:06:13.614Z</time>
      </trkpt>
      <trkpt lat="44.84328" lon="0.93688">
        <ele>7.904682</ele>
        <time>2011-08-03T09:08:02.137Z</time>
      </trkpt>
      <trkpt lat="44.84324" lon="0.93727">
        <ele>8.904804</ele>
        <time>2011-08-03T09:08:22.135Z</time>
      </trkpt>
      <trkpt lat="44.84315" lon="0.93765">
        <ele>11.904903</ele>
        <time>2011-08-03T09:08:44.135Z</time>
      </trkpt>
      <trkpt lat="44.84311" lon="0.93806">
        <ele>12.905033</ele>
        <time>2011-08-03T09:09:01.140Z</time>
      </trkpt>
      <trkpt lat="44.84306" lon="0.9384">
        <ele>15.905128</ele>
        <time>2011-08-03T09:09:23.133Z</time>
      </trkpt>
      <trkpt lat="44.84291" lon="0.93825">
        <ele>17.905006</ele>
        <time>2011-08-03T09:09:30.136Z</time>
      </trkpt>
      <trkpt lat="44.84274" lon="0.93809">
        <ele>20.904892</ele>
        <time>2011-08-03T09:09:38.131Z</time>
      </trkpt>
      <trkpt lat="44.84256" lon="0.93797">
        <ele>21.90477</ele>
        <time>2011-08-03T09:09:45.133Z</time>
      </trkpt>
      <trkpt lat="44.84247" lon="0.93793">
        <ele>22.904724</ele>
        <time>2011-08-03T09:09:49.137Z</time>
      </trkpt>
      <trkpt lat="44.84243" lon="0.93791">
        <ele>22.904694</ele>
        <time>2011-08-03T09:09:51.139Z</time>
      </trkpt>
      <trkpt lat="44.84227" lon="0.93787">
        <ele>20.904602</ele>
        <time>2011-08-03T09:09:57.137Z</time>
      </trkpt>
      <trkpt lat="44.84222" lon="0.93785">
        <ele>20.904579</ele>
        <time>2011-08-03T09:09:59.131Z</time>
      </trkpt>
      <trkpt lat="44.84217" lon="0.93783">
        <ele>20.904556</ele>
        <time>2011-08-03T09:10:01.138Z</time>
      </trkpt>
      <trkpt lat="44.84211" lon="0.93781">
        <ele>20.90451</ele>
        <time>2011-08-03T09:10:03.127Z</time>
      </trkpt>
      <trkpt lat="44.842" lon="0.93776">
        <ele>20.904461</ele>
        <time>2011-08-03T09:10:08.131Z</time>
      </trkpt>
      <trkpt lat="44.84174" lon="0.93764">
        <ele>21.904305</ele>
        <time>2011-08-03T09:10:19.137Z</time>
      </trkpt>
      <trkpt lat="44.84147" lon="0.93747">
        <ele>20.904129</ele>
        <time>2011-08-03T09:10:34.130Z</time>
      </trkpt>
      <trkpt lat="44.8413" lon="0.93737">
        <ele>21.904022</ele>
        <time>2011-08-03T09:10:41.133Z</time>
      </trkpt>
      <trkpt lat="44.84098" lon="0.9373">
        <ele>21.903873</ele>
        <time>2011-08-03T09:10:50.164Z</time>
      </trkpt>
      <trkpt lat="44.84079" lon="0.93726">
        <ele>20.903767</ele>
        <time>2011-08-03T09:10:55.178Z</time>
      </trkpt>
      <trkpt lat="44.8406" lon="0.9372">
        <ele>18.903667</ele>
        <time>2011-08-03T09:11:00.162Z</time>
      </trkpt>
      <trkpt lat="44.84042" lon="0.93715">
        <ele>16.90358</ele>
        <time>2011-08-03T09:11:05.164Z</time>
      </trkpt>
      <trkpt lat="44.84022" lon="0.93708">
        <ele>15.903473</ele>
        <time>2011-08-03T09:11:11.167Z</time>
      </trkpt>
      <trkpt lat="44.84004" lon="0.93701">
        <ele>15.903366</ele>
        <time>2011-08-03T09:11:17.167Z</time>
      </trkpt>
      <trkpt lat="44.83985" lon="0.93696">
        <ele>14.903275</ele>
        <time>2011-08-03T09:11:25.173Z</time>
      </trkpt>
      <trkpt lat="44.83968" lon="0.93684">
        <ele>13.903145</ele>
        <time>2011-08-03T09:11:33.171Z</time>
      </trkpt>
      <trkpt lat="44.83951" lon="0.93672">
        <ele>13.903042</ele>
        <time>2011-08-03T09:11:41.166Z</time>
      </trkpt>
      <trkpt lat="44.83934" lon="0.93662">
        <ele>13.902935</ele>
        <time>2011-08-03T09:11:48.166Z</time>
      </trkpt>
      <trkpt lat="44.83914" lon="0.93657">
        <ele>14.902832</ele>
        <time>2011-08-03T09:11:55.167Z</time>
      </trkpt>
      <trkpt lat="44.83894" lon="0.93662">
        <ele>14.902767</ele>
        <time>2011-08-03T09:12:01.172Z</time>
      </trkpt>
      <trkpt lat="44.83876" lon="0.93673">
        <ele>15.902733</ele>
        <time>2011-08-03T09:12:07.170Z</time>
      </trkpt>
      <trkpt lat="44.83861" lon="0.93689">
        <ele>15.902725</ele>
        <time>2011-08-03T09:12:13.173Z</time>
      </trkpt>
      <trkpt lat="44.83834" lon="0.93739">
        <ele>16.902782</ele>
        <time>2011-08-03T09:12:33.169Z</time>
      </trkpt>
      <trkpt lat="44.83822" lon="0.93762">
        <ele>15.902821</ele>
        <time>2011-08-03T09:12:39.169Z</time>
      </trkpt>
      <trkpt lat="44.83814" lon="0.93785">
        <ele>16.90287</ele>
        <time>2011-08-03T09:12:46.171Z</time>
      </trkpt>
      <trkpt lat="44.83803" lon="0.93819">
        <ele>15.902946</ele>
        <time>2011-08-03T09:13:02.165Z</time>
      </trkpt>
      <trkpt lat="44.83791" lon="0.93858">
        <ele>15.903034</ele>
        <time>2011-08-03T09:13:13.136Z</time>
      </trkpt>
      <trkpt lat="44.83785" lon="0.93883">
        <ele>15.903099</ele>
        <time>2011-08-03T09:13:19.170Z</time>
      </trkpt>
      <trkpt lat="44.83774" lon="0.93917">
        <ele>15.90316</ele>
        <time>2011-08-03T09:13:35.162Z</time>
      </trkpt>
      <trkpt lat="44.83765" lon="0.93953">
        <ele>14.903259</ele>
        <time>2011-08-03T09:13:51.134Z</time>
      </trkpt>
      <trkpt lat="44.83756" lon="0.93991">
        <ele>14.903355</ele>
        <time>2011-08-03T09:14:05.136Z</time>
      </trkpt>
      <trkpt lat="44.83745" lon="0.94027">
        <ele>13.903435</ele>
        <time>2011-08-03T09:14:20.131Z</time>
      </trkpt>
      <trkpt lat="44.83735" lon="0.94065">
        <ele>12.903534</ele>
        <time>2011-08-03T09:14:28.133Z</time>
      </trkpt>
      <trkpt lat="44.83723" lon="0.94101">
        <ele>11.903614</ele>
        <time>2011-08-03T09:14:34.134Z</time>
      </trkpt>
      <trkpt lat="44.83715" lon="0.94124">
        <ele>11.903656</ele>
        <time>2011-08-03T09:14:38.164Z</time>
      </trkpt>
      <trkpt lat="44.83705" lon="0.94153">
        <ele>11.903717</ele>
        <time>2011-08-03T09:14:43.167Z</time>
      </trkpt>
      <trkpt lat="44.83694" lon="0.94176">
        <ele>11.903755</ele>
        <time>2011-08-03T09:14:47.162Z</time>
      </trkpt>
      <trkpt lat="44.83683" lon="0.94199">
        <ele>12.903786</ele>
        <time>2011-08-03T09:14:52.178Z</time>
      </trkpt>
      <trkpt lat="44.8367" lon="0.94224">
        <ele>12.903824</ele>
        <time>2011-08-03T09:14:57.229Z</time>
      </trkpt>
      <trkpt lat="44.8366" lon="0.94248">
        <ele>12.903862</ele>
        <time>2011-08-03T09:15:03.170Z</time>
      </trkpt>
      <trkpt lat="44.8365" lon="0.9427">
        <ele>12.903908</ele>
        <time>2011-08-03T09:15:08.162Z</time>
      </trkpt>
      <trkpt lat="44.83616" lon="0.94297">
        <ele>12.903862</ele>
        <time>2011-08-03T09:15:40.161Z</time>
      </trkpt>
      <trkpt lat="44.83597" lon="0.9429">
        <ele>12.903751</ele>
        <time>2011-08-03T09:15:47.131Z</time>
      </trkpt>
      <trkpt lat="44.8356" lon="0.94314">
        <ele>13.903671</ele>
        <time>2011-08-03T09:16:09.130Z</time>
      </trkpt>
      <trkpt lat="44.83547" lon="0.94338">
        <ele>13.903706</ele>
        <time>2011-08-03T09:16:13.169Z</time>
      </trkpt>
      <trkpt lat="44.83535" lon="0.94362">
        <ele>13.903748</ele>
        <time>2011-08-03T09:16:17.166Z</time>
      </trkpt>
      <trkpt lat="44.83522" lon="0.94388">
        <ele>13.903786</ele>
        <time>2011-08-03T09:16:22.165Z</time>
      </trkpt>
      <trkpt lat="44.83509" lon="0.94407">
        <ele>13.903809</ele>
        <time>2011-08-03T09:16:25.170Z</time>
      </trkpt>
      <trkpt lat="44.83497" lon="0.94433">
        <ele>14.903839</ele>
        <time>2011-08-03T09:16:29.167Z</time>
      </trkpt>
      <trkpt lat="44.83488" lon="0.94459">
        <ele>14.903893</ele>
        <time>2011-08-03T09:16:33.160Z</time>
      </trkpt>
      <trkpt lat="44.8348" lon="0.94482">
        <ele>14.903938</ele>
        <time>2011-08-03T09:16:37.169Z</time>
      </trkpt>
      <trkpt lat="44.8347" lon="0.94508">
        <ele>13.903992</ele>
        <time>2011-08-03T09:16:42.162Z</time>
      </trkpt>
      <trkpt lat="44.83458" lon="0.9453">
        <ele>13.904015</ele>
        <time>2011-08-03T09:16:47.162Z</time>
      </trkpt>
      <trkpt lat="44.83447" lon="0.9455">
        <ele>13.904041</ele>
        <time>2011-08-03T09:16:52.166Z</time>
      </trkpt>
      <trkpt lat="44.83434" lon="0.94574">
        <ele>12.904076</ele>
        <time>2011-08-03T09:16:58.163Z</time>
      </trkpt>
      <trkpt lat="44.83424" lon="0.946">
        <ele>12.904125</ele>
        <time>2011-08-03T09:17:04.179Z</time>
      </trkpt>
      <trkpt lat="44.83416" lon="0.94625">
        <ele>11.904179</ele>
        <time>2011-08-03T09:17:10.170Z</time>
      </trkpt>
      <trkpt lat="44.83406" lon="0.94649">
        <ele>11.904217</ele>
        <time>2011-08-03T09:17:17.168Z</time>
      </trkpt>
      <trkpt lat="44.83395" lon="0.94673">
        <ele>10.904266</ele>
        <time>2011-08-03T09:17:24.168Z</time>
      </trkpt>
      <trkpt lat="44.83391" lon="0.94681">
        <ele>10.904274</ele>
        <time>2011-08-03T09:17:28.178Z</time>
      </trkpt>
      <trkpt lat="44.83385" lon="0.94692">
        <ele>11.904289</ele>
        <time>2011-08-03T09:17:32.161Z</time>
      </trkpt>
      <trkpt lat="44.83381" lon="0.94704">
        <ele>12.904316</ele>
        <time>2011-08-03T09:17:36.168Z</time>
      </trkpt>
      <trkpt lat="44.83374" lon="0.94718">
        <ele>12.904327</ele>
        <time>2011-08-03T09:17:40.177Z</time>
      </trkpt>
      <trkpt lat="44.83367" lon="0.94729">
        <ele>12.904339</ele>
        <time>2011-08-03T09:17:44.164Z</time>
      </trkpt>
      <trkpt lat="44.8336" lon="0.94742">
        <ele>12.904358</ele>
        <time>2011-08-03T09:17:48.175Z</time>
      </trkpt>
      <trkpt lat="44.83357" lon="0.94749">
        <ele>13.904366</ele>
        <time>2011-08-03T09:17:50.167Z</time>
      </trkpt>
      <trkpt lat="44.83355" lon="0.94755">
        <ele>14.904381</ele>
        <time>2011-08-03T09:17:52.168Z</time>
      </trkpt>
      <trkpt lat="44.83352" lon="0.94763">
        <ele>15.904396</ele>
        <time>2011-08-03T09:17:54.159Z</time>
      </trkpt>
      <trkpt lat="44.8335" lon="0.9477">
        <ele>15.904404</ele>
        <time>2011-08-03T09:17:56.164Z</time>
      </trkpt>
      <trkpt lat="44.83348" lon="0.94778">
        <ele>16.904438</ele>
        <time>2011-08-03T09:17:58.161Z</time>
      </trkpt>
      <trkpt lat="44.83346" lon="0.94785">
        <ele>16.904457</ele>
        <time>2011-08-03T09:18:00.168Z</time>
      </trkpt>
      <trkpt lat="44.83343" lon="0.94793">
        <ele>15.904472</ele>
        <time>2011-08-03T09:18:02.160Z</time>
      </trkpt>
      <trkpt lat="44.83341" lon="0.94802">
        <ele>15.904488</ele>
        <time>2011-08-03T09:18:04.167Z</time>
      </trkpt>
      <trkpt lat="44.83338" lon="0.9481">
        <ele>15.904507</ele>
        <time>2011-08-03T09:18:06.160Z</time>
      </trkpt>
      <trkpt lat="44.83337" lon="0.94819">
        <ele>15.904533</ele>
        <time>2011-08-03T09:18:08.161Z</time>
      </trkpt>
      <trkpt lat="44.83335" lon="0.94828">
        <ele>14.904556</ele>
        <time>2011-08-03T09:18:10.164Z</time>
      </trkpt>
      <trkpt lat="44.83333" lon="0.94836">
        <ele>14.904572</ele>
        <time>2011-08-03T09:18:12.164Z</time>
      </trkpt>
      <trkpt lat="44.83331" lon="0.94844">
        <ele>14.904602</ele>
        <time>2011-08-03T09:18:14.157Z</time>
      </trkpt>
      <trkpt lat="44.83348" lon="0.94877">
        <ele>11.904793</ele>
        <time>2011-08-03T09:18:24.164Z</time>
      </trkpt>
      <trkpt lat="44.83358" lon="0.94882">
        <ele>9.90485</ele>
        <time>2011-08-03T09:18:29.163Z</time>
      </trkpt>
      <trkpt lat="44.83351" lon="0.9487">
        <ele>10.904778</ele>
        <time>2011-08-03T09:18:48.131Z</time>
      </trkpt>
      <trkpt lat="44.83338" lon="0.94866">
        <ele>10.904705</ele>
        <time>2011-08-03T09:18:51.127Z</time>
      </trkpt>
      <trkpt lat="44.8333" lon="0.94865">
        <ele>10.904671</ele>
        <time>2011-08-03T09:18:53.160Z</time>
      </trkpt>
      <trkpt lat="44.83322" lon="0.94865">
        <ele>9.904633</ele>
        <time>2011-08-03T09:18:55.162Z</time>
      </trkpt>
      <trkpt lat="44.83314" lon="0.94866">
        <ele>9.904606</ele>
        <time>2011-08-03T09:18:57.165Z</time>
      </trkpt>
      <trkpt lat="44.83306" lon="0.94868">
        <ele>9.904579</ele>
        <time>2011-08-03T09:18:59.160Z</time>
      </trkpt>
      <trkpt lat="44.83299" lon="0.94871">
        <ele>8.90456</ele>
        <time>2011-08-03T09:19:01.168Z</time>
      </trkpt>
      <trkpt lat="44.83292" lon="0.94874">
        <ele>9.904545</ele>
        <time>2011-08-03T09:19:03.186Z</time>
      </trkpt>
      <trkpt lat="44.83286" lon="0.94877">
        <ele>8.904526</ele>
        <time>2011-08-03T09:19:05.165Z</time>
      </trkpt>
      <trkpt lat="44.83279" lon="0.9488">
        <ele>8.904507</ele>
        <time>2011-08-03T09:19:07.167Z</time>
      </trkpt>
      <trkpt lat="44.83273" lon="0.94883">
        <ele>7.904499</ele>
        <time>2011-08-03T09:19:09.162Z</time>
      </trkpt>
      <trkpt lat="44.83263" lon="0.94888">
        <ele>7.904472</ele>
        <time>2011-08-03T09:19:16.165Z</time>
      </trkpt>
      <trkpt lat="44.83253" lon="0.94893">
        <ele>8.904438</ele>
        <time>2011-08-03T09:19:20.163Z</time>
      </trkpt>
      <trkpt lat="44.83246" lon="0.94896">
        <ele>8.904423</ele>
        <time>2011-08-03T09:19:22.164Z</time>
      </trkpt>
      <trkpt lat="44.83235" lon="0.94902">
        <ele>8.904408</ele>
        <time>2011-08-03T09:19:25.159Z</time>
      </trkpt>
      <trkpt lat="44.83228" lon="0.94905">
        <ele>8.904381</ele>
        <time>2011-08-03T09:19:27.165Z</time>
      </trkpt>
      <trkpt lat="44.83221" lon="0.94908">
        <ele>8.904362</ele>
        <time>2011-08-03T09:19:29.156Z</time>
      </trkpt>
      <trkpt lat="44.83214" lon="0.94911">
        <ele>8.904346</ele>
        <time>2011-08-03T09:19:31.166Z</time>
      </trkpt>
      <trkpt lat="44.83207" lon="0.94915">
        <ele>7.904324</ele>
        <time>2011-08-03T09:19:33.162Z</time>
      </trkpt>
      <trkpt lat="44.832" lon="0.94919">
        <ele>8.904316</ele>
        <time>2011-08-03T09:19:35.163Z</time>
      </trkpt>
      <trkpt lat="44.83193" lon="0.94922">
        <ele>8.904297</ele>
        <time>2011-08-03T09:19:37.171Z</time>
      </trkpt>
      <trkpt lat="44.83186" lon="0.94926">
        <ele>8.904274</ele>
        <time>2011-08-03T09:19:39.166Z</time>
      </trkpt>
      <trkpt lat="44.83179" lon="0.94929">
        <ele>7.904259</ele>
        <time>2011-08-03T09:19:41.165Z</time>
      </trkpt>
      <trkpt lat="44.83172" lon="0.94933">
        <ele>7.904243</ele>
        <time>2011-08-03T09:19:43.166Z</time>
      </trkpt>
      <trkpt lat="44.83165" lon="0.94936">
        <ele>7.904228</ele>
        <time>2011-08-03T09:19:45.163Z</time>
      </trkpt>
      <trkpt lat="44.83159" lon="0.94939">
        <ele>6.904205</ele>
        <time>2011-08-03T09:19:47.164Z</time>
      </trkpt>
      <trkpt lat="44.83152" lon="0.94943">
        <ele>6.904198</ele>
        <time>2011-08-03T09:19:49.161Z</time>
      </trkpt>
      <trkpt lat="44.83145" lon="0.94947">
        <ele>7.904175</ele>
        <time>2011-08-03T09:19:51.161Z</time>
      </trkpt>
      <trkpt lat="44.83139" lon="0.94951">
        <ele>7.904167</ele>
        <time>2011-08-03T09:19:53.159Z</time>
      </trkpt>
      <trkpt lat="44.83132" lon="0.94955">
        <ele>7.904156</ele>
        <time>2011-08-03T09:19:55.171Z</time>
      </trkpt>
      <trkpt lat="44.83127" lon="0.94958">
        <ele>7.904144</ele>
        <time>2011-08-03T09:19:57.161Z</time>
      </trkpt>
      <trkpt lat="44.83121" lon="0.94961">
        <ele>7.904125</ele>
        <time>2011-08-03T09:19:59.156Z</time>
      </trkpt>
      <trkpt lat="44.83116" lon="0.94962">
        <ele>8.904114</ele>
        <time>2011-08-03T09:20:01.162Z</time>
      </trkpt>
      <trkpt lat="44.83105" lon="0.9494">
        <ele>6.903984</ele>
        <time>2011-08-03T09:20:11.163Z</time>
      </trkpt>
      <trkpt lat="44.83101" lon="0.94914">
        <ele>6.903877</ele>
        <time>2011-08-03T09:20:17.160Z</time>
      </trkpt>
      <trkpt lat="44.83091" lon="0.94889">
        <ele>5.903748</ele>
        <time>2011-08-03T09:20:22.160Z</time>
      </trkpt>
      <trkpt lat="44.83079" lon="0.94865">
        <ele>5.90361</ele>
        <time>2011-08-03T09:20:28.163Z</time>
      </trkpt>
      <trkpt lat="44.83053" lon="0.94867">
        <ele>6.903507</ele>
        <time>2011-08-03T09:20:39.161Z</time>
      </trkpt>
      <trkpt lat="44.83038" lon="0.94883">
        <ele>7.903507</ele>
        <time>2011-08-03T09:20:43.164Z</time>
      </trkpt>
      <trkpt lat="44.8303" lon="0.94906">
        <ele>8.903549</ele>
        <time>2011-08-03T09:20:46.168Z</time>
      </trkpt>
      <trkpt lat="44.83021" lon="0.94932">
        <ele>9.903603</ele>
        <time>2011-08-03T09:20:50.170Z</time>
      </trkpt>
      <trkpt lat="44.83014" lon="0.94959">
        <ele>10.903671</ele>
        <time>2011-08-03T09:20:55.167Z</time>
      </trkpt>
      <trkpt lat="44.83006" lon="0.94987">
        <ele>10.903736</ele>
        <time>2011-08-03T09:21:01.164Z</time>
      </trkpt>
      <trkpt lat="44.82999" lon="0.95012">
        <ele>11.903797</ele>
        <time>2011-08-03T09:21:07.159Z</time>
      </trkpt>
      <trkpt lat="44.82999" lon="0.95018">
        <ele>11.903816</ele>
        <time>2011-08-03T09:21:09.164Z</time>
      </trkpt>
      <trkpt lat="44.82989" lon="0.95034">
        <ele>12.903835</ele>
        <time>2011-08-03T09:21:18.166Z</time>
      </trkpt>
      <trkpt lat="44.82985" lon="0.95038">
        <ele>12.903831</ele>
        <time>2011-08-03T09:21:20.161Z</time>
      </trkpt>
      <trkpt lat="44.82981" lon="0.95044">
        <ele>12.903828</ele>
        <time>2011-08-03T09:21:22.172Z</time>
      </trkpt>
      <trkpt lat="44.82977" lon="0.95049">
        <ele>13.903831</ele>
        <time>2011-08-03T09:21:24.170Z</time>
      </trkpt>
      <trkpt lat="44.82966" lon="0.95061">
        <ele>13.903831</ele>
        <time>2011-08-03T09:21:28.167Z</time>
      </trkpt>
      <trkpt lat="44.82962" lon="0.95066">
        <ele>13.903831</ele>
        <time>2011-08-03T09:21:30.161Z</time>
      </trkpt>
      <trkpt lat="44.82958" lon="0.9507">
        <ele>14.903831</ele>
        <time>2011-08-03T09:21:31.166Z</time>
      </trkpt>
      <trkpt lat="44.82953" lon="0.95077">
        <ele>14.903831</ele>
        <time>2011-08-03T09:21:33.158Z</time>
      </trkpt>
      <trkpt lat="44.82946" lon="0.95084">
        <ele>14.903824</ele>
        <time>2011-08-03T09:21:35.161Z</time>
      </trkpt>
      <trkpt lat="44.82939" lon="0.95092">
        <ele>14.903824</ele>
        <time>2011-08-03T09:21:37.165Z</time>
      </trkpt>
      <trkpt lat="44.82934" lon="0.95098">
        <ele>15.903824</ele>
        <time>2011-08-03T09:21:39.163Z</time>
      </trkpt>
      <trkpt lat="44.82929" lon="0.95104">
        <ele>15.903831</ele>
        <time>2011-08-03T09:21:41.161Z</time>
      </trkpt>
      <trkpt lat="44.82924" lon="0.9511">
        <ele>14.903839</ele>
        <time>2011-08-03T09:21:43.168Z</time>
      </trkpt>
      <trkpt lat="44.82916" lon="0.95119">
        <ele>15.903824</ele>
        <time>2011-08-03T09:21:46.162Z</time>
      </trkpt>
      <trkpt lat="44.82911" lon="0.95124">
        <ele>15.903824</ele>
        <time>2011-08-03T09:21:48.159Z</time>
      </trkpt>
      <trkpt lat="44.82895" lon="0.95141">
        <ele>16.903816</ele>
        <time>2011-08-03T09:21:54.164Z</time>
      </trkpt>
      <trkpt lat="44.8288" lon="0.95158">
        <ele>16.903809</ele>
        <time>2011-08-03T09:22:00.160Z</time>
      </trkpt>
      <trkpt lat="44.82865" lon="0.95173">
        <ele>15.903801</ele>
        <time>2011-08-03T09:22:08.160Z</time>
      </trkpt>
      <trkpt lat="44.82848" lon="0.95188">
        <ele>15.903782</ele>
        <time>2011-08-03T09:22:15.161Z</time>
      </trkpt>
      <trkpt lat="44.82831" lon="0.95205">
        <ele>17.903778</ele>
        <time>2011-08-03T09:22:22.166Z</time>
      </trkpt>
      <trkpt lat="44.82816" lon="0.9522">
        <ele>17.903767</ele>
        <time>2011-08-03T09:22:28.164Z</time>
      </trkpt>
      <trkpt lat="44.82802" lon="0.95239">
        <ele>18.903759</ele>
        <time>2011-08-03T09:22:34.162Z</time>
      </trkpt>
      <trkpt lat="44.82786" lon="0.9526">
        <ele>18.903774</ele>
        <time>2011-08-03T09:22:40.162Z</time>
      </trkpt>
      <trkpt lat="44.82781" lon="0.95268">
        <ele>19.903797</ele>
        <time>2011-08-03T09:22:42.165Z</time>
      </trkpt>
      <trkpt lat="44.82776" lon="0.95276">
        <ele>19.903793</ele>
        <time>2011-08-03T09:22:44.156Z</time>
      </trkpt>
      <trkpt lat="44.82771" lon="0.95285">
        <ele>19.903801</ele>
        <time>2011-08-03T09:22:46.162Z</time>
      </trkpt>
      <trkpt lat="44.82766" lon="0.95294">
        <ele>20.903812</ele>
        <time>2011-08-03T09:22:48.168Z</time>
      </trkpt>
      <trkpt lat="44.8276" lon="0.95302">
        <ele>20.903824</ele>
        <time>2011-08-03T09:22:50.161Z</time>
      </trkpt>
      <trkpt lat="44.82756" lon="0.95311">
        <ele>20.903831</ele>
        <time>2011-08-03T09:22:52.166Z</time>
      </trkpt>
      <trkpt lat="44.82752" lon="0.9532">
        <ele>20.903843</ele>
        <time>2011-08-03T09:22:54.158Z</time>
      </trkpt>
      <trkpt lat="44.82748" lon="0.95328">
        <ele>20.903862</ele>
        <time>2011-08-03T09:22:56.162Z</time>
      </trkpt>
      <trkpt lat="44.82744" lon="0.95335">
        <ele>20.90387</ele>
        <time>2011-08-03T09:22:58.167Z</time>
      </trkpt>
      <trkpt lat="44.82741" lon="0.95341">
        <ele>20.903877</ele>
        <time>2011-08-03T09:23:00.164Z</time>
      </trkpt>
      <trkpt lat="44.82737" lon="0.95348">
        <ele>20.903885</ele>
        <time>2011-08-03T09:23:02.159Z</time>
      </trkpt>
      <trkpt lat="44.82733" lon="0.95354">
        <ele>20.903885</ele>
        <time>2011-08-03T09:23:04.166Z</time>
      </trkpt>
      <trkpt lat="44.82728" lon="0.9536">
        <ele>20.903885</ele>
        <time>2011-08-03T09:23:06.166Z</time>
      </trkpt>
      <trkpt lat="44.82723" lon="0.95365">
        <ele>20.903881</ele>
        <time>2011-08-03T09:23:08.159Z</time>
      </trkpt>
      <trkpt lat="44.82716" lon="0.95373">
        <ele>20.903885</ele>
        <time>2011-08-03T09:23:11.159Z</time>
      </trkpt>
      <trkpt lat="44.82712" lon="0.95379">
        <ele>20.903889</ele>
        <time>2011-08-03T09:23:13.165Z</time>
      </trkpt>
      <trkpt lat="44.82707" lon="0.95385">
        <ele>20.903893</ele>
        <time>2011-08-03T09:23:15.177Z</time>
      </trkpt>
      <trkpt lat="44.82703" lon="0.95391">
        <ele>20.903893</ele>
        <time>2011-08-03T09:23:17.162Z</time>
      </trkpt>
      <trkpt lat="44.82698" lon="0.95398">
        <ele>20.903893</ele>
        <time>2011-08-03T09:23:19.159Z</time>
      </trkpt>
      <trkpt lat="44.82694" lon="0.95405">
        <ele>20.9039</ele>
        <time>2011-08-03T09:23:21.162Z</time>
      </trkpt>
      <trkpt lat="44.8269" lon="0.95411">
        <ele>20.903908</ele>
        <time>2011-08-03T09:23:23.158Z</time>
      </trkpt>
      <trkpt lat="44.82685" lon="0.95418">
        <ele>20.903912</ele>
        <time>2011-08-03T09:23:25.164Z</time>
      </trkpt>
      <trkpt lat="44.82681" lon="0.95425">
        <ele>20.903923</ele>
        <time>2011-08-03T09:23:27.160Z</time>
      </trkpt>
      <trkpt lat="44.82678" lon="0.95433">
        <ele>20.903938</ele>
        <time>2011-08-03T09:23:29.157Z</time>
      </trkpt>
      <trkpt lat="44.82675" lon="0.95441">
        <ele>20.90395</ele>
        <time>2011-08-03T09:23:31.170Z</time>
      </trkpt>
      <trkpt lat="44.82671" lon="0.95448">
        <ele>20.903961</ele>
        <time>2011-08-03T09:23:33.160Z</time>
      </trkpt>
      <trkpt lat="44.82668" lon="0.95456">
        <ele>20.903969</ele>
        <time>2011-08-03T09:23:35.162Z</time>
      </trkpt>
      <trkpt lat="44.82665" lon="0.95463">
        <ele>20.903984</ele>
        <time>2011-08-03T09:23:37.165Z</time>
      </trkpt>
      <trkpt lat="44.8266" lon="0.95474">
        <ele>20.904007</ele>
        <time>2011-08-03T09:23:40.173Z</time>
      </trkpt>
      <trkpt lat="44.82657" lon="0.95481">
        <ele>19.904022</ele>
        <time>2011-08-03T09:23:42.160Z</time>
      </trkpt>
      <trkpt lat="44.82654" lon="0.95488">
        <ele>19.904037</ele>
        <time>2011-08-03T09:23:44.161Z</time>
      </trkpt>
      <trkpt lat="44.82651" lon="0.95495">
        <ele>19.904041</ele>
        <time>2011-08-03T09:23:46.162Z</time>
      </trkpt>
      <trkpt lat="44.82648" lon="0.95502">
        <ele>19.90406</ele>
        <time>2011-08-03T09:23:48.154Z</time>
      </trkpt>
      <trkpt lat="44.82645" lon="0.95509">
        <ele>20.904068</ele>
        <time>2011-08-03T09:23:50.160Z</time>
      </trkpt>
      <trkpt lat="44.82642" lon="0.95515">
        <ele>20.904079</ele>
        <time>2011-08-03T09:23:52.167Z</time>
      </trkpt>
      <trkpt lat="44.82639" lon="0.95522">
        <ele>20.904091</ele>
        <time>2011-08-03T09:23:54.165Z</time>
      </trkpt>
      <trkpt lat="44.82633" lon="0.95539">
        <ele>21.904125</ele>
        <time>2011-08-03T09:23:59.280Z</time>
      </trkpt>
      <trkpt lat="44.82631" lon="0.95545">
        <ele>20.90414</ele>
        <time>2011-08-03T09:24:01.285Z</time>
      </trkpt>
      <trkpt lat="44.82628" lon="0.95552">
        <ele>19.904152</ele>
        <time>2011-08-03T09:24:03.274Z</time>
      </trkpt>
      <trkpt lat="44.82624" lon="0.95562">
        <ele>19.904167</ele>
        <time>2011-08-03T09:24:06.279Z</time>
      </trkpt>
      <trkpt lat="44.82621" lon="0.95568">
        <ele>19.904182</ele>
        <time>2011-08-03T09:24:08.272Z</time>
      </trkpt>
      <trkpt lat="44.82619" lon="0.95575">
        <ele>20.904182</ele>
        <time>2011-08-03T09:24:10.279Z</time>
      </trkpt>
      <trkpt lat="44.82616" lon="0.95582">
        <ele>20.904205</ele>
        <time>2011-08-03T09:24:12.277Z</time>
      </trkpt>
      <trkpt lat="44.82614" lon="0.95589">
        <ele>20.904217</ele>
        <time>2011-08-03T09:24:14.279Z</time>
      </trkpt>
      <trkpt lat="44.82611" lon="0.95597">
        <ele>20.904228</ele>
        <time>2011-08-03T09:24:16.279Z</time>
      </trkpt>
      <trkpt lat="44.82609" lon="0.95604">
        <ele>20.904247</ele>
        <time>2011-08-03T09:24:18.277Z</time>
      </trkpt>
      <trkpt lat="44.82606" lon="0.95612">
        <ele>21.90427</ele>
        <time>2011-08-03T09:24:20.279Z</time>
      </trkpt>
      <trkpt lat="44.82603" lon="0.95618">
        <ele>21.904274</ele>
        <time>2011-08-03T09:24:22.283Z</time>
      </trkpt>
      <trkpt lat="44.826" lon="0.95625">
        <ele>21.904289</ele>
        <time>2011-08-03T09:24:24.278Z</time>
      </trkpt>
      <trkpt lat="44.82597" lon="0.95632">
        <ele>20.904297</ele>
        <time>2011-08-03T09:24:26.276Z</time>
      </trkpt>
      <trkpt lat="44.82594" lon="0.95638">
        <ele>20.904305</ele>
        <time>2011-08-03T09:24:28.280Z</time>
      </trkpt>
      <trkpt lat="44.82591" lon="0.95645">
        <ele>19.90432</ele>
        <time>2011-08-03T09:24:30.283Z</time>
      </trkpt>
      <trkpt lat="44.82589" lon="0.95651">
        <ele>19.904331</ele>
        <time>2011-08-03T09:24:32.280Z</time>
      </trkpt>
      <trkpt lat="44.82586" lon="0.95661">
        <ele>20.904358</ele>
        <time>2011-08-03T09:24:35.275Z</time>
      </trkpt>
      <trkpt lat="44.82582" lon="0.95675">
        <ele>19.904388</ele>
        <time>2011-08-03T09:24:39.274Z</time>
      </trkpt>
      <trkpt lat="44.82578" lon="0.95684">
        <ele>19.904404</ele>
        <time>2011-08-03T09:24:42.274Z</time>
      </trkpt>
      <trkpt lat="44.82575" lon="0.95691">
        <ele>20.904419</ele>
        <time>2011-08-03T09:24:44.277Z</time>
      </trkpt>
      <trkpt lat="44.82569" lon="0.95704">
        <ele>20.904434</ele>
        <time>2011-08-03T09:24:48.275Z</time>
      </trkpt>
      <trkpt lat="44.82566" lon="0.9571">
        <ele>19.904453</ele>
        <time>2011-08-03T09:24:50.283Z</time>
      </trkpt>
      <trkpt lat="44.82563" lon="0.95718">
        <ele>19.904461</ele>
        <time>2011-08-03T09:24:52.301Z</time>
      </trkpt>
      <trkpt lat="44.82559" lon="0.95725">
        <ele>19.904465</ele>
        <time>2011-08-03T09:24:54.280Z</time>
      </trkpt>
      <trkpt lat="44.82554" lon="0.95737">
        <ele>19.904488</ele>
        <time>2011-08-03T09:24:57.279Z</time>
      </trkpt>
      <trkpt lat="44.8255" lon="0.95745">
        <ele>18.904507</ele>
        <time>2011-08-03T09:24:59.277Z</time>
      </trkpt>
      <trkpt lat="44.82538" lon="0.95768">
        <ele>19.904533</ele>
        <time>2011-08-03T09:25:05.273Z</time>
      </trkpt>
      <trkpt lat="44.82527" lon="0.95789">
        <ele>19.90456</ele>
        <time>2011-08-03T09:25:11.275Z</time>
      </trkpt>
      <trkpt lat="44.8252" lon="0.95813">
        <ele>19.904617</ele>
        <time>2011-08-03T09:25:31.281Z</time>
      </trkpt>
      <trkpt lat="44.82517" lon="0.95819">
        <ele>19.904633</ele>
        <time>2011-08-03T09:25:36.280Z</time>
      </trkpt>
      <trkpt lat="44.82512" lon="0.95827">
        <ele>19.904636</ele>
        <time>2011-08-03T09:25:38.277Z</time>
      </trkpt>
      <trkpt lat="44.82505" lon="0.95844">
        <ele>19.904667</ele>
        <time>2011-08-03T09:25:45.280Z</time>
      </trkpt>
      <trkpt lat="44.82503" lon="0.95852">
        <ele>19.904678</ele>
        <time>2011-08-03T09:25:47.275Z</time>
      </trkpt>
      <trkpt lat="44.82492" lon="0.95895">
        <ele>17.904785</ele>
        <time>2011-08-03T09:26:03.276Z</time>
      </trkpt>
      <trkpt lat="44.82484" lon="0.95934">
        <ele>16.904892</ele>
        <time>2011-08-03T09:26:15.271Z</time>
      </trkpt>
      <trkpt lat="44.82479" lon="0.95974">
        <ele>16.905006</ele>
        <time>2011-08-03T09:26:26.244Z</time>
      </trkpt>
      <trkpt lat="44.82472" lon="0.96011">
        <ele>15.905113</ele>
        <time>2011-08-03T09:26:36.240Z</time>
      </trkpt>
      <trkpt lat="44.82469" lon="0.96025">
        <ele>15.905155</ele>
        <time>2011-08-03T09:26:39.243Z</time>
      </trkpt>
      <trkpt lat="44.82467" lon="0.96039">
        <ele>14.90519</ele>
        <time>2011-08-03T09:26:42.246Z</time>
      </trkpt>
      <trkpt lat="44.82465" lon="0.96053">
        <ele>15.905228</ele>
        <time>2011-08-03T09:26:45.242Z</time>
      </trkpt>
      <trkpt lat="44.82464" lon="0.96066">
        <ele>16.905281</ele>
        <time>2011-08-03T09:26:48.246Z</time>
      </trkpt>
      <trkpt lat="44.82463" lon="0.96085">
        <ele>16.905338</ele>
        <time>2011-08-03T09:26:52.249Z</time>
      </trkpt>
      <trkpt lat="44.82462" lon="0.961">
        <ele>16.90538</ele>
        <time>2011-08-03T09:26:55.275Z</time>
      </trkpt>
      <trkpt lat="44.8246" lon="0.96115">
        <ele>16.905426</ele>
        <time>2011-08-03T09:26:58.286Z</time>
      </trkpt>
      <trkpt lat="44.82459" lon="0.96126">
        <ele>16.905468</ele>
        <time>2011-08-03T09:27:01.281Z</time>
      </trkpt>
      <trkpt lat="44.82457" lon="0.96134">
        <ele>16.905495</ele>
        <time>2011-08-03T09:27:03.280Z</time>
      </trkpt>
      <trkpt lat="44.82455" lon="0.96153">
        <ele>17.905548</ele>
        <time>2011-08-03T09:27:07.275Z</time>
      </trkpt>
      <trkpt lat="44.82453" lon="0.96169">
        <ele>17.905594</ele>
        <time>2011-08-03T09:27:13.277Z</time>
      </trkpt>
      <trkpt lat="44.82453" lon="0.96177">
        <ele>16.905628</ele>
        <time>2011-08-03T09:27:15.271Z</time>
      </trkpt>
      <trkpt lat="44.82452" lon="0.96198">
        <ele>16.905689</ele>
        <time>2011-08-03T09:27:19.279Z</time>
      </trkpt>
      <trkpt lat="44.82451" lon="0.96206">
        <ele>16.905716</ele>
        <time>2011-08-03T09:27:21.293Z</time>
      </trkpt>
      <trkpt lat="44.82451" lon="0.96214">
        <ele>16.905746</ele>
        <time>2011-08-03T09:27:22.274Z</time>
      </trkpt>
      <trkpt lat="44.8245" lon="0.9623">
        <ele>17.905792</ele>
        <time>2011-08-03T09:27:25.279Z</time>
      </trkpt>
      <trkpt lat="44.82449" lon="0.96236">
        <ele>17.905823</ele>
        <time>2011-08-03T09:27:27.273Z</time>
      </trkpt>
      <trkpt lat="44.82447" lon="0.96256">
        <ele>17.905876</ele>
        <time>2011-08-03T09:27:34.275Z</time>
      </trkpt>
      <trkpt lat="44.82446" lon="0.96263">
        <ele>17.905907</ele>
        <time>2011-08-03T09:27:36.273Z</time>
      </trkpt>
      <trkpt lat="44.82446" lon="0.9627">
        <ele>17.90593</ele>
        <time>2011-08-03T09:27:38.275Z</time>
      </trkpt>
      <trkpt lat="44.82445" lon="0.96278">
        <ele>16.905945</ele>
        <time>2011-08-03T09:27:40.274Z</time>
      </trkpt>
      <trkpt lat="44.82444" lon="0.96286">
        <ele>16.905972</ele>
        <time>2011-08-03T09:27:42.290Z</time>
      </trkpt>
      <trkpt lat="44.82442" lon="0.96301">
        <ele>16.906017</ele>
        <time>2011-08-03T09:27:45.273Z</time>
      </trkpt>
      <trkpt lat="44.82442" lon="0.96313">
        <ele>16.906059</ele>
        <time>2011-08-03T09:27:47.275Z</time>
      </trkpt>
      <trkpt lat="44.82441" lon="0.96326">
        <ele>16.906105</ele>
        <time>2011-08-03T09:27:49.279Z</time>
      </trkpt>
      <trkpt lat="44.8244" lon="0.96337">
        <ele>16.906136</ele>
        <time>2011-08-03T09:27:51.273Z</time>
      </trkpt>
      <trkpt lat="44.82436" lon="0.96385">
        <ele>16.9063</ele>
        <time>2011-08-03T09:28:04.277Z</time>
      </trkpt>
      <trkpt lat="44.82434" lon="0.9642">
        <ele>15.906406</ele>
        <time>2011-08-03T09:28:13.277Z</time>
      </trkpt>
      <trkpt lat="44.82433" lon="0.96453">
        <ele>15.906517</ele>
        <time>2011-08-03T09:28:19.279Z</time>
      </trkpt>
      <trkpt lat="44.82432" lon="0.9648">
        <ele>15.906609</ele>
        <time>2011-08-03T09:28:24.275Z</time>
      </trkpt>
      <trkpt lat="44.82432" lon="0.96487">
        <ele>14.906631</ele>
        <time>2011-08-03T09:28:30.276Z</time>
      </trkpt>
      <trkpt lat="44.82431" lon="0.96525">
        <ele>14.906761</ele>
        <time>2011-08-03T09:28:40.284Z</time>
      </trkpt>
      <trkpt lat="44.82431" lon="0.96566">
        <ele>14.906914</ele>
        <time>2011-08-03T09:28:51.275Z</time>
      </trkpt>
      <trkpt lat="44.82431" lon="0.96594">
        <ele>14.907005</ele>
        <time>2011-08-03T09:28:57.275Z</time>
      </trkpt>
      <trkpt lat="44.82432" lon="0.96623">
        <ele>14.907116</ele>
        <time>2011-08-03T09:29:02.272Z</time>
      </trkpt>
      <trkpt lat="44.82432" lon="0.96634">
        <ele>14.90715</ele>
        <time>2011-08-03T09:29:04.273Z</time>
      </trkpt>
      <trkpt lat="44.82432" lon="0.96644">
        <ele>14.907185</ele>
        <time>2011-08-03T09:29:06.275Z</time>
      </trkpt>
      <trkpt lat="44.82429" lon="0.96673">
        <ele>14.907276</ele>
        <time>2011-08-03T09:29:13.277Z</time>
      </trkpt>
      <trkpt lat="44.82413" lon="0.96717">
        <ele>15.907364</ele>
        <time>2011-08-03T09:29:30.274Z</time>
      </trkpt>
      <trkpt lat="44.82397" lon="0.96748">
        <ele>16.907417</ele>
        <time>2011-08-03T09:29:40.274Z</time>
      </trkpt>
      <trkpt lat="44.82388" lon="0.9677">
        <ele>16.907455</ele>
        <time>2011-08-03T09:29:44.270Z</time>
      </trkpt>
      <trkpt lat="44.82382" lon="0.96799">
        <ele>15.907528</ele>
        <time>2011-08-03T09:29:49.275Z</time>
      </trkpt>
      <trkpt lat="44.82377" lon="0.96824">
        <ele>15.9076</ele>
        <time>2011-08-03T09:29:54.274Z</time>
      </trkpt>
      <trkpt lat="44.82373" lon="0.96852">
        <ele>16.907669</ele>
        <time>2011-08-03T09:29:59.279Z</time>
      </trkpt>
      <trkpt lat="44.82369" lon="0.96877">
        <ele>16.907734</ele>
        <time>2011-08-03T09:30:04.277Z</time>
      </trkpt>
      <trkpt lat="44.82365" lon="0.96903">
        <ele>16.907822</ele>
        <time>2011-08-03T09:30:08.274Z</time>
      </trkpt>
      <trkpt lat="44.82361" lon="0.96931">
        <ele>16.907906</ele>
        <time>2011-08-03T09:30:12.276Z</time>
      </trkpt>
      <trkpt lat="44.82357" lon="0.96959">
        <ele>16.907982</ele>
        <time>2011-08-03T09:30:17.274Z</time>
      </trkpt>
      <trkpt lat="44.82356" lon="0.96965">
        <ele>16.908001</ele>
        <time>2011-08-03T09:30:18.278Z</time>
      </trkpt>
      <trkpt lat="44.82355" lon="0.96976">
        <ele>16.908043</ele>
        <time>2011-08-03T09:30:20.275Z</time>
      </trkpt>
      <trkpt lat="44.82351" lon="0.96999">
        <ele>16.908104</ele>
        <time>2011-08-03T09:30:24.274Z</time>
      </trkpt>
      <trkpt lat="44.8235" lon="0.9701">
        <ele>15.908138</ele>
        <time>2011-08-03T09:30:26.275Z</time>
      </trkpt>
      <trkpt lat="44.82348" lon="0.9702">
        <ele>15.908157</ele>
        <time>2011-08-03T09:30:28.275Z</time>
      </trkpt>
      <trkpt lat="44.82346" lon="0.97031">
        <ele>15.908195</ele>
        <time>2011-08-03T09:30:30.276Z</time>
      </trkpt>
      <trkpt lat="44.82344" lon="0.97041">
        <ele>15.908215</ele>
        <time>2011-08-03T09:30:32.274Z</time>
      </trkpt>
      <trkpt lat="44.82342" lon="0.97051">
        <ele>14.908249</ele>
        <time>2011-08-03T09:30:34.276Z</time>
      </trkpt>
      <trkpt lat="44.8234" lon="0.97061">
        <ele>14.908272</ele>
        <time>2011-08-03T09:30:36.274Z</time>
      </trkpt>
      <trkpt lat="44.82338" lon="0.97071">
        <ele>13.908306</ele>
        <time>2011-08-03T09:30:38.273Z</time>
      </trkpt>
      <trkpt lat="44.82335" lon="0.97081">
        <ele>13.908329</ele>
        <time>2011-08-03T09:30:40.276Z</time>
      </trkpt>
      <trkpt lat="44.82333" lon="0.97091">
        <ele>13.908356</ele>
        <time>2011-08-03T09:30:42.276Z</time>
      </trkpt>
      <trkpt lat="44.82332" lon="0.97101">
        <ele>13.908382</ele>
        <time>2011-08-03T09:30:44.272Z</time>
      </trkpt>
      <trkpt lat="44.8233" lon="0.97111">
        <ele>13.908409</ele>
        <time>2011-08-03T09:30:46.268Z</time>
      </trkpt>
      <trkpt lat="44.82328" lon="0.9712">
        <ele>13.90844</ele>
        <time>2011-08-03T09:30:48.275Z</time>
      </trkpt>
      <trkpt lat="44.82326" lon="0.9713">
        <ele>13.908451</ele>
        <time>2011-08-03T09:30:50.271Z</time>
      </trkpt>
      <trkpt lat="44.82323" lon="0.97143">
        <ele>13.908501</ele>
        <time>2011-08-03T09:30:53.272Z</time>
      </trkpt>
      <trkpt lat="44.82321" lon="0.97153">
        <ele>13.908516</ele>
        <time>2011-08-03T09:30:55.273Z</time>
      </trkpt>
      <trkpt lat="44.82318" lon="0.97167">
        <ele>13.908558</ele>
        <time>2011-08-03T09:30:58.274Z</time>
      </trkpt>
      <trkpt lat="44.82316" lon="0.97176">
        <ele>13.908577</ele>
        <time>2011-08-03T09:31:00.275Z</time>
      </trkpt>
      <trkpt lat="44.82314" lon="0.97186">
        <ele>12.908607</ele>
        <time>2011-08-03T09:31:02.285Z</time>
      </trkpt>
      <trkpt lat="44.82313" lon="0.97196">
        <ele>12.908634</ele>
        <time>2011-08-03T09:31:04.275Z</time>
      </trkpt>
      <trkpt lat="44.82311" lon="0.97205">
        <ele>12.908669</ele>
        <time>2011-08-03T09:31:06.274Z</time>
      </trkpt>
      <trkpt lat="44.8231" lon="0.97214">
        <ele>11.908688</ele>
        <time>2011-08-03T09:31:08.275Z</time>
      </trkpt>
      <trkpt lat="44.82309" lon="0.97224">
        <ele>11.908722</ele>
        <time>2011-08-03T09:31:10.275Z</time>
      </trkpt>
      <trkpt lat="44.82308" lon="0.97234">
        <ele>11.908749</ele>
        <time>2011-08-03T09:31:12.274Z</time>
      </trkpt>
      <trkpt lat="44.82306" lon="0.97243">
        <ele>12.908775</ele>
        <time>2011-08-03T09:31:14.271Z</time>
      </trkpt>
      <trkpt lat="44.82304" lon="0.97251">
        <ele>12.908802</ele>
        <time>2011-08-03T09:31:16.276Z</time>
      </trkpt>
      <trkpt lat="44.82301" lon="0.9726">
        <ele>12.908813</ele>
        <time>2011-08-03T09:31:18.275Z</time>
      </trkpt>
      <trkpt lat="44.82299" lon="0.97268">
        <ele>12.908833</ele>
        <time>2011-08-03T09:31:20.296Z</time>
      </trkpt>
      <trkpt lat="44.82296" lon="0.97277">
        <ele>12.908859</ele>
        <time>2011-08-03T09:31:22.279Z</time>
      </trkpt>
      <trkpt lat="44.82294" lon="0.97286">
        <ele>13.908875</ele>
        <time>2011-08-03T09:31:24.274Z</time>
      </trkpt>
      <trkpt lat="44.82291" lon="0.97294">
        <ele>13.908894</ele>
        <time>2011-08-03T09:31:26.277Z</time>
      </trkpt>
      <trkpt lat="44.82288" lon="0.97302">
        <ele>13.908909</ele>
        <time>2011-08-03T09:31:28.273Z</time>
      </trkpt>
      <trkpt lat="44.82285" lon="0.97311">
        <ele>13.908928</ele>
        <time>2011-08-03T09:31:30.274Z</time>
      </trkpt>
      <trkpt lat="44.82282" lon="0.97319">
        <ele>13.908943</ele>
        <time>2011-08-03T09:31:32.273Z</time>
      </trkpt>
      <trkpt lat="44.82281" lon="0.97328">
        <ele>13.908974</ele>
        <time>2011-08-03T09:31:34.286Z</time>
      </trkpt>
      <trkpt lat="44.82278" lon="0.97336">
        <ele>13.908993</ele>
        <time>2011-08-03T09:31:36.263Z</time>
      </trkpt>
      <trkpt lat="44.82276" lon="0.97344">
        <ele>13.909004</ele>
        <time>2011-08-03T09:31:38.273Z</time>
      </trkpt>
      <trkpt lat="44.82275" lon="0.97353">
        <ele>12.909042</ele>
        <time>2011-08-03T09:31:40.273Z</time>
      </trkpt>
      <trkpt lat="44.82274" lon="0.97363">
        <ele>12.909065</ele>
        <time>2011-08-03T09:31:42.276Z</time>
      </trkpt>
      <trkpt lat="44.82273" lon="0.97372">
        <ele>12.909096</ele>
        <time>2011-08-03T09:31:44.268Z</time>
      </trkpt>
      <trkpt lat="44.82271" lon="0.97386">
        <ele>11.909138</ele>
        <time>2011-08-03T09:31:47.275Z</time>
      </trkpt>
      <trkpt lat="44.8227" lon="0.97395">
        <ele>11.909161</ele>
        <time>2011-08-03T09:31:49.283Z</time>
      </trkpt>
      <trkpt lat="44.82269" lon="0.97404">
        <ele>11.909187</ele>
        <time>2011-08-03T09:31:51.274Z</time>
      </trkpt>
      <trkpt lat="44.82268" lon="0.97413">
        <ele>11.909222</ele>
        <time>2011-08-03T09:31:53.266Z</time>
      </trkpt>
      <trkpt lat="44.82268" lon="0.97422">
        <ele>11.909248</ele>
        <time>2011-08-03T09:31:55.276Z</time>
      </trkpt>
      <trkpt lat="44.82266" lon="0.97432">
        <ele>11.909271</ele>
        <time>2011-08-03T09:31:57.273Z</time>
      </trkpt>
      <trkpt lat="44.82262" lon="0.97459">
        <ele>11.909363</ele>
        <time>2011-08-03T09:32:03.287Z</time>
      </trkpt>
      <trkpt lat="44.82261" lon="0.97468">
        <ele>11.909382</ele>
        <time>2011-08-03T09:32:05.273Z</time>
      </trkpt>
      <trkpt lat="44.82259" lon="0.97478">
        <ele>10.909409</ele>
        <time>2011-08-03T09:32:07.275Z</time>
      </trkpt>
      <trkpt lat="44.82258" lon="0.97487">
        <ele>10.909435</ele>
        <time>2011-08-03T09:32:09.281Z</time>
      </trkpt>
      <trkpt lat="44.82257" lon="0.97496">
        <ele>10.909458</ele>
        <time>2011-08-03T09:32:11.274Z</time>
      </trkpt>
      <trkpt lat="44.82256" lon="0.97506">
        <ele>10.909504</ele>
        <time>2011-08-03T09:32:13.276Z</time>
      </trkpt>
      <trkpt lat="44.82255" lon="0.97517">
        <ele>10.909523</ele>
        <time>2011-08-03T09:32:15.275Z</time>
      </trkpt>
      <trkpt lat="44.82254" lon="0.97527">
        <ele>10.909565</ele>
        <time>2011-08-03T09:32:17.274Z</time>
      </trkpt>
      <trkpt lat="44.82254" lon="0.97537">
        <ele>10.909595</ele>
        <time>2011-08-03T09:32:19.274Z</time>
      </trkpt>
      <trkpt lat="44.82252" lon="0.97546">
        <ele>10.909622</ele>
        <time>2011-08-03T09:32:21.274Z</time>
      </trkpt>
      <trkpt lat="44.82252" lon="0.97556">
        <ele>10.909649</ele>
        <time>2011-08-03T09:32:23.271Z</time>
      </trkpt>
      <trkpt lat="44.82251" lon="0.97565">
        <ele>11.909687</ele>
        <time>2011-08-03T09:32:25.276Z</time>
      </trkpt>
      <trkpt lat="44.82247" lon="0.97592">
        <ele>11.90976</ele>
        <time>2011-08-03T09:32:35.274Z</time>
      </trkpt>
      <trkpt lat="44.82242" lon="0.97616">
        <ele>10.909828</ele>
        <time>2011-08-03T09:32:42.268Z</time>
      </trkpt>
      <trkpt lat="44.82237" lon="0.97646">
        <ele>9.909908</ele>
        <time>2011-08-03T09:32:49.281Z</time>
      </trkpt>
      <trkpt lat="44.82234" lon="0.97676">
        <ele>10.91</ele>
        <time>2011-08-03T09:32:57.276Z</time>
      </trkpt>
      <trkpt lat="44.82231" lon="0.97703">
        <ele>10.910091</ele>
        <time>2011-08-03T09:33:02.273Z</time>
      </trkpt>
      <trkpt lat="44.8223" lon="0.97734">
        <ele>10.910194</ele>
        <time>2011-08-03T09:33:08.273Z</time>
      </trkpt>
      <trkpt lat="44.82229" lon="0.9776">
        <ele>10.910282</ele>
        <time>2011-08-03T09:33:14.273Z</time>
      </trkpt>
      <trkpt lat="44.82228" lon="0.97789">
        <ele>10.910378</ele>
        <time>2011-08-03T09:33:19.271Z</time>
      </trkpt>
      <trkpt lat="44.82224" lon="0.97814">
        <ele>10.91045</ele>
        <time>2011-08-03T09:33:24.269Z</time>
      </trkpt>
      <trkpt lat="44.82222" lon="0.97844">
        <ele>9.910545</ele>
        <time>2011-08-03T09:33:30.267Z</time>
      </trkpt>
      <trkpt lat="44.82218" lon="0.9787">
        <ele>9.910618</ele>
        <time>2011-08-03T09:33:39.268Z</time>
      </trkpt>
      <trkpt lat="44.82213" lon="0.97895">
        <ele>9.910694</ele>
        <time>2011-08-03T09:33:46.275Z</time>
      </trkpt>
      <trkpt lat="44.82237" lon="0.97922">
        <ele>9.910885</ele>
        <time>2011-08-03T09:33:58.275Z</time>
      </trkpt>
      <trkpt lat="44.82265" lon="0.97933">
        <ele>10.911049</ele>
        <time>2011-08-03T09:34:10.273Z</time>
      </trkpt>
      <trkpt lat="44.82273" lon="0.9794">
        <ele>10.911102</ele>
        <time>2011-08-03T09:34:15.274Z</time>
      </trkpt>
      <trkpt lat="44.82287" lon="0.97974">
        <ele>9.911285</ele>
        <time>2011-08-03T09:34:37.243Z</time>
      </trkpt>
      <trkpt lat="44.82305" lon="0.97944">
        <ele>10.911259</ele>
        <time>2011-08-03T09:35:08.239Z</time>
      </trkpt>
      <trkpt lat="44.82332" lon="0.97943">
        <ele>8.911366</ele>
        <time>2011-08-03T09:35:25.239Z</time>
      </trkpt>
      <trkpt lat="44.82349" lon="0.97971">
        <ele>10.911537</ele>
        <time>2011-08-03T09:35:41.241Z</time>
      </trkpt>
      <trkpt lat="44.8235" lon="0.97979">
        <ele>10.911568</ele>
        <time>2011-08-03T09:35:43.241Z</time>
      </trkpt>
      <trkpt lat="44.82351" lon="0.97987">
        <ele>10.911606</ele>
        <time>2011-08-03T09:35:45.240Z</time>
      </trkpt>
      <trkpt lat="44.82353" lon="0.97996">
        <ele>10.911633</ele>
        <time>2011-08-03T09:35:47.234Z</time>
      </trkpt>
      <trkpt lat="44.82355" lon="0.98014">
        <ele>9.911709</ele>
        <time>2011-08-03T09:35:51.240Z</time>
      </trkpt>
      <trkpt lat="44.82357" lon="0.98027">
        <ele>8.911774</ele>
        <time>2011-08-03T09:35:54.242Z</time>
      </trkpt>
      <trkpt lat="44.82358" lon="0.98036">
        <ele>9.911808</ele>
        <time>2011-08-03T09:35:56.239Z</time>
      </trkpt>
      <trkpt lat="44.82359" lon="0.98045">
        <ele>9.911839</ele>
        <time>2011-08-03T09:35:58.241Z</time>
      </trkpt>
      <trkpt lat="44.82361" lon="0.98053">
        <ele>9.911877</ele>
        <time>2011-08-03T09:36:00.239Z</time>
      </trkpt>
      <trkpt lat="44.82363" lon="0.98066">
        <ele>8.91193</ele>
        <time>2011-08-03T09:36:03.275Z</time>
      </trkpt>
      <trkpt lat="44.82365" lon="0.98075">
        <ele>8.911968</ele>
        <time>2011-08-03T09:36:05.269Z</time>
      </trkpt>
      <trkpt lat="44.82366" lon="0.98084">
        <ele>8.912014</ele>
        <time>2011-08-03T09:36:07.288Z</time>
      </trkpt>
      <trkpt lat="44.82368" lon="0.98092">
        <ele>7.912048</ele>
        <time>2011-08-03T09:36:09.274Z</time>
      </trkpt>
      <trkpt lat="44.82369" lon="0.98101">
        <ele>7.912079</ele>
        <time>2011-08-03T09:36:11.272Z</time>
      </trkpt>
      <trkpt lat="44.82371" lon="0.98109">
        <ele>6.912113</ele>
        <time>2011-08-03T09:36:13.275Z</time>
      </trkpt>
      <trkpt lat="44.82374" lon="0.98124">
        <ele>8.912186</ele>
        <time>2011-08-03T09:36:17.285Z</time>
      </trkpt>
      <trkpt lat="44.82376" lon="0.98135">
        <ele>9.912235</ele>
        <time>2011-08-03T09:36:20.276Z</time>
      </trkpt>
      <trkpt lat="44.82377" lon="0.98143">
        <ele>9.912266</ele>
        <time>2011-08-03T09:36:22.271Z</time>
      </trkpt>
      <trkpt lat="44.82378" lon="0.98149">
        <ele>9.912289</ele>
        <time>2011-08-03T09:36:24.271Z</time>
      </trkpt>
      <trkpt lat="44.82378" lon="0.98156">
        <ele>9.912308</ele>
        <time>2011-08-03T09:36:26.270Z</time>
      </trkpt>
      <trkpt lat="44.82377" lon="0.98164">
        <ele>8.912338</ele>
        <time>2011-08-03T09:36:29.269Z</time>
      </trkpt>
      <trkpt lat="44.82376" lon="0.98191">
        <ele>7.91243</ele>
        <time>2011-08-03T09:36:40.271Z</time>
      </trkpt>
      <trkpt lat="44.82376" lon="0.98199">
        <ele>7.912464</ele>
        <time>2011-08-03T09:36:43.267Z</time>
      </trkpt>
      <trkpt lat="44.82378" lon="0.98212">
        <ele>8.912506</ele>
        <time>2011-08-03T09:36:49.279Z</time>
      </trkpt>
      <trkpt lat="44.82378" lon="0.98219">
        <ele>9.91254</ele>
        <time>2011-08-03T09:36:52.275Z</time>
      </trkpt>
      <trkpt lat="44.8238" lon="0.98234">
        <ele>9.912598</ele>
        <time>2011-08-03T09:36:58.243Z</time>
      </trkpt>
      <trkpt lat="44.82381" lon="0.98244">
        <ele>11.912632</ele>
        <time>2011-08-03T09:37:03.240Z</time>
      </trkpt>
      <trkpt lat="44.82384" lon="0.9826">
        <ele>14.912708</ele>
        <time>2011-08-03T09:37:12.244Z</time>
      </trkpt>
      <trkpt lat="44.82385" lon="0.9827">
        <ele>13.912746</ele>
        <time>2011-08-03T09:37:17.240Z</time>
      </trkpt>
      <trkpt lat="44.82384" lon="0.98279">
        <ele>12.912773</ele>
        <time>2011-08-03T09:37:22.241Z</time>
      </trkpt>
      <trkpt lat="44.82385" lon="0.98288">
        <ele>13.912807</ele>
        <time>2011-08-03T09:37:27.240Z</time>
      </trkpt>
      <trkpt lat="44.82387" lon="0.98302">
        <ele>13.912865</ele>
        <time>2011-08-03T09:37:34.243Z</time>
      </trkpt>
      <trkpt lat="44.8239" lon="0.98316">
        <ele>13.912926</ele>
        <time>2011-08-03T09:37:39.236Z</time>
      </trkpt>
      <trkpt lat="44.82393" lon="0.98326">
        <ele>13.912975</ele>
        <time>2011-08-03T09:37:43.242Z</time>
      </trkpt>
      <trkpt lat="44.82395" lon="0.98333">
        <ele>13.913017</ele>
        <time>2011-08-03T09:37:46.238Z</time>
      </trkpt>
      <trkpt lat="44.82393" lon="0.98339">
        <ele>9.913021</ele>
        <time>2011-08-03T09:38:52.243Z</time>
      </trkpt>
      <trkpt lat="44.82386" lon="0.98344">
        <ele>7.913017</ele>
        <time>2011-08-03T09:39:11.239Z</time>
      </trkpt>
      <trkpt lat="44.82383" lon="0.98359">
        <ele>5.913055</ele>
        <time>2011-08-03T09:39:31.239Z</time>
      </trkpt>
      <trkpt lat="44.82377" lon="0.98369">
        <ele>4.913059</ele>
        <time>2011-08-03T09:39:36.241Z</time>
      </trkpt>
      <trkpt lat="44.82369" lon="0.98381">
        <ele>2.913074</ele>
        <time>2011-08-03T09:39:40.253Z</time>
      </trkpt>
      <trkpt lat="44.82365" lon="0.98388">
        <ele>2.913074</ele>
        <time>2011-08-03T09:39:42.273Z</time>
      </trkpt>
      <trkpt lat="44.8236" lon="0.98395">
        <ele>2.913086</ele>
        <time>2011-08-03T09:39:44.268Z</time>
      </trkpt>
      <trkpt lat="44.82357" lon="0.98402">
        <ele>2.91309</ele>
        <time>2011-08-03T09:39:46.269Z</time>
      </trkpt>
      <trkpt lat="44.82353" lon="0.98409">
        <ele>2.913101</ele>
        <time>2011-08-03T09:39:48.271Z</time>
      </trkpt>
      <trkpt lat="44.8235" lon="0.98415">
        <ele>2.91312</ele>
        <time>2011-08-03T09:39:50.273Z</time>
      </trkpt>
      <trkpt lat="44.82347" lon="0.98422">
        <ele>2.913124</ele>
        <time>2011-08-03T09:39:52.272Z</time>
      </trkpt>
      <trkpt lat="44.82345" lon="0.98429">
        <ele>2.913143</ele>
        <time>2011-08-03T09:39:54.274Z</time>
      </trkpt>
      <trkpt lat="44.82342" lon="0.98439">
        <ele>2.913158</ele>
        <time>2011-08-03T09:39:57.270Z</time>
      </trkpt>
      <trkpt lat="44.8234" lon="0.98448">
        <ele>1.913177</ele>
        <time>2011-08-03T09:40:00.311Z</time>
      </trkpt>
      <trkpt lat="44.82336" lon="0.9846">
        <ele>0.913216</ele>
        <time>2011-08-03T09:40:04.271Z</time>
      </trkpt>
      <trkpt lat="44.82335" lon="0.98466">
        <ele>0.913235</ele>
        <time>2011-08-03T09:40:06.271Z</time>
      </trkpt>
      <trkpt lat="44.82333" lon="0.98472">
        <ele>0.913242</ele>
        <time>2011-08-03T09:40:08.267Z</time>
      </trkpt>
      <trkpt lat="44.8233" lon="0.98477">
        <ele>0.913246</ele>
        <time>2011-08-03T09:40:10.271Z</time>
      </trkpt>
      <trkpt lat="44.82328" lon="0.98483">
        <ele>1.913261</ele>
        <time>2011-08-03T09:40:12.273Z</time>
      </trkpt>
      <trkpt lat="44.82326" lon="0.98489">
        <ele>2.913277</ele>
        <time>2011-08-03T09:40:14.274Z</time>
      </trkpt>
      <trkpt lat="44.82324" lon="0.98499">
        <ele>2.913296</ele>
        <time>2011-08-03T09:40:17.268Z</time>
      </trkpt>
      <trkpt lat="44.82323" lon="0.98505">
        <ele>3.913315</ele>
        <time>2011-08-03T09:40:19.277Z</time>
      </trkpt>
      <trkpt lat="44.82322" lon="0.98515">
        <ele>3.913353</ele>
        <time>2011-08-03T09:40:22.267Z</time>
      </trkpt>
      <trkpt lat="44.82322" lon="0.98524">
        <ele>3.91338</ele>
        <time>2011-08-03T09:40:25.275Z</time>
      </trkpt>
      <trkpt lat="44.82322" lon="0.98532">
        <ele>3.913406</ele>
        <time>2011-08-03T09:40:28.274Z</time>
      </trkpt>
      <trkpt lat="44.82321" lon="0.9854">
        <ele>3.913425</ele>
        <time>2011-08-03T09:40:31.270Z</time>
      </trkpt>
      <trkpt lat="44.82319" lon="0.98549">
        <ele>4.913456</ele>
        <time>2011-08-03T09:40:34.270Z</time>
      </trkpt>
      <trkpt lat="44.82318" lon="0.98558">
        <ele>3.913486</ele>
        <time>2011-08-03T09:40:37.268Z</time>
      </trkpt>
      <trkpt lat="44.82318" lon="0.98567">
        <ele>2.913513</ele>
        <time>2011-08-03T09:40:40.272Z</time>
      </trkpt>
      <trkpt lat="44.82321" lon="0.98583">
        <ele>3.913586</ele>
        <time>2011-08-03T09:40:52.271Z</time>
      </trkpt>
      <trkpt lat="44.82319" lon="0.98577">
        <ele>4.913559</ele>
        <time>2011-08-03T09:41:11.233Z</time>
      </trkpt>
      <trkpt lat="44.82329" lon="0.98617">
        <ele>-0.086258</ele>
        <time>2011-08-03T09:41:51.238Z</time>
      </trkpt>
      <trkpt lat="44.8233" lon="0.9863">
        <ele>-3.086208</ele>
        <time>2011-08-03T09:42:03.237Z</time>
      </trkpt>
      <trkpt lat="44.8233" lon="0.98638">
        <ele>-1.086185</ele>
        <time>2011-08-03T09:42:20.238Z</time>
      </trkpt>
      <trkpt lat="44.82328" lon="0.98632">
        <ele>6.913776</ele>
        <time>2011-08-03T09:43:26.232Z</time>
      </trkpt>
      <trkpt lat="44.82307" lon="0.98635">
        <ele>5.913704</ele>
        <time>2011-08-03T09:44:33.237Z</time>
      </trkpt>
      <trkpt lat="44.82307" lon="0.98657">
        <ele>6.913792</ele>
        <time>2011-08-03T09:44:38.234Z</time>
      </trkpt>
      <trkpt lat="44.82309" lon="0.98684">
        <ele>5.913887</ele>
        <time>2011-08-03T09:44:45.274Z</time>
      </trkpt>
      <trkpt lat="44.82312" lon="0.98716">
        <ele>4.914017</ele>
        <time>2011-08-03T09:44:50.262Z</time>
      </trkpt>
      <trkpt lat="44.82315" lon="0.9874">
        <ele>3.914116</ele>
        <time>2011-08-03T09:44:56.273Z</time>
      </trkpt>
      <trkpt lat="44.82319" lon="0.98767">
        <ele>4.914223</ele>
        <time>2011-08-03T09:45:05.262Z</time>
      </trkpt>
      <trkpt lat="44.82322" lon="0.98786">
        <ele>5.914307</ele>
        <time>2011-08-03T09:45:09.268Z</time>
      </trkpt>
      <trkpt lat="44.82333" lon="0.98818">
        <ele>6.914463</ele>
        <time>2011-08-03T09:45:21.267Z</time>
      </trkpt>
      <trkpt lat="44.82338" lon="0.9883">
        <ele>6.914528</ele>
        <time>2011-08-03T09:45:24.267Z</time>
      </trkpt>
      <trkpt lat="44.82344" lon="0.98841">
        <ele>7.914593</ele>
        <time>2011-08-03T09:45:27.271Z</time>
      </trkpt>
      <trkpt lat="44.82355" lon="0.98854">
        <ele>6.914684</ele>
        <time>2011-08-03T09:45:32.271Z</time>
      </trkpt>
      <trkpt lat="44.82363" lon="0.98865">
        <ele>6.914761</ele>
        <time>2011-08-03T09:45:40.234Z</time>
      </trkpt>
      <trkpt lat="44.82386" lon="0.98884">
        <ele>7.914928</ele>
        <time>2011-08-03T09:45:58.235Z</time>
      </trkpt>
      <trkpt lat="44.82415" lon="0.98892">
        <ele>6.915077</ele>
        <time>2011-08-03T09:46:11.233Z</time>
      </trkpt>
      <trkpt lat="44.82437" lon="0.98914">
        <ele>5.915253</ele>
        <time>2011-08-03T09:46:55.235Z</time>
      </trkpt>
      <trkpt lat="44.82432" lon="0.98948">
        <ele>6.915352</ele>
        <time>2011-08-03T09:47:10.234Z</time>
      </trkpt>
      <trkpt lat="44.82427" lon="0.98961">
        <ele>6.915371</ele>
        <time>2011-08-03T09:47:17.233Z</time>
      </trkpt>
      <trkpt lat="44.82451" lon="0.98988">
        <ele>7.915565</ele>
        <time>2011-08-03T09:47:44.233Z</time>
      </trkpt>
      <trkpt lat="44.82475" lon="0.99001">
        <ele>8.915718</ele>
        <time>2011-08-03T09:47:49.274Z</time>
      </trkpt>
      <trkpt lat="44.82496" lon="0.99005">
        <ele>8.915817</ele>
        <time>2011-08-03T09:47:52.268Z</time>
      </trkpt>
      <trkpt lat="44.82514" lon="0.99009">
        <ele>8.915916</ele>
        <time>2011-08-03T09:47:56.268Z</time>
      </trkpt>
      <trkpt lat="44.82533" lon="0.99014">
        <ele>8.916008</ele>
        <time>2011-08-03T09:48:01.272Z</time>
      </trkpt>
      <trkpt lat="44.82554" lon="0.99019">
        <ele>8.916111</ele>
        <time>2011-08-03T09:48:06.329Z</time>
      </trkpt>
      <trkpt lat="44.82575" lon="0.99026">
        <ele>9.916225</ele>
        <time>2011-08-03T09:48:11.263Z</time>
      </trkpt>
      <trkpt lat="44.82583" lon="0.99027">
        <ele>9.916275</ele>
        <time>2011-08-03T09:48:13.273Z</time>
      </trkpt>
      <trkpt lat="44.82591" lon="0.9903">
        <ele>10.916309</ele>
        <time>2011-08-03T09:48:15.265Z</time>
      </trkpt>
      <trkpt lat="44.8261" lon="0.99035">
        <ele>10.916405</ele>
        <time>2011-08-03T09:48:20.265Z</time>
      </trkpt>
      <trkpt lat="44.82628" lon="0.99042">
        <ele>9.916515</ele>
        <time>2011-08-03T09:48:25.267Z</time>
      </trkpt>
      <trkpt lat="44.82648" lon="0.99048">
        <ele>9.916618</ele>
        <time>2011-08-03T09:48:30.267Z</time>
      </trkpt>
      <trkpt lat="44.82669" lon="0.99057">
        <ele>10.916737</ele>
        <time>2011-08-03T09:48:35.267Z</time>
      </trkpt>
      <trkpt lat="44.82677" lon="0.9906">
        <ele>10.916786</ele>
        <time>2011-08-03T09:48:37.271Z</time>
      </trkpt>
      <trkpt lat="44.82685" lon="0.99063">
        <ele>11.916828</ele>
        <time>2011-08-03T09:48:39.264Z</time>
      </trkpt>
      <trkpt lat="44.82693" lon="0.99066">
        <ele>11.91687</ele>
        <time>2011-08-03T09:48:41.265Z</time>
      </trkpt>
      <trkpt lat="44.827" lon="0.99069">
        <ele>11.916916</ele>
        <time>2011-08-03T09:48:43.269Z</time>
      </trkpt>
      <trkpt lat="44.82708" lon="0.99072">
        <ele>11.916958</ele>
        <time>2011-08-03T09:48:45.267Z</time>
      </trkpt>
      <trkpt lat="44.82729" lon="0.9908">
        <ele>10.917076</ele>
        <time>2011-08-03T09:48:50.267Z</time>
      </trkpt>
      <trkpt lat="44.82747" lon="0.99086">
        <ele>10.917175</ele>
        <time>2011-08-03T09:48:54.265Z</time>
      </trkpt>
      <trkpt lat="44.82764" lon="0.99094">
        <ele>10.917271</ele>
        <time>2011-08-03T09:48:58.267Z</time>
      </trkpt>
      <trkpt lat="44.82782" lon="0.99101">
        <ele>10.917381</ele>
        <time>2011-08-03T09:49:02.266Z</time>
      </trkpt>
      <trkpt lat="44.82801" lon="0.99111">
        <ele>10.917484</ele>
        <time>2011-08-03T09:49:06.257Z</time>
      </trkpt>
      <trkpt lat="44.8282" lon="0.99119">
        <ele>10.917599</ele>
        <time>2011-08-03T09:49:10.267Z</time>
      </trkpt>
      <trkpt lat="44.82839" lon="0.99126">
        <ele>9.917706</ele>
        <time>2011-08-03T09:49:14.260Z</time>
      </trkpt>
      <trkpt lat="44.82873" lon="0.9913">
        <ele>8.917862</ele>
        <time>2011-08-03T09:49:26.264Z</time>
      </trkpt>
      <trkpt lat="44.82904" lon="0.99136">
        <ele>9.918018</ele>
        <time>2011-08-03T09:49:32.263Z</time>
      </trkpt>
      <trkpt lat="44.82936" lon="0.99135">
        <ele>7.918144</ele>
        <time>2011-08-03T09:49:38.261Z</time>
      </trkpt>
      <trkpt lat="44.82963" lon="0.99129">
        <ele>7.918236</ele>
        <time>2011-08-03T09:49:43.268Z</time>
      </trkpt>
      <trkpt lat="44.82985" lon="0.99124">
        <ele>7.918316</ele>
        <time>2011-08-03T09:49:46.265Z</time>
      </trkpt>
      <trkpt lat="44.83002" lon="0.99116">
        <ele>7.918358</ele>
        <time>2011-08-03T09:49:49.265Z</time>
      </trkpt>
      <trkpt lat="44.83019" lon="0.99106">
        <ele>7.918396</ele>
        <time>2011-08-03T09:49:52.265Z</time>
      </trkpt>
      <trkpt lat="44.83036" lon="0.99095">
        <ele>7.918423</ele>
        <time>2011-08-03T09:49:55.268Z</time>
      </trkpt>
      <trkpt lat="44.83058" lon="0.9909">
        <ele>8.918503</ele>
        <time>2011-08-03T09:49:59.265Z</time>
      </trkpt>
      <trkpt lat="44.8308" lon="0.991">
        <ele>9.918636</ele>
        <time>2011-08-03T09:50:03.265Z</time>
      </trkpt>
      <trkpt lat="44.83099" lon="0.99114">
        <ele>10.918762</ele>
        <time>2011-08-03T09:50:06.290Z</time>
      </trkpt>
      <trkpt lat="44.83116" lon="0.99133">
        <ele>10.918903</ele>
        <time>2011-08-03T09:50:09.264Z</time>
      </trkpt>
      <trkpt lat="44.8312" lon="0.9914">
        <ele>11.918953</ele>
        <time>2011-08-03T09:50:10.264Z</time>
      </trkpt>
      <trkpt lat="44.83125" lon="0.99147">
        <ele>11.918995</ele>
        <time>2011-08-03T09:50:11.262Z</time>
      </trkpt>
      <trkpt lat="44.8313" lon="0.99154">
        <ele>11.919044</ele>
        <time>2011-08-03T09:50:12.266Z</time>
      </trkpt>
      <trkpt lat="44.83134" lon="0.99161">
        <ele>11.919083</ele>
        <time>2011-08-03T09:50:13.264Z</time>
      </trkpt>
      <trkpt lat="44.83144" lon="0.99184">
        <ele>11.919205</ele>
        <time>2011-08-03T09:50:17.260Z</time>
      </trkpt>
      <trkpt lat="44.83157" lon="0.99212">
        <ele>11.91935</ele>
        <time>2011-08-03T09:50:21.264Z</time>
      </trkpt>
      <trkpt lat="44.83169" lon="0.99236">
        <ele>11.919491</ele>
        <time>2011-08-03T09:50:24.269Z</time>
      </trkpt>
      <trkpt lat="44.83173" lon="0.99245">
        <ele>11.919544</ele>
        <time>2011-08-03T09:50:25.265Z</time>
      </trkpt>
      <trkpt lat="44.83178" lon="0.99254">
        <ele>11.919594</ele>
        <time>2011-08-03T09:50:26.266Z</time>
      </trkpt>
      <trkpt lat="44.83191" lon="0.99283">
        <ele>11.91975</ele>
        <time>2011-08-03T09:50:29.266Z</time>
      </trkpt>
      <trkpt lat="44.83204" lon="0.99313">
        <ele>11.919918</ele>
        <time>2011-08-03T09:50:32.255Z</time>
      </trkpt>
      <trkpt lat="44.83217" lon="0.99342">
        <ele>12.920082</ele>
        <time>2011-08-03T09:50:35.267Z</time>
      </trkpt>
      <trkpt lat="44.8323" lon="0.99371">
        <ele>12.920227</ele>
        <time>2011-08-03T09:50:38.262Z</time>
      </trkpt>
      <trkpt lat="44.83241" lon="0.99393">
        <ele>12.920357</ele>
        <time>2011-08-03T09:50:41.258Z</time>
      </trkpt>
      <trkpt lat="44.83229" lon="0.99372">
        <ele>12.920227</ele>
        <time>2011-08-03T09:50:42.262Z</time>
      </trkpt>
      <trkpt lat="44.83248" lon="0.99431">
        <ele>12.920525</ele>
        <time>2011-08-03T09:50:50.260Z</time>
      </trkpt>
      <trkpt lat="44.83266" lon="0.99471">
        <ele>12.920734</ele>
        <time>2011-08-03T09:50:52.265Z</time>
      </trkpt>
      <trkpt lat="44.83288" lon="0.99511">
        <ele>12.920975</ele>
        <time>2011-08-03T09:50:57.265Z</time>
      </trkpt>
      <trkpt lat="44.83309" lon="0.9954">
        <ele>11.921169</ele>
        <time>2011-08-03T09:51:01.279Z</time>
      </trkpt>
      <trkpt lat="44.83329" lon="0.99572">
        <ele>11.921368</ele>
        <time>2011-08-03T09:51:10.271Z</time>
      </trkpt>
      <trkpt lat="44.83321" lon="0.99615">
        <ele>12.921474</ele>
        <time>2011-08-03T09:51:19.275Z</time>
      </trkpt>
      <trkpt lat="44.83302" lon="0.9963">
        <ele>11.921455</ele>
        <time>2011-08-03T09:51:23.272Z</time>
      </trkpt>
      <trkpt lat="44.83256" lon="0.99649">
        <ele>10.921333</ele>
        <time>2011-08-03T09:51:31.271Z</time>
      </trkpt>
      <trkpt lat="44.83232" lon="0.99667">
        <ele>9.921291</ele>
        <time>2011-08-03T09:51:41.265Z</time>
      </trkpt>
      <trkpt lat="44.83214" lon="0.99682">
        <ele>8.921268</ele>
        <time>2011-08-03T09:51:46.263Z</time>
      </trkpt>
      <trkpt lat="44.83197" lon="0.99697">
        <ele>8.921253</ele>
        <time>2011-08-03T09:51:52.267Z</time>
      </trkpt>
      <trkpt lat="44.8318" lon="0.9971">
        <ele>7.921227</ele>
        <time>2011-08-03T09:51:58.265Z</time>
      </trkpt>
      <trkpt lat="44.83163" lon="0.99722">
        <ele>5.921192</ele>
        <time>2011-08-03T09:52:05.258Z</time>
      </trkpt>
      <trkpt lat="44.83136" lon="0.99723">
        <ele>4.921078</ele>
        <time>2011-08-03T09:52:23.258Z</time>
      </trkpt>
      <trkpt lat="44.83108" lon="0.99721">
        <ele>5.920952</ele>
        <time>2011-08-03T09:52:38.229Z</time>
      </trkpt>
      <trkpt lat="44.8308" lon="0.99727">
        <ele>4.920856</ele>
        <time>2011-08-03T09:52:51.231Z</time>
      </trkpt>
      <trkpt lat="44.83061" lon="0.99736">
        <ele>4.920815</ele>
        <time>2011-08-03T09:52:58.266Z</time>
      </trkpt>
      <trkpt lat="44.83043" lon="0.99742">
        <ele>6.920757</ele>
        <time>2011-08-03T09:53:03.255Z</time>
      </trkpt>
      <trkpt lat="44.83023" lon="0.99746">
        <ele>4.920685</ele>
        <time>2011-08-03T09:53:09.260Z</time>
      </trkpt>
      <trkpt lat="44.82989" lon="0.99754">
        <ele>3.920567</ele>
        <time>2011-08-03T09:53:22.262Z</time>
      </trkpt>
      <trkpt lat="44.82958" lon="0.99764">
        <ele>4.920475</ele>
        <time>2011-08-03T09:53:41.231Z</time>
      </trkpt>
      <trkpt lat="44.82926" lon="0.99768">
        <ele>4.920349</ele>
        <time>2011-08-03T09:53:53.225Z</time>
      </trkpt>
      <trkpt lat="44.82897" lon="0.99772">
        <ele>4.92025</ele>
        <time>2011-08-03T09:53:59.229Z</time>
      </trkpt>
      <trkpt lat="44.8287" lon="0.99776">
        <ele>4.920135</ele>
        <time>2011-08-03T09:54:04.228Z</time>
      </trkpt>
      <trkpt lat="44.82851" lon="0.99776">
        <ele>4.920055</ele>
        <time>2011-08-03T09:54:09.264Z</time>
      </trkpt>
      <trkpt lat="44.82831" lon="0.99775">
        <ele>4.919968</ele>
        <time>2011-08-03T09:54:14.257Z</time>
      </trkpt>
    </trkseg>
  </trk>
</gpx>